<?xml version="1.0" encoding="UTF-8" standalone="no" ?>
<gpx xmlns="http://www.topografix.com/GPX/1/1" xmlns:xsi="http://www.w3.org/2001/XMLSchema-instance" xsi:schemaLocation="http://www.topografix.com/GPX/1/1 http://www.topografix.com/GPX/1/1/gpx.xsd" version="1.1" creator="VisuGPX - https://www.visugpx.com">
  <metadata>
    <name>Trail Gaudissart 2013</name>
    <desc><![CDATA[Trail Gaudissart à Pélasque]]></desc>
  </metadata>
  <trk>
    <name><![CDATA[Move]]></name>
    <trkseg>
      <trkpt lat="43.95568" lon="7.28004">
        <ele>651</ele>
        <time>2013-08-18T07:02:33.030Z</time>
      </trkpt>
      <trkpt lat="43.95552" lon="7.27979">
        <ele>651</ele>
        <time>2013-08-18T07:02:42.120Z</time>
      </trkpt>
      <trkpt lat="43.95547" lon="7.27974">
        <ele>651</ele>
        <time>2013-08-18T07:02:44.060Z</time>
      </trkpt>
      <trkpt lat="43.95541" lon="7.27973">
        <ele>651</ele>
        <time>2013-08-18T07:02:46.060Z</time>
      </trkpt>
      <trkpt lat="43.95533" lon="7.27979">
        <ele>651</ele>
        <time>2013-08-18T07:02:49.160Z</time>
      </trkpt>
      <trkpt lat="43.95524" lon="7.27981">
        <ele>651</ele>
        <time>2013-08-18T07:02:52.060Z</time>
      </trkpt>
      <trkpt lat="43.95519" lon="7.27976">
        <ele>651</ele>
        <time>2013-08-18T07:02:54.060Z</time>
      </trkpt>
      <trkpt lat="43.95517" lon="7.27969">
        <ele>651</ele>
        <time>2013-08-18T07:02:56.060Z</time>
      </trkpt>
      <trkpt lat="43.95525" lon="7.27953">
        <ele>651</ele>
        <time>2013-08-18T07:03:00.040Z</time>
      </trkpt>
      <trkpt lat="43.95536" lon="7.27942">
        <ele>651</ele>
        <time>2013-08-18T07:03:04.060Z</time>
      </trkpt>
      <trkpt lat="43.95548" lon="7.2792">
        <ele>651</ele>
        <time>2013-08-18T07:03:10.060Z</time>
      </trkpt>
      <trkpt lat="43.95549" lon="7.27925">
        <ele>651</ele>
        <time>2013-08-18T07:03:14.170Z</time>
      </trkpt>
      <trkpt lat="43.95548" lon="7.27926">
        <ele>651</ele>
        <time>2013-08-18T07:03:16.060Z</time>
      </trkpt>
      <trkpt lat="43.9555" lon="7.27927">
        <ele>651</ele>
        <time>2013-08-18T07:03:18.060Z</time>
      </trkpt>
      <trkpt lat="43.95556" lon="7.27924">
        <ele>651</ele>
        <time>2013-08-18T07:03:22.060Z</time>
      </trkpt>
      <trkpt lat="43.95557" lon="7.2792">
        <ele>651</ele>
        <time>2013-08-18T07:03:26Z</time>
      </trkpt>
      <trkpt lat="43.95558" lon="7.27919">
        <ele>652.09998207977</ele>
        <time>2013-08-18T07:03:27.960Z</time>
      </trkpt>
      <trkpt lat="43.9556" lon="7.27918">
        <ele>656</ele>
        <time>2013-08-18T07:03:28.960Z</time>
      </trkpt>
      <trkpt lat="43.95563" lon="7.27913">
        <ele>656</ele>
        <time>2013-08-18T07:03:32.060Z</time>
      </trkpt>
      <trkpt lat="43.95564" lon="7.2791">
        <ele>659</ele>
        <time>2013-08-18T07:03:34.040Z</time>
      </trkpt>
      <trkpt lat="43.95566" lon="7.27904">
        <ele>659.32000409605</ele>
        <time>2013-08-18T07:03:38.060Z</time>
      </trkpt>
      <trkpt lat="43.95571" lon="7.2791">
        <ele>661</ele>
        <time>2013-08-18T07:03:45.060Z</time>
      </trkpt>
      <trkpt lat="43.95574" lon="7.2791">
        <ele>661</ele>
        <time>2013-08-18T07:03:46.960Z</time>
      </trkpt>
      <trkpt lat="43.95574" lon="7.27906">
        <ele>663</ele>
        <time>2013-08-18T07:03:48.960Z</time>
      </trkpt>
      <trkpt lat="43.95575" lon="7.27899">
        <ele>663.44000716791</ele>
        <time>2013-08-18T07:03:52.960Z</time>
      </trkpt>
      <trkpt lat="43.95578" lon="7.27903">
        <ele>665</ele>
        <time>2013-08-18T07:03:57.060Z</time>
      </trkpt>
      <trkpt lat="43.95582" lon="7.27891">
        <ele>669</ele>
        <time>2013-08-18T07:04:03.960Z</time>
      </trkpt>
      <trkpt lat="43.95584" lon="7.27893">
        <ele>669</ele>
        <time>2013-08-18T07:04:06.060Z</time>
      </trkpt>
      <trkpt lat="43.95586" lon="7.279">
        <ele>671</ele>
        <time>2013-08-18T07:04:10.040Z</time>
      </trkpt>
      <trkpt lat="43.95588" lon="7.27892">
        <ele>673</ele>
        <time>2013-08-18T07:04:15.040Z</time>
      </trkpt>
      <trkpt lat="43.95591" lon="7.27886">
        <ele>673.43999283191</ele>
        <time>2013-08-18T07:04:17.960Z</time>
      </trkpt>
      <trkpt lat="43.95592" lon="7.27887">
        <ele>675</ele>
        <time>2013-08-18T07:04:18.960Z</time>
      </trkpt>
      <trkpt lat="43.95595" lon="7.27891">
        <ele>675</ele>
        <time>2013-08-18T07:04:22.060Z</time>
      </trkpt>
      <trkpt lat="43.95596" lon="7.27896">
        <ele>677</ele>
        <time>2013-08-18T07:04:26.060Z</time>
      </trkpt>
      <trkpt lat="43.95602" lon="7.27895">
        <ele>678</ele>
        <time>2013-08-18T07:04:30.060Z</time>
      </trkpt>
      <trkpt lat="43.95609" lon="7.279">
        <ele>680</ele>
        <time>2013-08-18T07:04:35.040Z</time>
      </trkpt>
      <trkpt lat="43.95612" lon="7.27903">
        <ele>680</ele>
        <time>2013-08-18T07:04:37.060Z</time>
      </trkpt>
      <trkpt lat="43.95613" lon="7.27907">
        <ele>683</ele>
        <time>2013-08-18T07:04:39.060Z</time>
      </trkpt>
      <trkpt lat="43.95616" lon="7.27911">
        <ele>683</ele>
        <time>2013-08-18T07:04:42.120Z</time>
      </trkpt>
      <trkpt lat="43.95619" lon="7.27913">
        <ele>685</ele>
        <time>2013-08-18T07:04:44.060Z</time>
      </trkpt>
      <trkpt lat="43.95624" lon="7.27915">
        <ele>685</ele>
        <time>2013-08-18T07:04:46.960Z</time>
      </trkpt>
      <trkpt lat="43.95626" lon="7.27916">
        <ele>687</ele>
        <time>2013-08-18T07:04:48.940Z</time>
      </trkpt>
      <trkpt lat="43.9563" lon="7.27921">
        <ele>687</ele>
        <time>2013-08-18T07:04:52.060Z</time>
      </trkpt>
      <trkpt lat="43.95645" lon="7.27926">
        <ele>688</ele>
        <time>2013-08-18T07:04:59.100Z</time>
      </trkpt>
      <trkpt lat="43.95659" lon="7.27927">
        <ele>688</ele>
        <time>2013-08-18T07:05:06.040Z</time>
      </trkpt>
      <trkpt lat="43.95664" lon="7.27926">
        <ele>688.96001228816</ele>
        <time>2013-08-18T07:05:08.060Z</time>
      </trkpt>
      <trkpt lat="43.95666" lon="7.27924">
        <ele>691</ele>
        <time>2013-08-18T07:05:09.060Z</time>
      </trkpt>
      <trkpt lat="43.95673" lon="7.2792">
        <ele>691</ele>
        <time>2013-08-18T07:05:12.060Z</time>
      </trkpt>
      <trkpt lat="43.95678" lon="7.27916">
        <ele>694</ele>
        <time>2013-08-18T07:05:14.060Z</time>
      </trkpt>
      <trkpt lat="43.95687" lon="7.27912">
        <ele>694</ele>
        <time>2013-08-18T07:05:16.970Z</time>
      </trkpt>
      <trkpt lat="43.95716" lon="7.27914">
        <ele>694</ele>
        <time>2013-08-18T07:05:26.960Z</time>
      </trkpt>
      <trkpt lat="43.95745" lon="7.27892">
        <ele>695</ele>
        <time>2013-08-18T07:05:39.060Z</time>
      </trkpt>
      <trkpt lat="43.95762" lon="7.27874">
        <ele>695.21999641595</ele>
        <time>2013-08-18T07:05:47.960Z</time>
      </trkpt>
      <trkpt lat="43.95778" lon="7.27865">
        <ele>696</ele>
        <time>2013-08-18T07:05:53.060Z</time>
      </trkpt>
      <trkpt lat="43.95787" lon="7.27865">
        <ele>696</ele>
        <time>2013-08-18T07:05:54.940Z</time>
      </trkpt>
      <trkpt lat="43.95795" lon="7.27869">
        <ele>696</ele>
        <time>2013-08-18T07:05:56.940Z</time>
      </trkpt>
      <trkpt lat="43.95802" lon="7.27875">
        <ele>694</ele>
        <time>2013-08-18T07:05:59.060Z</time>
      </trkpt>
      <trkpt lat="43.95824" lon="7.27895">
        <ele>694</ele>
        <time>2013-08-18T07:06:06Z</time>
      </trkpt>
      <trkpt lat="43.95829" lon="7.27902">
        <ele>693.12001433618</ele>
        <time>2013-08-18T07:06:07.960Z</time>
      </trkpt>
      <trkpt lat="43.95831" lon="7.27904">
        <ele>690</ele>
        <time>2013-08-18T07:06:08.960Z</time>
      </trkpt>
      <trkpt lat="43.95849" lon="7.27908">
        <ele>689</ele>
        <time>2013-08-18T07:06:15.060Z</time>
      </trkpt>
      <trkpt lat="43.9586" lon="7.2791">
        <ele>689</ele>
        <time>2013-08-18T07:06:19.060Z</time>
      </trkpt>
      <trkpt lat="43.95862" lon="7.27908">
        <ele>689</ele>
        <time>2013-08-18T07:06:20.060Z</time>
      </trkpt>
      <trkpt lat="43.95865" lon="7.27896">
        <ele>689</ele>
        <time>2013-08-18T07:06:23.960Z</time>
      </trkpt>
      <trkpt lat="43.9587" lon="7.27889">
        <ele>689</ele>
        <time>2013-08-18T07:06:27.060Z</time>
      </trkpt>
      <trkpt lat="43.95872" lon="7.27888">
        <ele>691</ele>
        <time>2013-08-18T07:06:29.060Z</time>
      </trkpt>
      <trkpt lat="43.95883" lon="7.27886">
        <ele>691</ele>
        <time>2013-08-18T07:06:35.060Z</time>
      </trkpt>
      <trkpt lat="43.95885" lon="7.27884">
        <ele>691</ele>
        <time>2013-08-18T07:06:37.060Z</time>
      </trkpt>
      <trkpt lat="43.95886" lon="7.27881">
        <ele>696</ele>
        <time>2013-08-18T07:06:39.100Z</time>
      </trkpt>
      <trkpt lat="43.95887" lon="7.27879">
        <ele>696</ele>
        <time>2013-08-18T07:06:40.060Z</time>
      </trkpt>
      <trkpt lat="43.9589" lon="7.27867">
        <ele>697</ele>
        <time>2013-08-18T07:06:44.110Z</time>
      </trkpt>
      <trkpt lat="43.95884" lon="7.27844">
        <ele>697</ele>
        <time>2013-08-18T07:06:50.120Z</time>
      </trkpt>
      <trkpt lat="43.95886" lon="7.27816">
        <ele>697</ele>
        <time>2013-08-18T07:06:56.060Z</time>
      </trkpt>
      <trkpt lat="43.95884" lon="7.27781">
        <ele>697</ele>
        <time>2013-08-18T07:07:04.180Z</time>
      </trkpt>
      <trkpt lat="43.95885" lon="7.27774">
        <ele>697</ele>
        <time>2013-08-18T07:07:05.960Z</time>
      </trkpt>
      <trkpt lat="43.95908" lon="7.27717">
        <ele>698</ele>
        <time>2013-08-18T07:07:23.040Z</time>
      </trkpt>
      <trkpt lat="43.95914" lon="7.27696">
        <ele>699</ele>
        <time>2013-08-18T07:07:29.060Z</time>
      </trkpt>
      <trkpt lat="43.95918" lon="7.27688">
        <ele>699</ele>
        <time>2013-08-18T07:07:31.110Z</time>
      </trkpt>
      <trkpt lat="43.95925" lon="7.27681">
        <ele>699</ele>
        <time>2013-08-18T07:07:34.040Z</time>
      </trkpt>
      <trkpt lat="43.95927" lon="7.27677">
        <ele>699</ele>
        <time>2013-08-18T07:07:36.100Z</time>
      </trkpt>
      <trkpt lat="43.95931" lon="7.27675">
        <ele>700</ele>
        <time>2013-08-18T07:07:38.940Z</time>
      </trkpt>
      <trkpt lat="43.95935" lon="7.27666">
        <ele>700</ele>
        <time>2013-08-18T07:07:41.960Z</time>
      </trkpt>
      <trkpt lat="43.95936" lon="7.2766">
        <ele>700</ele>
        <time>2013-08-18T07:07:44.060Z</time>
      </trkpt>
      <trkpt lat="43.95929" lon="7.2764">
        <ele>700</ele>
        <time>2013-08-18T07:07:50.060Z</time>
      </trkpt>
      <trkpt lat="43.95931" lon="7.27628">
        <ele>700</ele>
        <time>2013-08-18T07:07:53.060Z</time>
      </trkpt>
      <trkpt lat="43.95936" lon="7.27615">
        <ele>700</ele>
        <time>2013-08-18T07:07:56.960Z</time>
      </trkpt>
      <trkpt lat="43.95938" lon="7.27609">
        <ele>702</ele>
        <time>2013-08-18T07:07:58.960Z</time>
      </trkpt>
      <trkpt lat="43.95942" lon="7.27589">
        <ele>702</ele>
        <time>2013-08-18T07:08:03.960Z</time>
      </trkpt>
      <trkpt lat="43.95943" lon="7.27547">
        <ele>704</ele>
        <time>2013-08-18T07:08:13.040Z</time>
      </trkpt>
      <trkpt lat="43.95926" lon="7.2748">
        <ele>704</ele>
        <time>2013-08-18T07:08:27.060Z</time>
      </trkpt>
      <trkpt lat="43.9592" lon="7.27445">
        <ele>703</ele>
        <time>2013-08-18T07:08:34.040Z</time>
      </trkpt>
      <trkpt lat="43.95917" lon="7.27424">
        <ele>703</ele>
        <time>2013-08-18T07:08:37.960Z</time>
      </trkpt>
      <trkpt lat="43.95917" lon="7.27419">
        <ele>703</ele>
        <time>2013-08-18T07:08:38.960Z</time>
      </trkpt>
      <trkpt lat="43.95929" lon="7.27385">
        <ele>703</ele>
        <time>2013-08-18T07:08:46.070Z</time>
      </trkpt>
      <trkpt lat="43.95933" lon="7.27363">
        <ele>702</ele>
        <time>2013-08-18T07:08:51.940Z</time>
      </trkpt>
      <trkpt lat="43.95942" lon="7.27359">
        <ele>702</ele>
        <time>2013-08-18T07:08:56.120Z</time>
      </trkpt>
      <trkpt lat="43.9595" lon="7.27356">
        <ele>705</ele>
        <time>2013-08-18T07:09:00.110Z</time>
      </trkpt>
      <trkpt lat="43.95969" lon="7.27342">
        <ele>705</ele>
        <time>2013-08-18T07:09:07.120Z</time>
      </trkpt>
      <trkpt lat="43.95969" lon="7.2734">
        <ele>705</ele>
        <time>2013-08-18T07:09:09.060Z</time>
      </trkpt>
      <trkpt lat="43.95967" lon="7.2734">
        <ele>705</ele>
        <time>2013-08-18T07:09:11.060Z</time>
      </trkpt>
      <trkpt lat="43.95962" lon="7.27344">
        <ele>705</ele>
        <time>2013-08-18T07:09:15.130Z</time>
      </trkpt>
      <trkpt lat="43.95952" lon="7.27343">
        <ele>705</ele>
        <time>2013-08-18T07:09:19.960Z</time>
      </trkpt>
      <trkpt lat="43.95939" lon="7.27333">
        <ele>705</ele>
        <time>2013-08-18T07:09:24.940Z</time>
      </trkpt>
      <trkpt lat="43.95927" lon="7.2733">
        <ele>705</ele>
        <time>2013-08-18T07:09:28.960Z</time>
      </trkpt>
      <trkpt lat="43.95918" lon="7.27321">
        <ele>705</ele>
        <time>2013-08-18T07:09:32.060Z</time>
      </trkpt>
      <trkpt lat="43.95913" lon="7.27313">
        <ele>705</ele>
        <time>2013-08-18T07:09:33.940Z</time>
      </trkpt>
      <trkpt lat="43.95911" lon="7.27298">
        <ele>705</ele>
        <time>2013-08-18T07:09:36.960Z</time>
      </trkpt>
      <trkpt lat="43.95913" lon="7.27252">
        <ele>704</ele>
        <time>2013-08-18T07:09:47.040Z</time>
      </trkpt>
      <trkpt lat="43.95924" lon="7.27212">
        <ele>704</ele>
        <time>2013-08-18T07:09:56.120Z</time>
      </trkpt>
      <trkpt lat="43.95948" lon="7.27176">
        <ele>704</ele>
        <time>2013-08-18T07:10:05.960Z</time>
      </trkpt>
      <trkpt lat="43.95953" lon="7.27164">
        <ele>704</ele>
        <time>2013-08-18T07:10:09.060Z</time>
      </trkpt>
      <trkpt lat="43.95953" lon="7.2716">
        <ele>704</ele>
        <time>2013-08-18T07:10:10.130Z</time>
      </trkpt>
      <trkpt lat="43.95957" lon="7.27154">
        <ele>704</ele>
        <time>2013-08-18T07:10:12.040Z</time>
      </trkpt>
      <trkpt lat="43.95971" lon="7.27137">
        <ele>704</ele>
        <time>2013-08-18T07:10:17.040Z</time>
      </trkpt>
      <trkpt lat="43.95984" lon="7.27125">
        <ele>703</ele>
        <time>2013-08-18T07:10:23.100Z</time>
      </trkpt>
      <trkpt lat="43.95984" lon="7.27108">
        <ele>703</ele>
        <time>2013-08-18T07:10:26.960Z</time>
      </trkpt>
      <trkpt lat="43.95985" lon="7.27104">
        <ele>703.21999641595</ele>
        <time>2013-08-18T07:10:27.960Z</time>
      </trkpt>
      <trkpt lat="43.95997" lon="7.27079">
        <ele>704</ele>
        <time>2013-08-18T07:10:34.040Z</time>
      </trkpt>
      <trkpt lat="43.96004" lon="7.27059">
        <ele>704.32000409605</ele>
        <time>2013-08-18T07:10:38.060Z</time>
      </trkpt>
      <trkpt lat="43.96009" lon="7.27051">
        <ele>705</ele>
        <time>2013-08-18T07:10:40.130Z</time>
      </trkpt>
      <trkpt lat="43.96047" lon="7.27019">
        <ele>705</ele>
        <time>2013-08-18T07:10:53.060Z</time>
      </trkpt>
      <trkpt lat="43.96064" lon="7.27014">
        <ele>705</ele>
        <time>2013-08-18T07:10:58.130Z</time>
      </trkpt>
      <trkpt lat="43.96083" lon="7.27002">
        <ele>705</ele>
        <time>2013-08-18T07:11:04.060Z</time>
      </trkpt>
      <trkpt lat="43.961" lon="7.26999">
        <ele>706</ele>
        <time>2013-08-18T07:11:09.130Z</time>
      </trkpt>
      <trkpt lat="43.96124" lon="7.26992">
        <ele>706</ele>
        <time>2013-08-18T07:11:17.040Z</time>
      </trkpt>
      <trkpt lat="43.96133" lon="7.26989">
        <ele>708</ele>
        <time>2013-08-18T07:11:20.040Z</time>
      </trkpt>
      <trkpt lat="43.96151" lon="7.27001">
        <ele>708</ele>
        <time>2013-08-18T07:11:27.070Z</time>
      </trkpt>
      <trkpt lat="43.96156" lon="7.27002">
        <ele>710</ele>
        <time>2013-08-18T07:11:29.100Z</time>
      </trkpt>
      <trkpt lat="43.96165" lon="7.27003">
        <ele>710</ele>
        <time>2013-08-18T07:11:33.070Z</time>
      </trkpt>
      <trkpt lat="43.96175" lon="7.26982">
        <ele>710</ele>
        <time>2013-08-18T07:11:39.060Z</time>
      </trkpt>
      <trkpt lat="43.96189" lon="7.26967">
        <ele>710</ele>
        <time>2013-08-18T07:11:44.060Z</time>
      </trkpt>
      <trkpt lat="43.96196" lon="7.26957">
        <ele>710</ele>
        <time>2013-08-18T07:11:47.060Z</time>
      </trkpt>
      <trkpt lat="43.96208" lon="7.26949">
        <ele>710</ele>
        <time>2013-08-18T07:11:51.040Z</time>
      </trkpt>
      <trkpt lat="43.96232" lon="7.26938">
        <ele>710</ele>
        <time>2013-08-18T07:11:57.970Z</time>
      </trkpt>
      <trkpt lat="43.96251" lon="7.2692">
        <ele>710</ele>
        <time>2013-08-18T07:12:05.060Z</time>
      </trkpt>
      <trkpt lat="43.96256" lon="7.26911">
        <ele>710</ele>
        <time>2013-08-18T07:12:08.060Z</time>
      </trkpt>
      <trkpt lat="43.9627" lon="7.26874">
        <ele>710</ele>
        <time>2013-08-18T07:12:17.040Z</time>
      </trkpt>
      <trkpt lat="43.96273" lon="7.26867">
        <ele>709</ele>
        <time>2013-08-18T07:12:19.060Z</time>
      </trkpt>
      <trkpt lat="43.96285" lon="7.26853">
        <ele>709</ele>
        <time>2013-08-18T07:12:23.960Z</time>
      </trkpt>
      <trkpt lat="43.9629" lon="7.26842">
        <ele>709</ele>
        <time>2013-08-18T07:12:26.960Z</time>
      </trkpt>
      <trkpt lat="43.96315" lon="7.26814">
        <ele>711</ele>
        <time>2013-08-18T07:12:39.060Z</time>
      </trkpt>
      <trkpt lat="43.96337" lon="7.26802">
        <ele>711</ele>
        <time>2013-08-18T07:12:46.060Z</time>
      </trkpt>
      <trkpt lat="43.96353" lon="7.26796">
        <ele>711</ele>
        <time>2013-08-18T07:12:51.040Z</time>
      </trkpt>
      <trkpt lat="43.9637" lon="7.26785">
        <ele>711</ele>
        <time>2013-08-18T07:12:56.960Z</time>
      </trkpt>
      <trkpt lat="43.96376" lon="7.26781">
        <ele>713</ele>
        <time>2013-08-18T07:12:58.960Z</time>
      </trkpt>
      <trkpt lat="43.96383" lon="7.26777">
        <ele>713</ele>
        <time>2013-08-18T07:13:01.940Z</time>
      </trkpt>
      <trkpt lat="43.96403" lon="7.26771">
        <ele>714</ele>
        <time>2013-08-18T07:13:09.060Z</time>
      </trkpt>
      <trkpt lat="43.96457" lon="7.26794">
        <ele>714.43999283191</ele>
        <time>2013-08-18T07:13:27.960Z</time>
      </trkpt>
      <trkpt lat="43.9646" lon="7.26795">
        <ele>716</ele>
        <time>2013-08-18T07:13:28.960Z</time>
      </trkpt>
      <trkpt lat="43.96467" lon="7.268">
        <ele>716</ele>
        <time>2013-08-18T07:13:32Z</time>
      </trkpt>
      <trkpt lat="43.96472" lon="7.26808">
        <ele>716</ele>
        <time>2013-08-18T07:13:35.060Z</time>
      </trkpt>
      <trkpt lat="43.96476" lon="7.26809">
        <ele>716</ele>
        <time>2013-08-18T07:13:37.060Z</time>
      </trkpt>
      <trkpt lat="43.9648" lon="7.26812">
        <ele>719</ele>
        <time>2013-08-18T07:13:39.060Z</time>
      </trkpt>
      <trkpt lat="43.9649" lon="7.2682">
        <ele>719.72001638379</ele>
        <time>2013-08-18T07:13:43.100Z</time>
      </trkpt>
      <trkpt lat="43.96493" lon="7.26821">
        <ele>721</ele>
        <time>2013-08-18T07:13:44.060Z</time>
      </trkpt>
      <trkpt lat="43.96503" lon="7.2682">
        <ele>721</ele>
        <time>2013-08-18T07:13:47.070Z</time>
      </trkpt>
      <trkpt lat="43.96516" lon="7.26822">
        <ele>722</ele>
        <time>2013-08-18T07:13:50.940Z</time>
      </trkpt>
      <trkpt lat="43.96539" lon="7.26808">
        <ele>723</ele>
        <time>2013-08-18T07:14:01.060Z</time>
      </trkpt>
      <trkpt lat="43.96545" lon="7.26807">
        <ele>723</ele>
        <time>2013-08-18T07:14:02.960Z</time>
      </trkpt>
      <trkpt lat="43.96555" lon="7.2681">
        <ele>723</ele>
        <time>2013-08-18T07:14:05.960Z</time>
      </trkpt>
      <trkpt lat="43.96566" lon="7.2682">
        <ele>725</ele>
        <time>2013-08-18T07:14:11.060Z</time>
      </trkpt>
      <trkpt lat="43.96578" lon="7.26823">
        <ele>725</ele>
        <time>2013-08-18T07:14:15.060Z</time>
      </trkpt>
      <trkpt lat="43.96584" lon="7.26827">
        <ele>725</ele>
        <time>2013-08-18T07:14:16.970Z</time>
      </trkpt>
      <trkpt lat="43.96592" lon="7.26829">
        <ele>728</ele>
        <time>2013-08-18T07:14:20.060Z</time>
      </trkpt>
      <trkpt lat="43.96598" lon="7.26829">
        <ele>728</ele>
        <time>2013-08-18T07:14:21.960Z</time>
      </trkpt>
      <trkpt lat="43.96603" lon="7.26828">
        <ele>730</ele>
        <time>2013-08-18T07:14:23.960Z</time>
      </trkpt>
      <trkpt lat="43.96608" lon="7.26824">
        <ele>730</ele>
        <time>2013-08-18T07:14:25.960Z</time>
      </trkpt>
      <trkpt lat="43.96622" lon="7.26821">
        <ele>730</ele>
        <time>2013-08-18T07:14:31.060Z</time>
      </trkpt>
      <trkpt lat="43.96627" lon="7.26823">
        <ele>730</ele>
        <time>2013-08-18T07:14:33.060Z</time>
      </trkpt>
      <trkpt lat="43.96637" lon="7.26821">
        <ele>730</ele>
        <time>2013-08-18T07:14:37.060Z</time>
      </trkpt>
      <trkpt lat="43.96641" lon="7.26821">
        <ele>732</ele>
        <time>2013-08-18T07:14:39.060Z</time>
      </trkpt>
      <trkpt lat="43.96645" lon="7.26818">
        <ele>732</ele>
        <time>2013-08-18T07:14:41.060Z</time>
      </trkpt>
      <trkpt lat="43.96657" lon="7.26815">
        <ele>732</ele>
        <time>2013-08-18T07:14:47.060Z</time>
      </trkpt>
      <trkpt lat="43.96663" lon="7.26813">
        <ele>736</ele>
        <time>2013-08-18T07:14:50.100Z</time>
      </trkpt>
      <trkpt lat="43.96678" lon="7.26794">
        <ele>739</ele>
        <time>2013-08-18T07:14:59.940Z</time>
      </trkpt>
      <trkpt lat="43.96689" lon="7.26774">
        <ele>742</ele>
        <time>2013-08-18T07:15:09.060Z</time>
      </trkpt>
      <trkpt lat="43.96705" lon="7.26755">
        <ele>743.59999487993</ele>
        <time>2013-08-18T07:15:18.040Z</time>
      </trkpt>
      <trkpt lat="43.96708" lon="7.26754">
        <ele>745</ele>
        <time>2013-08-18T07:15:19.060Z</time>
      </trkpt>
      <trkpt lat="43.96714" lon="7.26751">
        <ele>745</ele>
        <time>2013-08-18T07:15:22.060Z</time>
      </trkpt>
      <trkpt lat="43.96718" lon="7.26751">
        <ele>747</ele>
        <time>2013-08-18T07:15:24.100Z</time>
      </trkpt>
      <trkpt lat="43.96729" lon="7.2675">
        <ele>748</ele>
        <time>2013-08-18T07:15:30.060Z</time>
      </trkpt>
      <trkpt lat="43.96743" lon="7.26742">
        <ele>751</ele>
        <time>2013-08-18T07:15:39.060Z</time>
      </trkpt>
      <trkpt lat="43.96749" lon="7.26736">
        <ele>751</ele>
        <time>2013-08-18T07:15:42.060Z</time>
      </trkpt>
      <trkpt lat="43.96752" lon="7.26731">
        <ele>753</ele>
        <time>2013-08-18T07:15:44.110Z</time>
      </trkpt>
      <trkpt lat="43.96759" lon="7.26714">
        <ele>753</ele>
        <time>2013-08-18T07:15:49.060Z</time>
      </trkpt>
      <trkpt lat="43.96766" lon="7.26703">
        <ele>753</ele>
        <time>2013-08-18T07:15:53.060Z</time>
      </trkpt>
      <trkpt lat="43.96771" lon="7.267">
        <ele>753</ele>
        <time>2013-08-18T07:15:54.960Z</time>
      </trkpt>
      <trkpt lat="43.96777" lon="7.267">
        <ele>753.51999385592</ele>
        <time>2013-08-18T07:15:58Z</time>
      </trkpt>
      <trkpt lat="43.9678" lon="7.267">
        <ele>755</ele>
        <time>2013-08-18T07:15:58.960Z</time>
      </trkpt>
      <trkpt lat="43.96794" lon="7.26702">
        <ele>755</ele>
        <time>2013-08-18T07:16:04.940Z</time>
      </trkpt>
      <trkpt lat="43.96799" lon="7.26703">
        <ele>755</ele>
        <time>2013-08-18T07:16:06.960Z</time>
      </trkpt>
      <trkpt lat="43.96803" lon="7.26705">
        <ele>758</ele>
        <time>2013-08-18T07:16:08.870Z</time>
      </trkpt>
      <trkpt lat="43.96809" lon="7.26708">
        <ele>758</ele>
        <time>2013-08-18T07:16:12.060Z</time>
      </trkpt>
      <trkpt lat="43.96811" lon="7.26707">
        <ele>760</ele>
        <time>2013-08-18T07:16:14.060Z</time>
      </trkpt>
      <trkpt lat="43.96825" lon="7.26701">
        <ele>762</ele>
        <time>2013-08-18T07:16:21.060Z</time>
      </trkpt>
      <trkpt lat="43.96834" lon="7.26701">
        <ele>763</ele>
        <time>2013-08-18T07:16:25.060Z</time>
      </trkpt>
      <trkpt lat="43.96846" lon="7.26705">
        <ele>764</ele>
        <time>2013-08-18T07:16:31.100Z</time>
      </trkpt>
      <trkpt lat="43.96858" lon="7.26699">
        <ele>764</ele>
        <time>2013-08-18T07:16:37.120Z</time>
      </trkpt>
      <trkpt lat="43.96863" lon="7.26696">
        <ele>768</ele>
        <time>2013-08-18T07:16:39.060Z</time>
      </trkpt>
      <trkpt lat="43.96872" lon="7.26691">
        <ele>768</ele>
        <time>2013-08-18T07:16:43.040Z</time>
      </trkpt>
      <trkpt lat="43.96876" lon="7.26694">
        <ele>768</ele>
        <time>2013-08-18T07:16:45.060Z</time>
      </trkpt>
      <trkpt lat="43.96877" lon="7.26698">
        <ele>768</ele>
        <time>2013-08-18T07:16:47.060Z</time>
      </trkpt>
      <trkpt lat="43.96881" lon="7.26729">
        <ele>769</ele>
        <time>2013-08-18T07:16:56.060Z</time>
      </trkpt>
      <trkpt lat="43.96886" lon="7.26739">
        <ele>771</ele>
        <time>2013-08-18T07:16:59.060Z</time>
      </trkpt>
      <trkpt lat="43.96895" lon="7.26759">
        <ele>771</ele>
        <time>2013-08-18T07:17:05.100Z</time>
      </trkpt>
      <trkpt lat="43.96902" lon="7.26766">
        <ele>771.75999692796</ele>
        <time>2013-08-18T07:17:08.120Z</time>
      </trkpt>
      <trkpt lat="43.96909" lon="7.2678">
        <ele>773</ele>
        <time>2013-08-18T07:17:12.060Z</time>
      </trkpt>
      <trkpt lat="43.96911" lon="7.26787">
        <ele>773</ele>
        <time>2013-08-18T07:17:14.060Z</time>
      </trkpt>
      <trkpt lat="43.96916" lon="7.26792">
        <ele>773</ele>
        <time>2013-08-18T07:17:17.040Z</time>
      </trkpt>
      <trkpt lat="43.96918" lon="7.26794">
        <ele>775</ele>
        <time>2013-08-18T07:17:19.120Z</time>
      </trkpt>
      <trkpt lat="43.96931" lon="7.2681">
        <ele>775</ele>
        <time>2013-08-18T07:17:27Z</time>
      </trkpt>
      <trkpt lat="43.96935" lon="7.26811">
        <ele>777</ele>
        <time>2013-08-18T07:17:28.960Z</time>
      </trkpt>
      <trkpt lat="43.9694" lon="7.26806">
        <ele>777</ele>
        <time>2013-08-18T07:17:30.960Z</time>
      </trkpt>
      <trkpt lat="43.96989" lon="7.26792">
        <ele>777</ele>
        <time>2013-08-18T07:17:46.960Z</time>
      </trkpt>
      <trkpt lat="43.96994" lon="7.26792">
        <ele>779</ele>
        <time>2013-08-18T07:17:49Z</time>
      </trkpt>
      <trkpt lat="43.97007" lon="7.26797">
        <ele>779</ele>
        <time>2013-08-18T07:17:53.940Z</time>
      </trkpt>
      <trkpt lat="43.97023" lon="7.26796">
        <ele>780</ele>
        <time>2013-08-18T07:17:59.060Z</time>
      </trkpt>
      <trkpt lat="43.9706" lon="7.26806">
        <ele>781</ele>
        <time>2013-08-18T07:18:11Z</time>
      </trkpt>
      <trkpt lat="43.97066" lon="7.2681">
        <ele>781</ele>
        <time>2013-08-18T07:18:12.960Z</time>
      </trkpt>
      <trkpt lat="43.97072" lon="7.26821">
        <ele>781</ele>
        <time>2013-08-18T07:18:16.060Z</time>
      </trkpt>
      <trkpt lat="43.97079" lon="7.26826">
        <ele>781.32000409605</ele>
        <time>2013-08-18T07:18:18.060Z</time>
      </trkpt>
      <trkpt lat="43.97099" lon="7.2683">
        <ele>782</ele>
        <time>2013-08-18T07:18:24.060Z</time>
      </trkpt>
      <trkpt lat="43.97125" lon="7.26841">
        <ele>783</ele>
        <time>2013-08-18T07:18:33.090Z</time>
      </trkpt>
      <trkpt lat="43.9716" lon="7.26845">
        <ele>785</ele>
        <time>2013-08-18T07:18:44.120Z</time>
      </trkpt>
      <trkpt lat="43.97165" lon="7.26852">
        <ele>785</ele>
        <time>2013-08-18T07:18:46.060Z</time>
      </trkpt>
      <trkpt lat="43.97167" lon="7.26856">
        <ele>785</ele>
        <time>2013-08-18T07:18:47.060Z</time>
      </trkpt>
      <trkpt lat="43.9717" lon="7.26874">
        <ele>785</ele>
        <time>2013-08-18T07:18:51.040Z</time>
      </trkpt>
      <trkpt lat="43.97175" lon="7.26877">
        <ele>785</ele>
        <time>2013-08-18T07:18:54.060Z</time>
      </trkpt>
      <trkpt lat="43.97185" lon="7.26873">
        <ele>785.32000409605</ele>
        <time>2013-08-18T07:18:58.060Z</time>
      </trkpt>
      <trkpt lat="43.97192" lon="7.26876">
        <ele>786</ele>
        <time>2013-08-18T07:19:01.060Z</time>
      </trkpt>
      <trkpt lat="43.972" lon="7.26886">
        <ele>786</ele>
        <time>2013-08-18T07:19:03.960Z</time>
      </trkpt>
      <trkpt lat="43.9721" lon="7.26902">
        <ele>787</ele>
        <time>2013-08-18T07:19:08.960Z</time>
      </trkpt>
      <trkpt lat="43.97215" lon="7.26913">
        <ele>787</ele>
        <time>2013-08-18T07:19:12.960Z</time>
      </trkpt>
      <trkpt lat="43.97226" lon="7.26926">
        <ele>787.43999283191</ele>
        <time>2013-08-18T07:19:17.960Z</time>
      </trkpt>
      <trkpt lat="43.97227" lon="7.26929">
        <ele>789</ele>
        <time>2013-08-18T07:19:18.980Z</time>
      </trkpt>
      <trkpt lat="43.97237" lon="7.26944">
        <ele>789</ele>
        <time>2013-08-18T07:19:25.060Z</time>
      </trkpt>
      <trkpt lat="43.97244" lon="7.2697">
        <ele>791</ele>
        <time>2013-08-18T07:19:32.060Z</time>
      </trkpt>
      <trkpt lat="43.97247" lon="7.26973">
        <ele>791</ele>
        <time>2013-08-18T07:19:34.100Z</time>
      </trkpt>
      <trkpt lat="43.97251" lon="7.26972">
        <ele>791</ele>
        <time>2013-08-18T07:19:36.060Z</time>
      </trkpt>
      <trkpt lat="43.97254" lon="7.26968">
        <ele>791.77226066459</ele>
        <time>2013-08-18T07:19:38.130Z</time>
      </trkpt>
      <trkpt lat="43.97255" lon="7.26952">
        <ele>793</ele>
        <time>2013-08-18T07:19:44.060Z</time>
      </trkpt>
      <trkpt lat="43.97265" lon="7.26912">
        <ele>793</ele>
        <time>2013-08-18T07:19:54.060Z</time>
      </trkpt>
      <trkpt lat="43.9727" lon="7.26902">
        <ele>793</ele>
        <time>2013-08-18T07:19:56.960Z</time>
      </trkpt>
      <trkpt lat="43.97273" lon="7.26896">
        <ele>795</ele>
        <time>2013-08-18T07:19:58.960Z</time>
      </trkpt>
      <trkpt lat="43.97281" lon="7.26885">
        <ele>795</ele>
        <time>2013-08-18T07:20:03.060Z</time>
      </trkpt>
      <trkpt lat="43.97287" lon="7.26883">
        <ele>795</ele>
        <time>2013-08-18T07:20:06.060Z</time>
      </trkpt>
      <trkpt lat="43.97296" lon="7.26884">
        <ele>797</ele>
        <time>2013-08-18T07:20:10.060Z</time>
      </trkpt>
      <trkpt lat="43.97307" lon="7.26888">
        <ele>797</ele>
        <time>2013-08-18T07:20:14.110Z</time>
      </trkpt>
      <trkpt lat="43.97327" lon="7.26907">
        <ele>799</ele>
        <time>2013-08-18T07:20:22.060Z</time>
      </trkpt>
      <trkpt lat="43.9734" lon="7.26915">
        <ele>799</ele>
        <time>2013-08-18T07:20:27.060Z</time>
      </trkpt>
      <trkpt lat="43.97344" lon="7.26915">
        <ele>801</ele>
        <time>2013-08-18T07:20:29.060Z</time>
      </trkpt>
      <trkpt lat="43.97357" lon="7.26908">
        <ele>801</ele>
        <time>2013-08-18T07:20:34.040Z</time>
      </trkpt>
      <trkpt lat="43.97366" lon="7.26902">
        <ele>801</ele>
        <time>2013-08-18T07:20:37.150Z</time>
      </trkpt>
      <trkpt lat="43.97373" lon="7.26898">
        <ele>803</ele>
        <time>2013-08-18T07:20:39.060Z</time>
      </trkpt>
      <trkpt lat="43.97389" lon="7.26897">
        <ele>803</ele>
        <time>2013-08-18T07:20:45.060Z</time>
      </trkpt>
      <trkpt lat="43.97403" lon="7.26892">
        <ele>804</ele>
        <time>2013-08-18T07:20:50.060Z</time>
      </trkpt>
      <trkpt lat="43.97391" lon="7.2689">
        <ele>805</ele>
        <time>2013-08-18T07:20:59.110Z</time>
      </trkpt>
      <trkpt lat="43.9738" lon="7.26875">
        <ele>805</ele>
        <time>2013-08-18T07:21:04.960Z</time>
      </trkpt>
      <trkpt lat="43.97376" lon="7.26867">
        <ele>805.43999283191</ele>
        <time>2013-08-18T07:21:07.960Z</time>
      </trkpt>
      <trkpt lat="43.97376" lon="7.26863">
        <ele>807</ele>
        <time>2013-08-18T07:21:08.960Z</time>
      </trkpt>
      <trkpt lat="43.97378" lon="7.2683">
        <ele>807</ele>
        <time>2013-08-18T07:21:17.040Z</time>
      </trkpt>
      <trkpt lat="43.97379" lon="7.26822">
        <ele>809</ele>
        <time>2013-08-18T07:21:20.060Z</time>
      </trkpt>
      <trkpt lat="43.97371" lon="7.26811">
        <ele>809</ele>
        <time>2013-08-18T07:21:25.130Z</time>
      </trkpt>
      <trkpt lat="43.97369" lon="7.26803">
        <ele>809</ele>
        <time>2013-08-18T07:21:27.060Z</time>
      </trkpt>
      <trkpt lat="43.97369" lon="7.26796">
        <ele>812</ele>
        <time>2013-08-18T07:21:29.120Z</time>
      </trkpt>
      <trkpt lat="43.97372" lon="7.26784">
        <ele>812.42000102399</ele>
        <time>2013-08-18T07:21:33.160Z</time>
      </trkpt>
      <trkpt lat="43.97374" lon="7.26762">
        <ele>813</ele>
        <time>2013-08-18T07:21:40.130Z</time>
      </trkpt>
      <trkpt lat="43.97371" lon="7.26757">
        <ele>813</ele>
        <time>2013-08-18T07:21:42.060Z</time>
      </trkpt>
      <trkpt lat="43.97365" lon="7.26754">
        <ele>813</ele>
        <time>2013-08-18T07:21:44.960Z</time>
      </trkpt>
      <trkpt lat="43.97361" lon="7.26754">
        <ele>813</ele>
        <time>2013-08-18T07:21:46.960Z</time>
      </trkpt>
      <trkpt lat="43.97356" lon="7.26753">
        <ele>815</ele>
        <time>2013-08-18T07:21:48.940Z</time>
      </trkpt>
      <trkpt lat="43.97347" lon="7.2675">
        <ele>815</ele>
        <time>2013-08-18T07:21:52.960Z</time>
      </trkpt>
      <trkpt lat="43.97341" lon="7.26743">
        <ele>815</ele>
        <time>2013-08-18T07:21:56.040Z</time>
      </trkpt>
      <trkpt lat="43.97338" lon="7.26737">
        <ele>816.28001638421</ele>
        <time>2013-08-18T07:21:58.060Z</time>
      </trkpt>
      <trkpt lat="43.97337" lon="7.26733">
        <ele>819</ele>
        <time>2013-08-18T07:21:59.060Z</time>
      </trkpt>
      <trkpt lat="43.97336" lon="7.26724">
        <ele>819</ele>
        <time>2013-08-18T07:22:02.060Z</time>
      </trkpt>
      <trkpt lat="43.97334" lon="7.26719">
        <ele>821</ele>
        <time>2013-08-18T07:22:04.120Z</time>
      </trkpt>
      <trkpt lat="43.97327" lon="7.26714">
        <ele>822</ele>
        <time>2013-08-18T07:22:09.060Z</time>
      </trkpt>
      <trkpt lat="43.97323" lon="7.26707">
        <ele>822</ele>
        <time>2013-08-18T07:22:11.960Z</time>
      </trkpt>
      <trkpt lat="43.97319" lon="7.26705">
        <ele>824</ele>
        <time>2013-08-18T07:22:13.960Z</time>
      </trkpt>
      <trkpt lat="43.97315" lon="7.26702">
        <ele>824</ele>
        <time>2013-08-18T07:22:17.040Z</time>
      </trkpt>
      <trkpt lat="43.97312" lon="7.26699">
        <ele>826</ele>
        <time>2013-08-18T07:22:19.060Z</time>
      </trkpt>
      <trkpt lat="43.97305" lon="7.26686">
        <ele>827</ele>
        <time>2013-08-18T07:22:25.060Z</time>
      </trkpt>
      <trkpt lat="43.97301" lon="7.26655">
        <ele>830</ele>
        <time>2013-08-18T07:22:35.060Z</time>
      </trkpt>
      <trkpt lat="43.973" lon="7.26638">
        <ele>831</ele>
        <time>2013-08-18T07:22:41.060Z</time>
      </trkpt>
      <trkpt lat="43.97298" lon="7.26629">
        <ele>831</ele>
        <time>2013-08-18T07:22:46.060Z</time>
      </trkpt>
      <trkpt lat="43.97293" lon="7.26626">
        <ele>834</ele>
        <time>2013-08-18T07:22:50.060Z</time>
      </trkpt>
      <trkpt lat="43.9729" lon="7.26623">
        <ele>834</ele>
        <time>2013-08-18T07:22:52.060Z</time>
      </trkpt>
      <trkpt lat="43.97287" lon="7.26621">
        <ele>837</ele>
        <time>2013-08-18T07:22:54.060Z</time>
      </trkpt>
      <trkpt lat="43.97272" lon="7.26609">
        <ele>838.72001638379</ele>
        <time>2013-08-18T07:23:03.100Z</time>
      </trkpt>
      <trkpt lat="43.97264" lon="7.26606">
        <ele>840</ele>
        <time>2013-08-18T07:23:07.060Z</time>
      </trkpt>
      <trkpt lat="43.97263" lon="7.26602">
        <ele>840</ele>
        <time>2013-08-18T07:23:09.060Z</time>
      </trkpt>
      <trkpt lat="43.9727" lon="7.26584">
        <ele>841.11000460806</ele>
        <time>2013-08-18T07:23:18.110Z</time>
      </trkpt>
      <trkpt lat="43.97271" lon="7.26578">
        <ele>843</ele>
        <time>2013-08-18T07:23:20.060Z</time>
      </trkpt>
      <trkpt lat="43.97271" lon="7.26572">
        <ele>843</ele>
        <time>2013-08-18T07:23:22.120Z</time>
      </trkpt>
      <trkpt lat="43.97271" lon="7.26567">
        <ele>846</ele>
        <time>2013-08-18T07:23:24.120Z</time>
      </trkpt>
      <trkpt lat="43.97271" lon="7.26559">
        <ele>846</ele>
        <time>2013-08-18T07:23:27.060Z</time>
      </trkpt>
      <trkpt lat="43.97272" lon="7.26553">
        <ele>848</ele>
        <time>2013-08-18T07:23:30.060Z</time>
      </trkpt>
      <trkpt lat="43.97279" lon="7.26531">
        <ele>850</ele>
        <time>2013-08-18T07:23:38.960Z</time>
      </trkpt>
      <trkpt lat="43.97285" lon="7.2652">
        <ele>850</ele>
        <time>2013-08-18T07:23:45.060Z</time>
      </trkpt>
      <trkpt lat="43.97286" lon="7.26513">
        <ele>850.92998310378</ele>
        <time>2013-08-18T07:23:48.050Z</time>
      </trkpt>
      <trkpt lat="43.97285" lon="7.2651">
        <ele>853</ele>
        <time>2013-08-18T07:23:49.060Z</time>
      </trkpt>
      <trkpt lat="43.97284" lon="7.26501">
        <ele>853</ele>
        <time>2013-08-18T07:23:52.060Z</time>
      </trkpt>
      <trkpt lat="43.97283" lon="7.26495">
        <ele>856</ele>
        <time>2013-08-18T07:23:54.060Z</time>
      </trkpt>
      <trkpt lat="43.97281" lon="7.26487">
        <ele>856</ele>
        <time>2013-08-18T07:23:57.060Z</time>
      </trkpt>
      <trkpt lat="43.97279" lon="7.26482">
        <ele>858</ele>
        <time>2013-08-18T07:23:59.060Z</time>
      </trkpt>
      <trkpt lat="43.97263" lon="7.2646">
        <ele>859</ele>
        <time>2013-08-18T07:24:09.100Z</time>
      </trkpt>
      <trkpt lat="43.9726" lon="7.26438">
        <ele>859</ele>
        <time>2013-08-18T07:24:17.120Z</time>
      </trkpt>
      <trkpt lat="43.97261" lon="7.2643">
        <ele>862</ele>
        <time>2013-08-18T07:24:19.050Z</time>
      </trkpt>
      <trkpt lat="43.97262" lon="7.26429">
        <ele>862</ele>
        <time>2013-08-18T07:24:20.100Z</time>
      </trkpt>
      <trkpt lat="43.97266" lon="7.26431">
        <ele>862</ele>
        <time>2013-08-18T07:24:21.970Z</time>
      </trkpt>
      <trkpt lat="43.97275" lon="7.26444">
        <ele>863</ele>
        <time>2013-08-18T07:24:26.050Z</time>
      </trkpt>
      <trkpt lat="43.9728" lon="7.26447">
        <ele>863</ele>
        <time>2013-08-18T07:24:28.110Z</time>
      </trkpt>
      <trkpt lat="43.97283" lon="7.26446">
        <ele>863</ele>
        <time>2013-08-18T07:24:29.050Z</time>
      </trkpt>
      <trkpt lat="43.97302" lon="7.26427">
        <ele>863</ele>
        <time>2013-08-18T07:24:37.050Z</time>
      </trkpt>
      <trkpt lat="43.97313" lon="7.26401">
        <ele>864</ele>
        <time>2013-08-18T07:24:45.110Z</time>
      </trkpt>
      <trkpt lat="43.97319" lon="7.26374">
        <ele>865</ele>
        <time>2013-08-18T07:24:52.120Z</time>
      </trkpt>
      <trkpt lat="43.97321" lon="7.26353">
        <ele>865</ele>
        <time>2013-08-18T07:24:57.050Z</time>
      </trkpt>
      <trkpt lat="43.97322" lon="7.26345">
        <ele>867</ele>
        <time>2013-08-18T07:24:59.120Z</time>
      </trkpt>
      <trkpt lat="43.97328" lon="7.26323">
        <ele>867</ele>
        <time>2013-08-18T07:25:05.050Z</time>
      </trkpt>
      <trkpt lat="43.97333" lon="7.26319">
        <ele>867</ele>
        <time>2013-08-18T07:25:06.950Z</time>
      </trkpt>
      <trkpt lat="43.97343" lon="7.26319">
        <ele>867</ele>
        <time>2013-08-18T07:25:10.950Z</time>
      </trkpt>
      <trkpt lat="43.97356" lon="7.26328">
        <ele>867</ele>
        <time>2013-08-18T07:25:16.960Z</time>
      </trkpt>
      <trkpt lat="43.9736" lon="7.26333">
        <ele>869</ele>
        <time>2013-08-18T07:25:19.050Z</time>
      </trkpt>
      <trkpt lat="43.97368" lon="7.2634">
        <ele>869</ele>
        <time>2013-08-18T07:25:22.110Z</time>
      </trkpt>
      <trkpt lat="43.97382" lon="7.26344">
        <ele>869.39997951974</ele>
        <time>2013-08-18T07:25:27.940Z</time>
      </trkpt>
      <trkpt lat="43.97384" lon="7.26346">
        <ele>871</ele>
        <time>2013-08-18T07:25:28.950Z</time>
      </trkpt>
      <trkpt lat="43.97397" lon="7.26361">
        <ele>871</ele>
        <time>2013-08-18T07:25:35.050Z</time>
      </trkpt>
      <trkpt lat="43.97405" lon="7.26366">
        <ele>871.75999692796</ele>
        <time>2013-08-18T07:25:38.120Z</time>
      </trkpt>
      <trkpt lat="43.97414" lon="7.26367">
        <ele>873</ele>
        <time>2013-08-18T07:25:41.050Z</time>
      </trkpt>
      <trkpt lat="43.97441" lon="7.26363">
        <ele>874</ele>
        <time>2013-08-18T07:25:49.950Z</time>
      </trkpt>
      <trkpt lat="43.97448" lon="7.26365">
        <ele>874</ele>
        <time>2013-08-18T07:25:51.950Z</time>
      </trkpt>
      <trkpt lat="43.97458" lon="7.26376">
        <ele>874</ele>
        <time>2013-08-18T07:25:56.050Z</time>
      </trkpt>
      <trkpt lat="43.97471" lon="7.26373">
        <ele>874</ele>
        <time>2013-08-18T07:26:00.040Z</time>
      </trkpt>
      <trkpt lat="43.97488" lon="7.26379">
        <ele>874</ele>
        <time>2013-08-18T07:26:04.950Z</time>
      </trkpt>
      <trkpt lat="43.97495" lon="7.26385">
        <ele>874</ele>
        <time>2013-08-18T07:26:07.050Z</time>
      </trkpt>
      <trkpt lat="43.97503" lon="7.26399">
        <ele>874</ele>
        <time>2013-08-18T07:26:11.050Z</time>
      </trkpt>
      <trkpt lat="43.97508" lon="7.26416">
        <ele>874</ele>
        <time>2013-08-18T07:26:15.060Z</time>
      </trkpt>
      <trkpt lat="43.97511" lon="7.26438">
        <ele>874</ele>
        <time>2013-08-18T07:26:19.950Z</time>
      </trkpt>
      <trkpt lat="43.97535" lon="7.26463">
        <ele>875</ele>
        <time>2013-08-18T07:26:29.950Z</time>
      </trkpt>
      <trkpt lat="43.97547" lon="7.2647">
        <ele>875</ele>
        <time>2013-08-18T07:26:34.860Z</time>
      </trkpt>
      <trkpt lat="43.97564" lon="7.26485">
        <ele>876</ele>
        <time>2013-08-18T07:26:40.950Z</time>
      </trkpt>
      <trkpt lat="43.97571" lon="7.26485">
        <ele>876</ele>
        <time>2013-08-18T07:26:43.950Z</time>
      </trkpt>
      <trkpt lat="43.97578" lon="7.26482">
        <ele>876</ele>
        <time>2013-08-18T07:26:45.940Z</time>
      </trkpt>
      <trkpt lat="43.9759" lon="7.26471">
        <ele>876</ele>
        <time>2013-08-18T07:26:49.950Z</time>
      </trkpt>
      <trkpt lat="43.97596" lon="7.26469">
        <ele>876</ele>
        <time>2013-08-18T07:26:51.950Z</time>
      </trkpt>
      <trkpt lat="43.97602" lon="7.2647">
        <ele>876</ele>
        <time>2013-08-18T07:26:53.950Z</time>
      </trkpt>
      <trkpt lat="43.97617" lon="7.2648">
        <ele>875.74000307204</ele>
        <time>2013-08-18T07:26:58Z</time>
      </trkpt>
      <trkpt lat="43.97627" lon="7.26495">
        <ele>875</ele>
        <time>2013-08-18T07:27:01.950Z</time>
      </trkpt>
      <trkpt lat="43.97629" lon="7.26502">
        <ele>875</ele>
        <time>2013-08-18T07:27:03.960Z</time>
      </trkpt>
      <trkpt lat="43.97633" lon="7.26528">
        <ele>876</ele>
        <time>2013-08-18T07:27:10.100Z</time>
      </trkpt>
      <trkpt lat="43.97636" lon="7.26535">
        <ele>876</ele>
        <time>2013-08-18T07:27:12.030Z</time>
      </trkpt>
      <trkpt lat="43.97638" lon="7.26548">
        <ele>876</ele>
        <time>2013-08-18T07:27:15.050Z</time>
      </trkpt>
      <trkpt lat="43.97644" lon="7.2656">
        <ele>876</ele>
        <time>2013-08-18T07:27:17.950Z</time>
      </trkpt>
      <trkpt lat="43.97646" lon="7.26579">
        <ele>876</ele>
        <time>2013-08-18T07:27:21.950Z</time>
      </trkpt>
      <trkpt lat="43.97651" lon="7.26593">
        <ele>876</ele>
        <time>2013-08-18T07:27:26.050Z</time>
      </trkpt>
      <trkpt lat="43.97652" lon="7.26621">
        <ele>877</ele>
        <time>2013-08-18T07:27:32.110Z</time>
      </trkpt>
      <trkpt lat="43.97663" lon="7.26645">
        <ele>877.20999948799</ele>
        <time>2013-08-18T07:27:37.950Z</time>
      </trkpt>
      <trkpt lat="43.97665" lon="7.26646">
        <ele>878</ele>
        <time>2013-08-18T07:27:39.050Z</time>
      </trkpt>
      <trkpt lat="43.97668" lon="7.26644">
        <ele>878</ele>
        <time>2013-08-18T07:27:40.040Z</time>
      </trkpt>
      <trkpt lat="43.97682" lon="7.26622">
        <ele>878</ele>
        <time>2013-08-18T07:27:45.940Z</time>
      </trkpt>
      <trkpt lat="43.97691" lon="7.26603">
        <ele>878</ele>
        <time>2013-08-18T07:27:50.120Z</time>
      </trkpt>
      <trkpt lat="43.97695" lon="7.26597">
        <ele>878</ele>
        <time>2013-08-18T07:27:52.050Z</time>
      </trkpt>
      <trkpt lat="43.97701" lon="7.26596">
        <ele>878</ele>
        <time>2013-08-18T07:27:54.050Z</time>
      </trkpt>
      <trkpt lat="43.9771" lon="7.26602">
        <ele>878</ele>
        <time>2013-08-18T07:27:57.120Z</time>
      </trkpt>
      <trkpt lat="43.97718" lon="7.26612">
        <ele>878</ele>
        <time>2013-08-18T07:28:00.110Z</time>
      </trkpt>
      <trkpt lat="43.97724" lon="7.26617">
        <ele>878</ele>
        <time>2013-08-18T07:28:01.950Z</time>
      </trkpt>
      <trkpt lat="43.97739" lon="7.26627">
        <ele>878</ele>
        <time>2013-08-18T07:28:07.100Z</time>
      </trkpt>
      <trkpt lat="43.97748" lon="7.26631">
        <ele>878</ele>
        <time>2013-08-18T07:28:10.050Z</time>
      </trkpt>
      <trkpt lat="43.97763" lon="7.26641">
        <ele>878</ele>
        <time>2013-08-18T07:28:14.050Z</time>
      </trkpt>
      <trkpt lat="43.97771" lon="7.2665">
        <ele>878</ele>
        <time>2013-08-18T07:28:16.940Z</time>
      </trkpt>
      <trkpt lat="43.97786" lon="7.26676">
        <ele>879</ele>
        <time>2013-08-18T07:28:25.050Z</time>
      </trkpt>
      <trkpt lat="43.97791" lon="7.26679">
        <ele>879</ele>
        <time>2013-08-18T07:28:27.070Z</time>
      </trkpt>
      <trkpt lat="43.97798" lon="7.26679">
        <ele>880</ele>
        <time>2013-08-18T07:28:30.100Z</time>
      </trkpt>
      <trkpt lat="43.97807" lon="7.26668">
        <ele>880</ele>
        <time>2013-08-18T07:28:34.020Z</time>
      </trkpt>
      <trkpt lat="43.97813" lon="7.26666">
        <ele>880</ele>
        <time>2013-08-18T07:28:35.950Z</time>
      </trkpt>
      <trkpt lat="43.97838" lon="7.26663">
        <ele>880</ele>
        <time>2013-08-18T07:28:43.050Z</time>
      </trkpt>
      <trkpt lat="43.97852" lon="7.26664">
        <ele>880</ele>
        <time>2013-08-18T07:28:47.050Z</time>
      </trkpt>
      <trkpt lat="43.97863" lon="7.26661">
        <ele>880</ele>
        <time>2013-08-18T07:28:50.050Z</time>
      </trkpt>
      <trkpt lat="43.97875" lon="7.26654">
        <ele>880</ele>
        <time>2013-08-18T07:28:53.970Z</time>
      </trkpt>
      <trkpt lat="43.97889" lon="7.26643">
        <ele>880</ele>
        <time>2013-08-18T07:28:59.050Z</time>
      </trkpt>
      <trkpt lat="43.97891" lon="7.26632">
        <ele>880</ele>
        <time>2013-08-18T07:29:04.950Z</time>
      </trkpt>
      <trkpt lat="43.97886" lon="7.26625">
        <ele>881</ele>
        <time>2013-08-18T07:29:09.050Z</time>
      </trkpt>
      <trkpt lat="43.97878" lon="7.26623">
        <ele>881</ele>
        <time>2013-08-18T07:29:12.060Z</time>
      </trkpt>
      <trkpt lat="43.97863" lon="7.26613">
        <ele>881.32000409605</ele>
        <time>2013-08-18T07:29:18.060Z</time>
      </trkpt>
      <trkpt lat="43.97849" lon="7.26599">
        <ele>882</ele>
        <time>2013-08-18T07:29:23.950Z</time>
      </trkpt>
      <trkpt lat="43.97844" lon="7.26591">
        <ele>882</ele>
        <time>2013-08-18T07:29:27.050Z</time>
      </trkpt>
      <trkpt lat="43.97839" lon="7.26587">
        <ele>884</ele>
        <time>2013-08-18T07:29:29.050Z</time>
      </trkpt>
      <trkpt lat="43.97832" lon="7.2658">
        <ele>884</ele>
        <time>2013-08-18T07:29:32.050Z</time>
      </trkpt>
      <trkpt lat="43.97822" lon="7.26558">
        <ele>884.25999692796</ele>
        <time>2013-08-18T07:29:38Z</time>
      </trkpt>
      <trkpt lat="43.97818" lon="7.26546">
        <ele>885</ele>
        <time>2013-08-18T07:29:41.050Z</time>
      </trkpt>
      <trkpt lat="43.9781" lon="7.2651">
        <ele>886</ele>
        <time>2013-08-18T07:29:49.950Z</time>
      </trkpt>
      <trkpt lat="43.97806" lon="7.26457">
        <ele>887</ele>
        <time>2013-08-18T07:30:02.040Z</time>
      </trkpt>
      <trkpt lat="43.97802" lon="7.2644">
        <ele>887</ele>
        <time>2013-08-18T07:30:06.050Z</time>
      </trkpt>
      <trkpt lat="43.97798" lon="7.26425">
        <ele>888</ele>
        <time>2013-08-18T07:30:09.950Z</time>
      </trkpt>
      <trkpt lat="43.97798" lon="7.26394">
        <ele>888</ele>
        <time>2013-08-18T07:30:17.040Z</time>
      </trkpt>
      <trkpt lat="43.97797" lon="7.26387">
        <ele>890</ele>
        <time>2013-08-18T07:30:19.050Z</time>
      </trkpt>
      <trkpt lat="43.97785" lon="7.26358">
        <ele>890</ele>
        <time>2013-08-18T07:30:27.040Z</time>
      </trkpt>
      <trkpt lat="43.97782" lon="7.26347">
        <ele>892</ele>
        <time>2013-08-18T07:30:29.950Z</time>
      </trkpt>
      <trkpt lat="43.9778" lon="7.26338">
        <ele>892</ele>
        <time>2013-08-18T07:30:31.950Z</time>
      </trkpt>
      <trkpt lat="43.97782" lon="7.2633">
        <ele>892</ele>
        <time>2013-08-18T07:30:33.940Z</time>
      </trkpt>
      <trkpt lat="43.97786" lon="7.26323">
        <ele>892</ele>
        <time>2013-08-18T07:30:35.940Z</time>
      </trkpt>
      <trkpt lat="43.97797" lon="7.26316">
        <ele>894</ele>
        <time>2013-08-18T07:30:40.050Z</time>
      </trkpt>
      <trkpt lat="43.97824" lon="7.26294">
        <ele>895</ele>
        <time>2013-08-18T07:30:52.060Z</time>
      </trkpt>
      <trkpt lat="43.97829" lon="7.26293">
        <ele>895</ele>
        <time>2013-08-18T07:30:54.120Z</time>
      </trkpt>
      <trkpt lat="43.97837" lon="7.26301">
        <ele>896.16998617582</ele>
        <time>2013-08-18T07:30:58.130Z</time>
      </trkpt>
      <trkpt lat="43.97854" lon="7.26301">
        <ele>901</ele>
        <time>2013-08-18T07:31:05.120Z</time>
      </trkpt>
      <trkpt lat="43.97859" lon="7.26299">
        <ele>901</ele>
        <time>2013-08-18T07:31:07.050Z</time>
      </trkpt>
      <trkpt lat="43.9788" lon="7.26281">
        <ele>903</ele>
        <time>2013-08-18T07:31:16.940Z</time>
      </trkpt>
      <trkpt lat="43.97886" lon="7.26265">
        <ele>903</ele>
        <time>2013-08-18T07:31:22.050Z</time>
      </trkpt>
      <trkpt lat="43.9789" lon="7.26247">
        <ele>903</ele>
        <time>2013-08-18T07:31:27.040Z</time>
      </trkpt>
      <trkpt lat="43.97892" lon="7.26237">
        <ele>905</ele>
        <time>2013-08-18T07:31:30.050Z</time>
      </trkpt>
      <trkpt lat="43.97897" lon="7.26218">
        <ele>905</ele>
        <time>2013-08-18T07:31:36.050Z</time>
      </trkpt>
      <trkpt lat="43.97899" lon="7.26212">
        <ele>905.92998310378</ele>
        <time>2013-08-18T07:31:38.050Z</time>
      </trkpt>
      <trkpt lat="43.97902" lon="7.26209">
        <ele>908</ele>
        <time>2013-08-18T07:31:39.130Z</time>
      </trkpt>
      <trkpt lat="43.97909" lon="7.26201">
        <ele>908</ele>
        <time>2013-08-18T07:31:42.050Z</time>
      </trkpt>
      <trkpt lat="43.97916" lon="7.262">
        <ele>910</ele>
        <time>2013-08-18T07:31:45.040Z</time>
      </trkpt>
      <trkpt lat="43.97937" lon="7.26198">
        <ele>912</ele>
        <time>2013-08-18T07:31:54.050Z</time>
      </trkpt>
      <trkpt lat="43.97953" lon="7.2619">
        <ele>913</ele>
        <time>2013-08-18T07:32:01.080Z</time>
      </trkpt>
      <trkpt lat="43.97968" lon="7.26186">
        <ele>913.61998873586</ele>
        <time>2013-08-18T07:32:08.050Z</time>
      </trkpt>
      <trkpt lat="43.9797" lon="7.26185">
        <ele>915</ele>
        <time>2013-08-18T07:32:09.130Z</time>
      </trkpt>
      <trkpt lat="43.97984" lon="7.26176">
        <ele>915</ele>
        <time>2013-08-18T07:32:15.050Z</time>
      </trkpt>
      <trkpt lat="43.97991" lon="7.26174">
        <ele>915.59996927961</ele>
        <time>2013-08-18T07:32:17.940Z</time>
      </trkpt>
      <trkpt lat="43.97993" lon="7.26174">
        <ele>918</ele>
        <time>2013-08-18T07:32:18.950Z</time>
      </trkpt>
      <trkpt lat="43.98001" lon="7.26174">
        <ele>918</ele>
        <time>2013-08-18T07:32:21.950Z</time>
      </trkpt>
      <trkpt lat="43.98006" lon="7.26172">
        <ele>920</ele>
        <time>2013-08-18T07:32:24Z</time>
      </trkpt>
      <trkpt lat="43.98011" lon="7.26171">
        <ele>920</ele>
        <time>2013-08-18T07:32:25.950Z</time>
      </trkpt>
      <trkpt lat="43.98013" lon="7.26172">
        <ele>920</ele>
        <time>2013-08-18T07:32:26.950Z</time>
      </trkpt>
      <trkpt lat="43.98039" lon="7.26244">
        <ele>923</ele>
        <time>2013-08-18T07:32:49.050Z</time>
      </trkpt>
      <trkpt lat="43.98041" lon="7.26244">
        <ele>923</ele>
        <time>2013-08-18T07:32:50.100Z</time>
      </trkpt>
      <trkpt lat="43.98047" lon="7.26237">
        <ele>923</ele>
        <time>2013-08-18T07:32:53.110Z</time>
      </trkpt>
      <trkpt lat="43.98052" lon="7.26235">
        <ele>923</ele>
        <time>2013-08-18T07:32:55.050Z</time>
      </trkpt>
      <trkpt lat="43.98078" lon="7.26263">
        <ele>923</ele>
        <time>2013-08-18T07:33:05.950Z</time>
      </trkpt>
      <trkpt lat="43.98083" lon="7.26273">
        <ele>925</ele>
        <time>2013-08-18T07:33:08.940Z</time>
      </trkpt>
      <trkpt lat="43.98099" lon="7.26291">
        <ele>925</ele>
        <time>2013-08-18T07:33:15.950Z</time>
      </trkpt>
      <trkpt lat="43.9811" lon="7.26288">
        <ele>926</ele>
        <time>2013-08-18T07:33:19.950Z</time>
      </trkpt>
      <trkpt lat="43.98123" lon="7.2627">
        <ele>926</ele>
        <time>2013-08-18T07:33:26.950Z</time>
      </trkpt>
      <trkpt lat="43.98133" lon="7.26251">
        <ele>926</ele>
        <time>2013-08-18T07:33:30.950Z</time>
      </trkpt>
      <trkpt lat="43.98138" lon="7.26246">
        <ele>926</ele>
        <time>2013-08-18T07:33:32.960Z</time>
      </trkpt>
      <trkpt lat="43.98141" lon="7.26246">
        <ele>926</ele>
        <time>2013-08-18T07:33:33.860Z</time>
      </trkpt>
      <trkpt lat="43.98155" lon="7.26253">
        <ele>926.41999897599</ele>
        <time>2013-08-18T07:33:37.950Z</time>
      </trkpt>
      <trkpt lat="43.98157" lon="7.26256">
        <ele>928</ele>
        <time>2013-08-18T07:33:38.950Z</time>
      </trkpt>
      <trkpt lat="43.98164" lon="7.26266">
        <ele>928</ele>
        <time>2013-08-18T07:33:41.950Z</time>
      </trkpt>
      <trkpt lat="43.98172" lon="7.26273">
        <ele>928</ele>
        <time>2013-08-18T07:33:44.950Z</time>
      </trkpt>
      <trkpt lat="43.98194" lon="7.26307">
        <ele>929</ele>
        <time>2013-08-18T07:33:54.950Z</time>
      </trkpt>
      <trkpt lat="43.982" lon="7.26307">
        <ele>929</ele>
        <time>2013-08-18T07:33:56.950Z</time>
      </trkpt>
      <trkpt lat="43.98215" lon="7.26293">
        <ele>930</ele>
        <time>2013-08-18T07:34:01.950Z</time>
      </trkpt>
      <trkpt lat="43.98221" lon="7.26291">
        <ele>930</ele>
        <time>2013-08-18T07:34:03.950Z</time>
      </trkpt>
      <trkpt lat="43.98233" lon="7.26294">
        <ele>930</ele>
        <time>2013-08-18T07:34:07.950Z</time>
      </trkpt>
      <trkpt lat="43.98244" lon="7.26288">
        <ele>930</ele>
        <time>2013-08-18T07:34:11.950Z</time>
      </trkpt>
      <trkpt lat="43.98256" lon="7.26284">
        <ele>930</ele>
        <time>2013-08-18T07:34:15.950Z</time>
      </trkpt>
      <trkpt lat="43.9826" lon="7.26292">
        <ele>930</ele>
        <time>2013-08-18T07:34:18.950Z</time>
      </trkpt>
      <trkpt lat="43.98266" lon="7.26295">
        <ele>930</ele>
        <time>2013-08-18T07:34:20.940Z</time>
      </trkpt>
      <trkpt lat="43.98284" lon="7.26302">
        <ele>930</ele>
        <time>2013-08-18T07:34:26.950Z</time>
      </trkpt>
      <trkpt lat="43.98292" lon="7.26306">
        <ele>932</ele>
        <time>2013-08-18T07:34:29.960Z</time>
      </trkpt>
      <trkpt lat="43.9831" lon="7.26309">
        <ele>932</ele>
        <time>2013-08-18T07:34:36.050Z</time>
      </trkpt>
      <trkpt lat="43.98316" lon="7.26308">
        <ele>932.61998873586</ele>
        <time>2013-08-18T07:34:38.050Z</time>
      </trkpt>
      <trkpt lat="43.98319" lon="7.2631">
        <ele>934</ele>
        <time>2013-08-18T07:34:39.050Z</time>
      </trkpt>
      <trkpt lat="43.98327" lon="7.26313">
        <ele>934</ele>
        <time>2013-08-18T07:34:42.050Z</time>
      </trkpt>
      <trkpt lat="43.98338" lon="7.26324">
        <ele>934</ele>
        <time>2013-08-18T07:34:47.050Z</time>
      </trkpt>
      <trkpt lat="43.98343" lon="7.26325">
        <ele>935</ele>
        <time>2013-08-18T07:34:49.050Z</time>
      </trkpt>
      <trkpt lat="43.98357" lon="7.26322">
        <ele>935</ele>
        <time>2013-08-18T07:34:54.050Z</time>
      </trkpt>
      <trkpt lat="43.9837" lon="7.26332">
        <ele>936</ele>
        <time>2013-08-18T07:34:59.050Z</time>
      </trkpt>
      <trkpt lat="43.98378" lon="7.26333">
        <ele>936</ele>
        <time>2013-08-18T07:35:02.050Z</time>
      </trkpt>
      <trkpt lat="43.98391" lon="7.26322">
        <ele>936</ele>
        <time>2013-08-18T07:35:07.050Z</time>
      </trkpt>
      <trkpt lat="43.98397" lon="7.26318">
        <ele>937</ele>
        <time>2013-08-18T07:35:09.050Z</time>
      </trkpt>
      <trkpt lat="43.98412" lon="7.26315">
        <ele>937</ele>
        <time>2013-08-18T07:35:13.950Z</time>
      </trkpt>
      <trkpt lat="43.98422" lon="7.26298">
        <ele>938</ele>
        <time>2013-08-18T07:35:18.950Z</time>
      </trkpt>
      <trkpt lat="43.98441" lon="7.26284">
        <ele>938</ele>
        <time>2013-08-18T07:35:26.050Z</time>
      </trkpt>
      <trkpt lat="43.9845" lon="7.26285">
        <ele>939</ele>
        <time>2013-08-18T07:35:28.940Z</time>
      </trkpt>
      <trkpt lat="43.98466" lon="7.26296">
        <ele>939</ele>
        <time>2013-08-18T07:35:34.950Z</time>
      </trkpt>
      <trkpt lat="43.98524" lon="7.26262">
        <ele>943</ele>
        <time>2013-08-18T07:36:05.100Z</time>
      </trkpt>
      <trkpt lat="43.98525" lon="7.26259">
        <ele>943</ele>
        <time>2013-08-18T07:36:07.110Z</time>
      </trkpt>
      <trkpt lat="43.9853" lon="7.26263">
        <ele>944</ele>
        <time>2013-08-18T07:36:11.950Z</time>
      </trkpt>
      <trkpt lat="43.98544" lon="7.26263">
        <ele>944</ele>
        <time>2013-08-18T07:36:16.940Z</time>
      </trkpt>
      <trkpt lat="43.98549" lon="7.26263">
        <ele>947</ele>
        <time>2013-08-18T07:36:18.950Z</time>
      </trkpt>
      <trkpt lat="43.98552" lon="7.26266">
        <ele>947</ele>
        <time>2013-08-18T07:36:20.950Z</time>
      </trkpt>
      <trkpt lat="43.9856" lon="7.26266">
        <ele>948</ele>
        <time>2013-08-18T07:36:24.050Z</time>
      </trkpt>
      <trkpt lat="43.98568" lon="7.26269">
        <ele>948</ele>
        <time>2013-08-18T07:36:27.050Z</time>
      </trkpt>
      <trkpt lat="43.98574" lon="7.26276">
        <ele>948</ele>
        <time>2013-08-18T07:36:31.050Z</time>
      </trkpt>
      <trkpt lat="43.98578" lon="7.26278">
        <ele>948</ele>
        <time>2013-08-18T07:36:33.040Z</time>
      </trkpt>
      <trkpt lat="43.98586" lon="7.26275">
        <ele>948</ele>
        <time>2013-08-18T07:36:36.950Z</time>
      </trkpt>
      <trkpt lat="43.98591" lon="7.26274">
        <ele>950</ele>
        <time>2013-08-18T07:36:38.950Z</time>
      </trkpt>
      <trkpt lat="43.98598" lon="7.26275">
        <ele>950</ele>
        <time>2013-08-18T07:36:42.060Z</time>
      </trkpt>
      <trkpt lat="43.98606" lon="7.26272">
        <ele>950</ele>
        <time>2013-08-18T07:36:45.050Z</time>
      </trkpt>
      <trkpt lat="43.98616" lon="7.26273">
        <ele>951</ele>
        <time>2013-08-18T07:36:50.040Z</time>
      </trkpt>
      <trkpt lat="43.98615" lon="7.26274">
        <ele>951</ele>
        <time>2013-08-18T07:36:52.120Z</time>
      </trkpt>
      <trkpt lat="43.98607" lon="7.26266">
        <ele>951</ele>
        <time>2013-08-18T07:36:57.050Z</time>
      </trkpt>
      <trkpt lat="43.98602" lon="7.26265">
        <ele>953</ele>
        <time>2013-08-18T07:36:59.120Z</time>
      </trkpt>
      <trkpt lat="43.98598" lon="7.2626">
        <ele>953</ele>
        <time>2013-08-18T07:37:01.050Z</time>
      </trkpt>
      <trkpt lat="43.98594" lon="7.26254">
        <ele>953</ele>
        <time>2013-08-18T07:37:03.110Z</time>
      </trkpt>
      <trkpt lat="43.98588" lon="7.26238">
        <ele>953</ele>
        <time>2013-08-18T07:37:06.970Z</time>
      </trkpt>
      <trkpt lat="43.98588" lon="7.26228">
        <ele>953</ele>
        <time>2013-08-18T07:37:10.120Z</time>
      </trkpt>
      <trkpt lat="43.98592" lon="7.262">
        <ele>953</ele>
        <time>2013-08-18T07:37:17.040Z</time>
      </trkpt>
      <trkpt lat="43.98593" lon="7.26193">
        <ele>955</ele>
        <time>2013-08-18T07:37:19.050Z</time>
      </trkpt>
      <trkpt lat="43.98591" lon="7.26176">
        <ele>955</ele>
        <time>2013-08-18T07:37:23.940Z</time>
      </trkpt>
      <trkpt lat="43.98588" lon="7.26167">
        <ele>955</ele>
        <time>2013-08-18T07:37:27.060Z</time>
      </trkpt>
      <trkpt lat="43.98587" lon="7.26157">
        <ele>957</ele>
        <time>2013-08-18T07:37:29.110Z</time>
      </trkpt>
      <trkpt lat="43.9858" lon="7.26135">
        <ele>957</ele>
        <time>2013-08-18T07:37:35.100Z</time>
      </trkpt>
      <trkpt lat="43.98581" lon="7.26124">
        <ele>957</ele>
        <time>2013-08-18T07:37:37.120Z</time>
      </trkpt>
      <trkpt lat="43.98585" lon="7.26119">
        <ele>957</ele>
        <time>2013-08-18T07:37:39.060Z</time>
      </trkpt>
      <trkpt lat="43.98614" lon="7.26103">
        <ele>958</ele>
        <time>2013-08-18T07:37:48.950Z</time>
      </trkpt>
      <trkpt lat="43.98626" lon="7.261">
        <ele>958</ele>
        <time>2013-08-18T07:37:53.120Z</time>
      </trkpt>
      <trkpt lat="43.98635" lon="7.26103">
        <ele>958</ele>
        <time>2013-08-18T07:37:56.050Z</time>
      </trkpt>
      <trkpt lat="43.98637" lon="7.26103">
        <ele>958</ele>
        <time>2013-08-18T07:37:57.170Z</time>
      </trkpt>
      <trkpt lat="43.98645" lon="7.26083">
        <ele>959</ele>
        <time>2013-08-18T07:38:04.050Z</time>
      </trkpt>
      <trkpt lat="43.98654" lon="7.26069">
        <ele>959</ele>
        <time>2013-08-18T07:38:08.130Z</time>
      </trkpt>
      <trkpt lat="43.98658" lon="7.26067">
        <ele>959</ele>
        <time>2013-08-18T07:38:10.060Z</time>
      </trkpt>
      <trkpt lat="43.98665" lon="7.26053">
        <ele>959</ele>
        <time>2013-08-18T07:38:14.060Z</time>
      </trkpt>
      <trkpt lat="43.98668" lon="7.26029">
        <ele>959</ele>
        <time>2013-08-18T07:38:19.120Z</time>
      </trkpt>
      <trkpt lat="43.98677" lon="7.25993">
        <ele>959</ele>
        <time>2013-08-18T07:38:26.950Z</time>
      </trkpt>
      <trkpt lat="43.98695" lon="7.25968">
        <ele>960</ele>
        <time>2013-08-18T07:38:34.950Z</time>
      </trkpt>
      <trkpt lat="43.98708" lon="7.25954">
        <ele>962</ele>
        <time>2013-08-18T07:38:40.950Z</time>
      </trkpt>
      <trkpt lat="43.98717" lon="7.25955">
        <ele>962</ele>
        <time>2013-08-18T07:38:45.040Z</time>
      </trkpt>
      <trkpt lat="43.98723" lon="7.2596">
        <ele>962.61998873586</ele>
        <time>2013-08-18T07:38:48.050Z</time>
      </trkpt>
      <trkpt lat="43.98807" lon="7.26026">
        <ele>976</ele>
        <time>2013-08-18T07:39:30.950Z</time>
      </trkpt>
      <trkpt lat="43.98817" lon="7.26022">
        <ele>976</ele>
        <time>2013-08-18T07:39:36.050Z</time>
      </trkpt>
      <trkpt lat="43.98824" lon="7.26023">
        <ele>978</ele>
        <time>2013-08-18T07:39:39.120Z</time>
      </trkpt>
      <trkpt lat="43.98826" lon="7.26031">
        <ele>978</ele>
        <time>2013-08-18T07:39:42.050Z</time>
      </trkpt>
      <trkpt lat="43.98836" lon="7.26036">
        <ele>978</ele>
        <time>2013-08-18T07:39:46.950Z</time>
      </trkpt>
      <trkpt lat="43.98843" lon="7.26038">
        <ele>980</ele>
        <time>2013-08-18T07:39:50.940Z</time>
      </trkpt>
      <trkpt lat="43.98848" lon="7.26043">
        <ele>980</ele>
        <time>2013-08-18T07:39:53.960Z</time>
      </trkpt>
      <trkpt lat="43.98856" lon="7.26047">
        <ele>980.62999846398</ele>
        <time>2013-08-18T07:39:57.950Z</time>
      </trkpt>
      <trkpt lat="43.98858" lon="7.26049">
        <ele>983</ele>
        <time>2013-08-18T07:39:58.950Z</time>
      </trkpt>
      <trkpt lat="43.98861" lon="7.26053">
        <ele>983</ele>
        <time>2013-08-18T07:40:00.950Z</time>
      </trkpt>
      <trkpt lat="43.98868" lon="7.26057">
        <ele>984</ele>
        <time>2013-08-18T07:40:03.950Z</time>
      </trkpt>
      <trkpt lat="43.98872" lon="7.26062">
        <ele>984</ele>
        <time>2013-08-18T07:40:05.950Z</time>
      </trkpt>
      <trkpt lat="43.98886" lon="7.26074">
        <ele>984</ele>
        <time>2013-08-18T07:40:14.040Z</time>
      </trkpt>
      <trkpt lat="43.98894" lon="7.26072">
        <ele>984</ele>
        <time>2013-08-18T07:40:17.040Z</time>
      </trkpt>
      <trkpt lat="43.98901" lon="7.26072">
        <ele>986</ele>
        <time>2013-08-18T07:40:20.120Z</time>
      </trkpt>
      <trkpt lat="43.98914" lon="7.26075">
        <ele>986</ele>
        <time>2013-08-18T07:40:27.050Z</time>
      </trkpt>
      <trkpt lat="43.98918" lon="7.26078">
        <ele>989</ele>
        <time>2013-08-18T07:40:29.050Z</time>
      </trkpt>
      <trkpt lat="43.98923" lon="7.26081">
        <ele>989</ele>
        <time>2013-08-18T07:40:32.050Z</time>
      </trkpt>
      <trkpt lat="43.98931" lon="7.26074">
        <ele>990</ele>
        <time>2013-08-18T07:40:36.050Z</time>
      </trkpt>
      <trkpt lat="43.98948" lon="7.26077">
        <ele>992.29808</ele>
        <time>2013-08-18T07:40:43.050Z</time>
      </trkpt>
      <trkpt lat="43.98954" lon="7.26075">
        <ele>993</ele>
        <time>2013-08-18T07:40:46.100Z</time>
      </trkpt>
      <trkpt lat="43.98969" lon="7.26077">
        <ele>994</ele>
        <time>2013-08-18T07:40:51.950Z</time>
      </trkpt>
      <trkpt lat="43.9898" lon="7.26089">
        <ele>994</ele>
        <time>2013-08-18T07:40:57.050Z</time>
      </trkpt>
      <trkpt lat="43.98984" lon="7.26095">
        <ele>996</ele>
        <time>2013-08-18T07:40:59.060Z</time>
      </trkpt>
      <trkpt lat="43.98986" lon="7.26103">
        <ele>996</ele>
        <time>2013-08-18T07:41:01.050Z</time>
      </trkpt>
      <trkpt lat="43.98991" lon="7.26112">
        <ele>996</ele>
        <time>2013-08-18T07:41:04.050Z</time>
      </trkpt>
      <trkpt lat="43.99017" lon="7.26101">
        <ele>997</ele>
        <time>2013-08-18T07:41:14.040Z</time>
      </trkpt>
      <trkpt lat="43.99036" lon="7.26098">
        <ele>997</ele>
        <time>2013-08-18T07:41:21.050Z</time>
      </trkpt>
      <trkpt lat="43.99043" lon="7.26092">
        <ele>997</ele>
        <time>2013-08-18T07:41:24.050Z</time>
      </trkpt>
      <trkpt lat="43.99045" lon="7.26081">
        <ele>997.30692216055</ele>
        <time>2013-08-18T07:41:28.050Z</time>
      </trkpt>
      <trkpt lat="43.99042" lon="7.26054">
        <ele>998</ele>
        <time>2013-08-18T07:41:36.050Z</time>
      </trkpt>
      <trkpt lat="43.99036" lon="7.26042">
        <ele>1000</ele>
        <time>2013-08-18T07:41:40.130Z</time>
      </trkpt>
      <trkpt lat="43.99033" lon="7.26028">
        <ele>1000</ele>
        <time>2013-08-18T07:41:44.120Z</time>
      </trkpt>
      <trkpt lat="43.99031" lon="7.26016">
        <ele>1000.379998464</ele>
        <time>2013-08-18T07:41:48.120Z</time>
      </trkpt>
      <trkpt lat="43.99031" lon="7.26002">
        <ele>1001</ele>
        <time>2013-08-18T07:41:52.100Z</time>
      </trkpt>
      <trkpt lat="43.99036" lon="7.25985">
        <ele>1001.6199887359</ele>
        <time>2013-08-18T07:41:58.050Z</time>
      </trkpt>
      <trkpt lat="43.99036" lon="7.25976">
        <ele>1003</ele>
        <time>2013-08-18T07:42:00.030Z</time>
      </trkpt>
      <trkpt lat="43.99038" lon="7.25967">
        <ele>1003</ele>
        <time>2013-08-18T07:42:02.060Z</time>
      </trkpt>
      <trkpt lat="43.99039" lon="7.25938">
        <ele>1003</ele>
        <time>2013-08-18T07:42:06.950Z</time>
      </trkpt>
      <trkpt lat="43.9904" lon="7.25925">
        <ele>1005</ele>
        <time>2013-08-18T07:42:09.950Z</time>
      </trkpt>
      <trkpt lat="43.99044" lon="7.25904">
        <ele>1005</ele>
        <time>2013-08-18T07:42:16.100Z</time>
      </trkpt>
      <trkpt lat="43.99043" lon="7.25892">
        <ele>1008</ele>
        <time>2013-08-18T07:42:20.050Z</time>
      </trkpt>
      <trkpt lat="43.99037" lon="7.25853">
        <ele>1011</ele>
        <time>2013-08-18T07:42:31.050Z</time>
      </trkpt>
      <trkpt lat="43.99037" lon="7.25839">
        <ele>1011</ele>
        <time>2013-08-18T07:42:35.050Z</time>
      </trkpt>
      <trkpt lat="43.99039" lon="7.25829">
        <ele>1011.5199938559</ele>
        <time>2013-08-18T07:42:38Z</time>
      </trkpt>
      <trkpt lat="43.9904" lon="7.25826">
        <ele>1013</ele>
        <time>2013-08-18T07:42:38.960Z</time>
      </trkpt>
      <trkpt lat="43.99043" lon="7.2581">
        <ele>1013</ele>
        <time>2013-08-18T07:42:44.050Z</time>
      </trkpt>
      <trkpt lat="43.99042" lon="7.25802">
        <ele>1013</ele>
        <time>2013-08-18T07:42:47.040Z</time>
      </trkpt>
      <trkpt lat="43.99041" lon="7.25799">
        <ele>1016</ele>
        <time>2013-08-18T07:42:49.120Z</time>
      </trkpt>
      <trkpt lat="43.9904" lon="7.25791">
        <ele>1016</ele>
        <time>2013-08-18T07:42:52.050Z</time>
      </trkpt>
      <trkpt lat="43.99038" lon="7.25785">
        <ele>1018</ele>
        <time>2013-08-18T07:42:55.060Z</time>
      </trkpt>
      <trkpt lat="43.99036" lon="7.25765">
        <ele>1019</ele>
        <time>2013-08-18T07:43:01.950Z</time>
      </trkpt>
      <trkpt lat="43.99036" lon="7.25759">
        <ele>1021</ele>
        <time>2013-08-18T07:43:03.950Z</time>
      </trkpt>
      <trkpt lat="43.99037" lon="7.25735">
        <ele>1022</ele>
        <time>2013-08-18T07:43:11.950Z</time>
      </trkpt>
      <trkpt lat="43.99036" lon="7.25727">
        <ele>1024</ele>
        <time>2013-08-18T07:43:13.950Z</time>
      </trkpt>
      <trkpt lat="43.99035" lon="7.25718">
        <ele>1024</ele>
        <time>2013-08-18T07:43:17.040Z</time>
      </trkpt>
      <trkpt lat="43.99035" lon="7.25713">
        <ele>1026</ele>
        <time>2013-08-18T07:43:19.050Z</time>
      </trkpt>
      <trkpt lat="43.99033" lon="7.25699">
        <ele>1026.309999232</ele>
        <time>2013-08-18T07:43:23.050Z</time>
      </trkpt>
      <trkpt lat="43.99034" lon="7.25683">
        <ele>1027</ele>
        <time>2013-08-18T07:43:28.050Z</time>
      </trkpt>
      <trkpt lat="43.99036" lon="7.25679">
        <ele>1027</ele>
        <time>2013-08-18T07:43:30.050Z</time>
      </trkpt>
      <trkpt lat="43.99039" lon="7.2566">
        <ele>1027</ele>
        <time>2013-08-18T07:43:37.050Z</time>
      </trkpt>
      <trkpt lat="43.99042" lon="7.25653">
        <ele>1029</ele>
        <time>2013-08-18T07:43:39.050Z</time>
      </trkpt>
      <trkpt lat="43.99057" lon="7.2564">
        <ele>1029</ele>
        <time>2013-08-18T07:43:47.120Z</time>
      </trkpt>
      <trkpt lat="43.99062" lon="7.25638">
        <ele>1032</ele>
        <time>2013-08-18T07:43:49.040Z</time>
      </trkpt>
      <trkpt lat="43.99069" lon="7.25632">
        <ele>1032</ele>
        <time>2013-08-18T07:43:52.060Z</time>
      </trkpt>
      <trkpt lat="43.99073" lon="7.25629">
        <ele>1034</ele>
        <time>2013-08-18T07:43:54.050Z</time>
      </trkpt>
      <trkpt lat="43.99086" lon="7.25635">
        <ele>1034</ele>
        <time>2013-08-18T07:44:01.050Z</time>
      </trkpt>
      <trkpt lat="43.9909" lon="7.25639">
        <ele>1034</ele>
        <time>2013-08-18T07:44:03.050Z</time>
      </trkpt>
      <trkpt lat="43.99095" lon="7.25642">
        <ele>1034</ele>
        <time>2013-08-18T07:44:05.120Z</time>
      </trkpt>
      <trkpt lat="43.99101" lon="7.25643">
        <ele>1034</ele>
        <time>2013-08-18T07:44:07.100Z</time>
      </trkpt>
      <trkpt lat="43.99107" lon="7.25643">
        <ele>1036</ele>
        <time>2013-08-18T07:44:09.130Z</time>
      </trkpt>
      <trkpt lat="43.99124" lon="7.25654">
        <ele>1036</ele>
        <time>2013-08-18T07:44:15.050Z</time>
      </trkpt>
      <trkpt lat="43.99132" lon="7.25656">
        <ele>1036.2525244689</ele>
        <time>2013-08-18T07:44:18Z</time>
      </trkpt>
      <trkpt lat="43.9915" lon="7.25651">
        <ele>1037</ele>
        <time>2013-08-18T07:44:26.050Z</time>
      </trkpt>
      <trkpt lat="43.99156" lon="7.25647">
        <ele>1039</ele>
        <time>2013-08-18T07:44:29.030Z</time>
      </trkpt>
      <trkpt lat="43.99161" lon="7.25649">
        <ele>1039</ele>
        <time>2013-08-18T07:44:32.050Z</time>
      </trkpt>
      <trkpt lat="43.9918" lon="7.25641">
        <ele>1040</ele>
        <time>2013-08-18T07:44:39.050Z</time>
      </trkpt>
      <trkpt lat="43.99193" lon="7.2564">
        <ele>1040</ele>
        <time>2013-08-18T07:44:44.120Z</time>
      </trkpt>
      <trkpt lat="43.99202" lon="7.25636">
        <ele>1040</ele>
        <time>2013-08-18T07:44:47.060Z</time>
      </trkpt>
      <trkpt lat="43.99206" lon="7.25633">
        <ele>1042</ele>
        <time>2013-08-18T07:44:48.940Z</time>
      </trkpt>
      <trkpt lat="43.9922" lon="7.25623">
        <ele>1042</ele>
        <time>2013-08-18T07:44:54.950Z</time>
      </trkpt>
      <trkpt lat="43.99243" lon="7.2562">
        <ele>1042</ele>
        <time>2013-08-18T07:45:03.040Z</time>
      </trkpt>
      <trkpt lat="43.9925" lon="7.25614">
        <ele>1042</ele>
        <time>2013-08-18T07:45:06Z</time>
      </trkpt>
      <trkpt lat="43.99258" lon="7.25605">
        <ele>1044</ele>
        <time>2013-08-18T07:45:09.950Z</time>
      </trkpt>
      <trkpt lat="43.99267" lon="7.25604">
        <ele>1044</ele>
        <time>2013-08-18T07:45:14.130Z</time>
      </trkpt>
      <trkpt lat="43.99276" lon="7.256">
        <ele>1044</ele>
        <time>2013-08-18T07:45:17.040Z</time>
      </trkpt>
      <trkpt lat="43.99283" lon="7.25591">
        <ele>1044</ele>
        <time>2013-08-18T07:45:19.970Z</time>
      </trkpt>
      <trkpt lat="43.99285" lon="7.25584">
        <ele>1044</ele>
        <time>2013-08-18T07:45:22.050Z</time>
      </trkpt>
      <trkpt lat="43.9929" lon="7.25578">
        <ele>1044</ele>
        <time>2013-08-18T07:45:25.080Z</time>
      </trkpt>
      <trkpt lat="43.993" lon="7.25582">
        <ele>1045</ele>
        <time>2013-08-18T07:45:32.040Z</time>
      </trkpt>
      <trkpt lat="43.99306" lon="7.25588">
        <ele>1045</ele>
        <time>2013-08-18T07:45:36.940Z</time>
      </trkpt>
      <trkpt lat="43.99309" lon="7.2559">
        <ele>1049</ele>
        <time>2013-08-18T07:45:39Z</time>
      </trkpt>
      <trkpt lat="43.99313" lon="7.25592">
        <ele>1049</ele>
        <time>2013-08-18T07:45:42.060Z</time>
      </trkpt>
      <trkpt lat="43.99314" lon="7.2559">
        <ele>1052</ele>
        <time>2013-08-18T07:45:44.040Z</time>
      </trkpt>
      <trkpt lat="43.99318" lon="7.25576">
        <ele>1054</ele>
        <time>2013-08-18T07:45:50.060Z</time>
      </trkpt>
      <trkpt lat="43.99318" lon="7.2557">
        <ele>1054</ele>
        <time>2013-08-18T07:45:52.130Z</time>
      </trkpt>
      <trkpt lat="43.9932" lon="7.25566">
        <ele>1056</ele>
        <time>2013-08-18T07:45:54.040Z</time>
      </trkpt>
      <trkpt lat="43.99322" lon="7.25561">
        <ele>1056</ele>
        <time>2013-08-18T07:45:57.050Z</time>
      </trkpt>
      <trkpt lat="43.99324" lon="7.2556">
        <ele>1058</ele>
        <time>2013-08-18T07:45:59.050Z</time>
      </trkpt>
      <trkpt lat="43.99327" lon="7.25556">
        <ele>1058</ele>
        <time>2013-08-18T07:46:02.060Z</time>
      </trkpt>
      <trkpt lat="43.9933" lon="7.25554">
        <ele>1060</ele>
        <time>2013-08-18T07:46:05.050Z</time>
      </trkpt>
      <trkpt lat="43.99341" lon="7.25545">
        <ele>1061.5200061439</ele>
        <time>2013-08-18T07:46:13Z</time>
      </trkpt>
      <trkpt lat="43.99343" lon="7.25545">
        <ele>1063</ele>
        <time>2013-08-18T07:46:13.950Z</time>
      </trkpt>
      <trkpt lat="43.99349" lon="7.25543">
        <ele>1063.29999744</ele>
        <time>2013-08-18T07:46:18.040Z</time>
      </trkpt>
      <trkpt lat="43.99354" lon="7.25546">
        <ele>1064</ele>
        <time>2013-08-18T07:46:22.050Z</time>
      </trkpt>
      <trkpt lat="43.99357" lon="7.25546">
        <ele>1066</ele>
        <time>2013-08-18T07:46:25.050Z</time>
      </trkpt>
      <trkpt lat="43.99363" lon="7.25547">
        <ele>1068</ele>
        <time>2013-08-18T07:46:30.040Z</time>
      </trkpt>
      <trkpt lat="43.99362" lon="7.25552">
        <ele>1069.419998976</ele>
        <time>2013-08-18T07:46:37.950Z</time>
      </trkpt>
      <trkpt lat="43.99366" lon="7.25557">
        <ele>1073</ele>
        <time>2013-08-18T07:46:44.040Z</time>
      </trkpt>
      <trkpt lat="43.99375" lon="7.2556">
        <ele>1074</ele>
        <time>2013-08-18T07:46:50.940Z</time>
      </trkpt>
      <trkpt lat="43.99381" lon="7.25564">
        <ele>1076</ele>
        <time>2013-08-18T07:46:55.940Z</time>
      </trkpt>
      <trkpt lat="43.99384" lon="7.25572">
        <ele>1077</ele>
        <time>2013-08-18T07:47:01.050Z</time>
      </trkpt>
      <trkpt lat="43.99386" lon="7.25571">
        <ele>1079</ele>
        <time>2013-08-18T07:47:04.050Z</time>
      </trkpt>
      <trkpt lat="43.9939" lon="7.25573">
        <ele>1079</ele>
        <time>2013-08-18T07:47:07.060Z</time>
      </trkpt>
      <trkpt lat="43.99391" lon="7.25575">
        <ele>1082</ele>
        <time>2013-08-18T07:47:09.050Z</time>
      </trkpt>
      <trkpt lat="43.99397" lon="7.25581">
        <ele>1083</ele>
        <time>2013-08-18T07:47:15.060Z</time>
      </trkpt>
      <trkpt lat="43.99386" lon="7.25583">
        <ele>1084</ele>
        <time>2013-08-18T07:47:25.950Z</time>
      </trkpt>
      <trkpt lat="43.99381" lon="7.25587">
        <ele>1086</ele>
        <time>2013-08-18T07:47:29.040Z</time>
      </trkpt>
      <trkpt lat="43.99376" lon="7.25592">
        <ele>1086</ele>
        <time>2013-08-18T07:47:32.050Z</time>
      </trkpt>
      <trkpt lat="43.99373" lon="7.25608">
        <ele>1086.660002048</ele>
        <time>2013-08-18T07:47:38.070Z</time>
      </trkpt>
      <trkpt lat="43.99371" lon="7.25615">
        <ele>1088</ele>
        <time>2013-08-18T07:47:40.040Z</time>
      </trkpt>
      <trkpt lat="43.99369" lon="7.25633">
        <ele>1088</ele>
        <time>2013-08-18T07:47:45.110Z</time>
      </trkpt>
      <trkpt lat="43.99363" lon="7.2564">
        <ele>1088</ele>
        <time>2013-08-18T07:47:48.050Z</time>
      </trkpt>
      <trkpt lat="43.9935" lon="7.25644">
        <ele>1088</ele>
        <time>2013-08-18T07:47:54.050Z</time>
      </trkpt>
      <trkpt lat="43.99344" lon="7.25649">
        <ele>1088</ele>
        <time>2013-08-18T07:47:57.050Z</time>
      </trkpt>
      <trkpt lat="43.99338" lon="7.2565">
        <ele>1090</ele>
        <time>2013-08-18T07:47:59.120Z</time>
      </trkpt>
      <trkpt lat="43.99324" lon="7.25656">
        <ele>1090</ele>
        <time>2013-08-18T07:48:04.050Z</time>
      </trkpt>
      <trkpt lat="43.99319" lon="7.25664">
        <ele>1090</ele>
        <time>2013-08-18T07:48:08.060Z</time>
      </trkpt>
      <trkpt lat="43.99316" lon="7.25666">
        <ele>1090</ele>
        <time>2013-08-18T07:48:12.040Z</time>
      </trkpt>
      <trkpt lat="43.99314" lon="7.25671">
        <ele>1090</ele>
        <time>2013-08-18T07:48:14.050Z</time>
      </trkpt>
      <trkpt lat="43.99304" lon="7.25681">
        <ele>1090</ele>
        <time>2013-08-18T07:48:19.050Z</time>
      </trkpt>
      <trkpt lat="43.99291" lon="7.25685">
        <ele>1090</ele>
        <time>2013-08-18T07:48:22.960Z</time>
      </trkpt>
      <trkpt lat="43.99272" lon="7.25697">
        <ele>1090</ele>
        <time>2013-08-18T07:48:29.050Z</time>
      </trkpt>
      <trkpt lat="43.99247" lon="7.25704">
        <ele>1090</ele>
        <time>2013-08-18T07:48:37.050Z</time>
      </trkpt>
      <trkpt lat="43.99241" lon="7.25703">
        <ele>1088</ele>
        <time>2013-08-18T07:48:39.060Z</time>
      </trkpt>
      <trkpt lat="43.99236" lon="7.25704">
        <ele>1088</ele>
        <time>2013-08-18T07:48:41.050Z</time>
      </trkpt>
      <trkpt lat="43.99231" lon="7.25709">
        <ele>1088</ele>
        <time>2013-08-18T07:48:43.050Z</time>
      </trkpt>
      <trkpt lat="43.99211" lon="7.2572">
        <ele>1087</ele>
        <time>2013-08-18T07:48:50.050Z</time>
      </trkpt>
      <trkpt lat="43.99197" lon="7.25731">
        <ele>1087</ele>
        <time>2013-08-18T07:48:55.050Z</time>
      </trkpt>
      <trkpt lat="43.99186" lon="7.25734">
        <ele>1087</ele>
        <time>2013-08-18T07:48:58.050Z</time>
      </trkpt>
      <trkpt lat="43.99168" lon="7.25744">
        <ele>1087</ele>
        <time>2013-08-18T07:49:05.910Z</time>
      </trkpt>
      <trkpt lat="43.9916" lon="7.25745">
        <ele>1088</ele>
        <time>2013-08-18T07:49:08.950Z</time>
      </trkpt>
      <trkpt lat="43.99151" lon="7.25741">
        <ele>1088</ele>
        <time>2013-08-18T07:49:12.100Z</time>
      </trkpt>
      <trkpt lat="43.99146" lon="7.25743">
        <ele>1088</ele>
        <time>2013-08-18T07:49:14.050Z</time>
      </trkpt>
      <trkpt lat="43.99143" lon="7.25748">
        <ele>1088</ele>
        <time>2013-08-18T07:49:17.020Z</time>
      </trkpt>
      <trkpt lat="43.99142" lon="7.25752">
        <ele>1090</ele>
        <time>2013-08-18T07:49:19.050Z</time>
      </trkpt>
      <trkpt lat="43.99138" lon="7.25755">
        <ele>1090</ele>
        <time>2013-08-18T07:49:21.050Z</time>
      </trkpt>
      <trkpt lat="43.99133" lon="7.25782">
        <ele>1090</ele>
        <time>2013-08-18T07:49:26.950Z</time>
      </trkpt>
      <trkpt lat="43.99133" lon="7.25795">
        <ele>1090</ele>
        <time>2013-08-18T07:49:29.950Z</time>
      </trkpt>
      <trkpt lat="43.99134" lon="7.25807">
        <ele>1090</ele>
        <time>2013-08-18T07:49:33.050Z</time>
      </trkpt>
      <trkpt lat="43.99138" lon="7.25823">
        <ele>1090</ele>
        <time>2013-08-18T07:49:39.040Z</time>
      </trkpt>
      <trkpt lat="43.99142" lon="7.25858">
        <ele>1090</ele>
        <time>2013-08-18T07:49:49.120Z</time>
      </trkpt>
      <trkpt lat="43.99148" lon="7.2588">
        <ele>1090</ele>
        <time>2013-08-18T07:49:55.050Z</time>
      </trkpt>
      <trkpt lat="43.99147" lon="7.25894">
        <ele>1090</ele>
        <time>2013-08-18T07:50:01.050Z</time>
      </trkpt>
      <trkpt lat="43.99141" lon="7.25904">
        <ele>1090</ele>
        <time>2013-08-18T07:50:05.050Z</time>
      </trkpt>
      <trkpt lat="43.99138" lon="7.25918">
        <ele>1091</ele>
        <time>2013-08-18T07:50:09.040Z</time>
      </trkpt>
      <trkpt lat="43.99147" lon="7.25946">
        <ele>1091</ele>
        <time>2013-08-18T07:50:17.030Z</time>
      </trkpt>
      <trkpt lat="43.99146" lon="7.25961">
        <ele>1092</ele>
        <time>2013-08-18T07:50:21.050Z</time>
      </trkpt>
      <trkpt lat="43.99147" lon="7.2598">
        <ele>1092</ele>
        <time>2013-08-18T07:50:25.940Z</time>
      </trkpt>
      <trkpt lat="43.99144" lon="7.25994">
        <ele>1094</ele>
        <time>2013-08-18T07:50:33.100Z</time>
      </trkpt>
      <trkpt lat="43.99148" lon="7.26001">
        <ele>1094</ele>
        <time>2013-08-18T07:50:37.070Z</time>
      </trkpt>
      <trkpt lat="43.99149" lon="7.26004">
        <ele>1098</ele>
        <time>2013-08-18T07:50:39.050Z</time>
      </trkpt>
      <trkpt lat="43.99152" lon="7.26009">
        <ele>1098</ele>
        <time>2013-08-18T07:50:41.950Z</time>
      </trkpt>
      <trkpt lat="43.99155" lon="7.26011">
        <ele>1100</ele>
        <time>2013-08-18T07:50:44Z</time>
      </trkpt>
      <trkpt lat="43.99167" lon="7.26016">
        <ele>1102</ele>
        <time>2013-08-18T07:50:50.960Z</time>
      </trkpt>
      <trkpt lat="43.99174" lon="7.26025">
        <ele>1103</ele>
        <time>2013-08-18T07:50:56.040Z</time>
      </trkpt>
      <trkpt lat="43.99177" lon="7.26025">
        <ele>1105</ele>
        <time>2013-08-18T07:50:59.050Z</time>
      </trkpt>
      <trkpt lat="43.99181" lon="7.26026">
        <ele>1105</ele>
        <time>2013-08-18T07:51:01.050Z</time>
      </trkpt>
      <trkpt lat="43.99182" lon="7.26031">
        <ele>1105</ele>
        <time>2013-08-18T07:51:03.050Z</time>
      </trkpt>
      <trkpt lat="43.99181" lon="7.26044">
        <ele>1105</ele>
        <time>2013-08-18T07:51:07.110Z</time>
      </trkpt>
      <trkpt lat="43.99178" lon="7.26055">
        <ele>1105</ele>
        <time>2013-08-18T07:51:11.950Z</time>
      </trkpt>
      <trkpt lat="43.99182" lon="7.26073">
        <ele>1106</ele>
        <time>2013-08-18T07:51:18.950Z</time>
      </trkpt>
      <trkpt lat="43.9919" lon="7.26092">
        <ele>1106</ele>
        <time>2013-08-18T07:51:27.050Z</time>
      </trkpt>
      <trkpt lat="43.99193" lon="7.26108">
        <ele>1108</ele>
        <time>2013-08-18T07:51:33.940Z</time>
      </trkpt>
      <trkpt lat="43.99199" lon="7.26113">
        <ele>1108</ele>
        <time>2013-08-18T07:51:36.950Z</time>
      </trkpt>
      <trkpt lat="43.99205" lon="7.26121">
        <ele>1110</ele>
        <time>2013-08-18T07:51:40.950Z</time>
      </trkpt>
      <trkpt lat="43.99208" lon="7.26133">
        <ele>1110</ele>
        <time>2013-08-18T07:51:46.950Z</time>
      </trkpt>
      <trkpt lat="43.99213" lon="7.26135">
        <ele>1112</ele>
        <time>2013-08-18T07:51:50.840Z</time>
      </trkpt>
      <trkpt lat="43.99214" lon="7.26142">
        <ele>1112</ele>
        <time>2013-08-18T07:51:55.050Z</time>
      </trkpt>
      <trkpt lat="43.99218" lon="7.26145">
        <ele>1115</ele>
        <time>2013-08-18T07:51:59.050Z</time>
      </trkpt>
      <trkpt lat="43.9922" lon="7.26151">
        <ele>1115</ele>
        <time>2013-08-18T07:52:02.050Z</time>
      </trkpt>
      <trkpt lat="43.99222" lon="7.26151">
        <ele>1117</ele>
        <time>2013-08-18T07:52:04.050Z</time>
      </trkpt>
      <trkpt lat="43.99233" lon="7.26155">
        <ele>1119</ele>
        <time>2013-08-18T07:52:10.050Z</time>
      </trkpt>
      <trkpt lat="43.99234" lon="7.26159">
        <ele>1119</ele>
        <time>2013-08-18T07:52:11.960Z</time>
      </trkpt>
      <trkpt lat="43.99247" lon="7.26165">
        <ele>1120</ele>
        <time>2013-08-18T07:52:19.110Z</time>
      </trkpt>
      <trkpt lat="43.99251" lon="7.26179">
        <ele>1120</ele>
        <time>2013-08-18T07:52:22.960Z</time>
      </trkpt>
      <trkpt lat="43.99261" lon="7.26193">
        <ele>1121</ele>
        <time>2013-08-18T07:52:29.950Z</time>
      </trkpt>
      <trkpt lat="43.99264" lon="7.26202">
        <ele>1121</ele>
        <time>2013-08-18T07:52:33.050Z</time>
      </trkpt>
      <trkpt lat="43.99264" lon="7.26208">
        <ele>1121</ele>
        <time>2013-08-18T07:52:35.110Z</time>
      </trkpt>
      <trkpt lat="43.9926" lon="7.26216">
        <ele>1121</ele>
        <time>2013-08-18T07:52:38.050Z</time>
      </trkpt>
      <trkpt lat="43.99254" lon="7.2622">
        <ele>1121</ele>
        <time>2013-08-18T07:52:41.050Z</time>
      </trkpt>
      <trkpt lat="43.99244" lon="7.26217">
        <ele>1121</ele>
        <time>2013-08-18T07:52:47.050Z</time>
      </trkpt>
      <trkpt lat="43.99241" lon="7.26218">
        <ele>1123</ele>
        <time>2013-08-18T07:52:49.050Z</time>
      </trkpt>
      <trkpt lat="43.99234" lon="7.26216">
        <ele>1123</ele>
        <time>2013-08-18T07:52:53.050Z</time>
      </trkpt>
      <trkpt lat="43.99228" lon="7.26219">
        <ele>1123</ele>
        <time>2013-08-18T07:52:57.050Z</time>
      </trkpt>
      <trkpt lat="43.99226" lon="7.26223">
        <ele>1126</ele>
        <time>2013-08-18T07:52:59.040Z</time>
      </trkpt>
      <trkpt lat="43.99222" lon="7.26228">
        <ele>1126</ele>
        <time>2013-08-18T07:53:02.050Z</time>
      </trkpt>
      <trkpt lat="43.99222" lon="7.2623">
        <ele>1128</ele>
        <time>2013-08-18T07:53:04.050Z</time>
      </trkpt>
      <trkpt lat="43.99215" lon="7.26239">
        <ele>1129</ele>
        <time>2013-08-18T07:53:10.050Z</time>
      </trkpt>
      <trkpt lat="43.99203" lon="7.26246">
        <ele>1130</ele>
        <time>2013-08-18T07:53:15.940Z</time>
      </trkpt>
      <trkpt lat="43.99202" lon="7.26248">
        <ele>1132</ele>
        <time>2013-08-18T07:53:18.950Z</time>
      </trkpt>
      <trkpt lat="43.99196" lon="7.26252">
        <ele>1132.4200138238</ele>
        <time>2013-08-18T07:53:22.950Z</time>
      </trkpt>
      <trkpt lat="43.99195" lon="7.26254">
        <ele>1134</ele>
        <time>2013-08-18T07:53:23.950Z</time>
      </trkpt>
      <trkpt lat="43.99193" lon="7.2626">
        <ele>1134</ele>
        <time>2013-08-18T07:53:26.950Z</time>
      </trkpt>
      <trkpt lat="43.9919" lon="7.26263">
        <ele>1136.2000102399</ele>
        <time>2013-08-18T07:53:32.940Z</time>
      </trkpt>
      <trkpt lat="43.99187" lon="7.26273">
        <ele>1138</ele>
        <time>2013-08-18T07:53:38.950Z</time>
      </trkpt>
      <trkpt lat="43.99176" lon="7.26284">
        <ele>1138</ele>
        <time>2013-08-18T07:53:47.050Z</time>
      </trkpt>
      <trkpt lat="43.99171" lon="7.26288">
        <ele>1140</ele>
        <time>2013-08-18T07:53:50.100Z</time>
      </trkpt>
      <trkpt lat="43.99168" lon="7.26288">
        <ele>1140</ele>
        <time>2013-08-18T07:53:52.050Z</time>
      </trkpt>
      <trkpt lat="43.99165" lon="7.26291">
        <ele>1140</ele>
        <time>2013-08-18T07:53:56.100Z</time>
      </trkpt>
      <trkpt lat="43.99163" lon="7.26289">
        <ele>1143</ele>
        <time>2013-08-18T07:53:59.050Z</time>
      </trkpt>
      <trkpt lat="43.99148" lon="7.26291">
        <ele>1145</ele>
        <time>2013-08-18T07:54:06.050Z</time>
      </trkpt>
      <trkpt lat="43.99132" lon="7.26286">
        <ele>1148</ele>
        <time>2013-08-18T07:54:16.940Z</time>
      </trkpt>
      <trkpt lat="43.9913" lon="7.26285">
        <ele>1150</ele>
        <time>2013-08-18T07:54:18.950Z</time>
      </trkpt>
      <trkpt lat="43.99125" lon="7.26287">
        <ele>1150</ele>
        <time>2013-08-18T07:54:21.950Z</time>
      </trkpt>
      <trkpt lat="43.99119" lon="7.26286">
        <ele>1152</ele>
        <time>2013-08-18T07:54:28.950Z</time>
      </trkpt>
      <trkpt lat="43.99107" lon="7.26283">
        <ele>1152</ele>
        <time>2013-08-18T07:54:36.950Z</time>
      </trkpt>
      <trkpt lat="43.99103" lon="7.26285">
        <ele>1154</ele>
        <time>2013-08-18T07:54:40.050Z</time>
      </trkpt>
      <trkpt lat="43.99094" lon="7.26301">
        <ele>1154.419998976</ele>
        <time>2013-08-18T07:54:47.950Z</time>
      </trkpt>
      <trkpt lat="43.99095" lon="7.26303">
        <ele>1156</ele>
        <time>2013-08-18T07:54:48.940Z</time>
      </trkpt>
      <trkpt lat="43.99095" lon="7.26309">
        <ele>1156</ele>
        <time>2013-08-18T07:54:50.930Z</time>
      </trkpt>
      <trkpt lat="43.99091" lon="7.2632">
        <ele>1156</ele>
        <time>2013-08-18T07:54:56.950Z</time>
      </trkpt>
      <trkpt lat="43.99091" lon="7.26325">
        <ele>1159</ele>
        <time>2013-08-18T07:54:58.950Z</time>
      </trkpt>
      <trkpt lat="43.9909" lon="7.26331">
        <ele>1159</ele>
        <time>2013-08-18T07:55:01.950Z</time>
      </trkpt>
      <trkpt lat="43.99092" lon="7.26343">
        <ele>1162</ele>
        <time>2013-08-18T07:55:08.950Z</time>
      </trkpt>
      <trkpt lat="43.99086" lon="7.26355">
        <ele>1162.2100069119</ele>
        <time>2013-08-18T07:55:12.950Z</time>
      </trkpt>
      <trkpt lat="43.99081" lon="7.26361">
        <ele>1163</ele>
        <time>2013-08-18T07:55:16.050Z</time>
      </trkpt>
      <trkpt lat="43.9906" lon="7.26366">
        <ele>1164</ele>
        <time>2013-08-18T07:55:27.100Z</time>
      </trkpt>
      <trkpt lat="43.99055" lon="7.26366">
        <ele>1165</ele>
        <time>2013-08-18T07:55:29.100Z</time>
      </trkpt>
      <trkpt lat="43.99039" lon="7.26358">
        <ele>1165</ele>
        <time>2013-08-18T07:55:36.950Z</time>
      </trkpt>
      <trkpt lat="43.99038" lon="7.26357">
        <ele>1167</ele>
        <time>2013-08-18T07:55:38.950Z</time>
      </trkpt>
      <trkpt lat="43.9903" lon="7.26357">
        <ele>1167</ele>
        <time>2013-08-18T07:55:46.950Z</time>
      </trkpt>
      <trkpt lat="43.99028" lon="7.26359">
        <ele>1170</ele>
        <time>2013-08-18T07:55:48.940Z</time>
      </trkpt>
      <trkpt lat="43.99026" lon="7.26361">
        <ele>1170</ele>
        <time>2013-08-18T07:55:50.930Z</time>
      </trkpt>
      <trkpt lat="43.99027" lon="7.26367">
        <ele>1169.7899930881</ele>
        <time>2013-08-18T07:55:52.950Z</time>
      </trkpt>
      <trkpt lat="43.99032" lon="7.26379">
        <ele>1169</ele>
        <time>2013-08-18T07:55:57.050Z</time>
      </trkpt>
      <trkpt lat="43.99039" lon="7.26401">
        <ele>1168</ele>
        <time>2013-08-18T07:56:02.950Z</time>
      </trkpt>
      <trkpt lat="43.99047" lon="7.26414">
        <ele>1168</ele>
        <time>2013-08-18T07:56:06.950Z</time>
      </trkpt>
      <trkpt lat="43.99052" lon="7.2642">
        <ele>1166</ele>
        <time>2013-08-18T07:56:08.950Z</time>
      </trkpt>
      <trkpt lat="43.99055" lon="7.26436">
        <ele>1166</ele>
        <time>2013-08-18T07:56:12.950Z</time>
      </trkpt>
      <trkpt lat="43.99058" lon="7.2644">
        <ele>1166</ele>
        <time>2013-08-18T07:56:14.950Z</time>
      </trkpt>
      <trkpt lat="43.99069" lon="7.26446">
        <ele>1165</ele>
        <time>2013-08-18T07:56:19.050Z</time>
      </trkpt>
      <trkpt lat="43.9908" lon="7.26447">
        <ele>1165</ele>
        <time>2013-08-18T07:56:22.110Z</time>
      </trkpt>
      <trkpt lat="43.99085" lon="7.26445">
        <ele>1165</ele>
        <time>2013-08-18T07:56:24.100Z</time>
      </trkpt>
      <trkpt lat="43.99093" lon="7.2644">
        <ele>1165</ele>
        <time>2013-08-18T07:56:26.950Z</time>
      </trkpt>
      <trkpt lat="43.991" lon="7.26437">
        <ele>1162</ele>
        <time>2013-08-18T07:56:29.950Z</time>
      </trkpt>
      <trkpt lat="43.99129" lon="7.26436">
        <ele>1159</ele>
        <time>2013-08-18T07:56:38.930Z</time>
      </trkpt>
      <trkpt lat="43.99136" lon="7.26438">
        <ele>1159</ele>
        <time>2013-08-18T07:56:40.950Z</time>
      </trkpt>
      <trkpt lat="43.99142" lon="7.26442">
        <ele>1158.380001536</ele>
        <time>2013-08-18T07:56:43.050Z</time>
      </trkpt>
      <trkpt lat="43.99144" lon="7.26445">
        <ele>1157</ele>
        <time>2013-08-18T07:56:44.050Z</time>
      </trkpt>
      <trkpt lat="43.99148" lon="7.26453">
        <ele>1157</ele>
        <time>2013-08-18T07:56:47Z</time>
      </trkpt>
      <trkpt lat="43.9915" lon="7.26461">
        <ele>1157</ele>
        <time>2013-08-18T07:56:50.940Z</time>
      </trkpt>
      <trkpt lat="43.99167" lon="7.26478">
        <ele>1157.3099943679</ele>
        <time>2013-08-18T07:56:58.050Z</time>
      </trkpt>
      <trkpt lat="43.99176" lon="7.26484">
        <ele>1158</ele>
        <time>2013-08-18T07:57:01.030Z</time>
      </trkpt>
      <trkpt lat="43.9918" lon="7.26491">
        <ele>1158</ele>
        <time>2013-08-18T07:57:03.050Z</time>
      </trkpt>
      <trkpt lat="43.99193" lon="7.265">
        <ele>1158</ele>
        <time>2013-08-18T07:57:07.110Z</time>
      </trkpt>
      <trkpt lat="43.99196" lon="7.26505">
        <ele>1156</ele>
        <time>2013-08-18T07:57:09.060Z</time>
      </trkpt>
      <trkpt lat="43.99199" lon="7.2651">
        <ele>1156</ele>
        <time>2013-08-18T07:57:11.950Z</time>
      </trkpt>
      <trkpt lat="43.992" lon="7.2652">
        <ele>1156</ele>
        <time>2013-08-18T07:57:14.950Z</time>
      </trkpt>
      <trkpt lat="43.99191" lon="7.2655">
        <ele>1155</ele>
        <time>2013-08-18T07:57:24.050Z</time>
      </trkpt>
      <trkpt lat="43.9918" lon="7.26565">
        <ele>1155</ele>
        <time>2013-08-18T07:57:29.050Z</time>
      </trkpt>
      <trkpt lat="43.99171" lon="7.26575">
        <ele>1155</ele>
        <time>2013-08-18T07:57:33.050Z</time>
      </trkpt>
      <trkpt lat="43.99166" lon="7.26578">
        <ele>1155</ele>
        <time>2013-08-18T07:57:35.950Z</time>
      </trkpt>
      <trkpt lat="43.99164" lon="7.26581">
        <ele>1155.6599892479</ele>
        <time>2013-08-18T07:57:37.960Z</time>
      </trkpt>
      <trkpt lat="43.99162" lon="7.26582">
        <ele>1158</ele>
        <time>2013-08-18T07:57:38.950Z</time>
      </trkpt>
      <trkpt lat="43.99161" lon="7.2659">
        <ele>1158</ele>
        <time>2013-08-18T07:57:42.050Z</time>
      </trkpt>
      <trkpt lat="43.9917" lon="7.26635">
        <ele>1157</ele>
        <time>2013-08-18T07:57:52.950Z</time>
      </trkpt>
      <trkpt lat="43.99168" lon="7.26648">
        <ele>1157</ele>
        <time>2013-08-18T07:57:55.950Z</time>
      </trkpt>
      <trkpt lat="43.99169" lon="7.26668">
        <ele>1157</ele>
        <time>2013-08-18T07:58:01.050Z</time>
      </trkpt>
      <trkpt lat="43.99171" lon="7.26675">
        <ele>1157</ele>
        <time>2013-08-18T07:58:03.100Z</time>
      </trkpt>
      <trkpt lat="43.99181" lon="7.26686">
        <ele>1157</ele>
        <time>2013-08-18T07:58:09.110Z</time>
      </trkpt>
      <trkpt lat="43.99202" lon="7.26701">
        <ele>1157</ele>
        <time>2013-08-18T07:58:16.930Z</time>
      </trkpt>
      <trkpt lat="43.99206" lon="7.26706">
        <ele>1158</ele>
        <time>2013-08-18T07:58:18.950Z</time>
      </trkpt>
      <trkpt lat="43.99211" lon="7.26722">
        <ele>1158</ele>
        <time>2013-08-18T07:58:24.100Z</time>
      </trkpt>
      <trkpt lat="43.99213" lon="7.26739">
        <ele>1158</ele>
        <time>2013-08-18T07:58:28.100Z</time>
      </trkpt>
      <trkpt lat="43.99211" lon="7.2676">
        <ele>1158</ele>
        <time>2013-08-18T07:58:33.050Z</time>
      </trkpt>
      <trkpt lat="43.99207" lon="7.26777">
        <ele>1158</ele>
        <time>2013-08-18T07:58:37.050Z</time>
      </trkpt>
      <trkpt lat="43.99203" lon="7.26784">
        <ele>1157</ele>
        <time>2013-08-18T07:58:40.040Z</time>
      </trkpt>
      <trkpt lat="43.99191" lon="7.26793">
        <ele>1157</ele>
        <time>2013-08-18T07:58:46.050Z</time>
      </trkpt>
      <trkpt lat="43.99173" lon="7.26809">
        <ele>1158</ele>
        <time>2013-08-18T07:58:54.050Z</time>
      </trkpt>
      <trkpt lat="43.99157" lon="7.26819">
        <ele>1159</ele>
        <time>2013-08-18T07:59:00.950Z</time>
      </trkpt>
      <trkpt lat="43.99125" lon="7.2683">
        <ele>1161</ele>
        <time>2013-08-18T07:59:15.950Z</time>
      </trkpt>
      <trkpt lat="43.99122" lon="7.26833">
        <ele>1161.629998464</ele>
        <time>2013-08-18T07:59:17.950Z</time>
      </trkpt>
      <trkpt lat="43.9912" lon="7.26834">
        <ele>1164</ele>
        <time>2013-08-18T07:59:18.950Z</time>
      </trkpt>
      <trkpt lat="43.9911" lon="7.26842">
        <ele>1165</ele>
        <time>2013-08-18T07:59:24.950Z</time>
      </trkpt>
      <trkpt lat="43.99099" lon="7.2684">
        <ele>1166</ele>
        <time>2013-08-18T07:59:30.950Z</time>
      </trkpt>
      <trkpt lat="43.99086" lon="7.26844">
        <ele>1166</ele>
        <time>2013-08-18T07:59:36.950Z</time>
      </trkpt>
      <trkpt lat="43.99082" lon="7.26843">
        <ele>1168</ele>
        <time>2013-08-18T07:59:38.950Z</time>
      </trkpt>
      <trkpt lat="43.99066" lon="7.26836">
        <ele>1168</ele>
        <time>2013-08-18T07:59:46.940Z</time>
      </trkpt>
      <trkpt lat="43.99062" lon="7.26834">
        <ele>1170</ele>
        <time>2013-08-18T07:59:48.950Z</time>
      </trkpt>
      <trkpt lat="43.99051" lon="7.26831">
        <ele>1170</ele>
        <time>2013-08-18T07:59:52.950Z</time>
      </trkpt>
      <trkpt lat="43.99038" lon="7.26824">
        <ele>1170.629998464</ele>
        <time>2013-08-18T07:59:57.950Z</time>
      </trkpt>
      <trkpt lat="43.99035" lon="7.26823">
        <ele>1173</ele>
        <time>2013-08-18T07:59:58.950Z</time>
      </trkpt>
      <trkpt lat="43.9903" lon="7.26825">
        <ele>1173</ele>
        <time>2013-08-18T08:00:01.050Z</time>
      </trkpt>
      <trkpt lat="43.99026" lon="7.26836">
        <ele>1173</ele>
        <time>2013-08-18T08:00:05.050Z</time>
      </trkpt>
      <trkpt lat="43.99024" lon="7.26856">
        <ele>1173</ele>
        <time>2013-08-18T08:00:10.050Z</time>
      </trkpt>
      <trkpt lat="43.99026" lon="7.26876">
        <ele>1173</ele>
        <time>2013-08-18T08:00:15.050Z</time>
      </trkpt>
      <trkpt lat="43.99026" lon="7.26893">
        <ele>1173</ele>
        <time>2013-08-18T08:00:20.060Z</time>
      </trkpt>
      <trkpt lat="43.99009" lon="7.26903">
        <ele>1173</ele>
        <time>2013-08-18T08:00:27.050Z</time>
      </trkpt>
      <trkpt lat="43.98986" lon="7.26912">
        <ele>1174</ele>
        <time>2013-08-18T08:00:34.950Z</time>
      </trkpt>
      <trkpt lat="43.98963" lon="7.26927">
        <ele>1174</ele>
        <time>2013-08-18T08:00:43.950Z</time>
      </trkpt>
      <trkpt lat="43.98957" lon="7.26936">
        <ele>1174</ele>
        <time>2013-08-18T08:00:46.950Z</time>
      </trkpt>
      <trkpt lat="43.98955" lon="7.2694">
        <ele>1174</ele>
        <time>2013-08-18T08:00:48.050Z</time>
      </trkpt>
      <trkpt lat="43.98955" lon="7.26949">
        <ele>1174</ele>
        <time>2013-08-18T08:00:50.050Z</time>
      </trkpt>
      <trkpt lat="43.98965" lon="7.27014">
        <ele>1174</ele>
        <time>2013-08-18T08:01:05.100Z</time>
      </trkpt>
      <trkpt lat="43.98961" lon="7.27022">
        <ele>1173</ele>
        <time>2013-08-18T08:01:08.950Z</time>
      </trkpt>
      <trkpt lat="43.98949" lon="7.27034">
        <ele>1173</ele>
        <time>2013-08-18T08:01:15.050Z</time>
      </trkpt>
      <trkpt lat="43.98944" lon="7.27041">
        <ele>1173.3599918079</ele>
        <time>2013-08-18T08:01:18.100Z</time>
      </trkpt>
      <trkpt lat="43.98927" lon="7.27053">
        <ele>1174</ele>
        <time>2013-08-18T08:01:23.040Z</time>
      </trkpt>
      <trkpt lat="43.9892" lon="7.27063">
        <ele>1174</ele>
        <time>2013-08-18T08:01:26.050Z</time>
      </trkpt>
      <trkpt lat="43.98919" lon="7.27066">
        <ele>1174</ele>
        <time>2013-08-18T08:01:27.050Z</time>
      </trkpt>
      <trkpt lat="43.98921" lon="7.27081">
        <ele>1175</ele>
        <time>2013-08-18T08:01:31.060Z</time>
      </trkpt>
      <trkpt lat="43.98928" lon="7.27105">
        <ele>1175</ele>
        <time>2013-08-18T08:01:37.050Z</time>
      </trkpt>
      <trkpt lat="43.98928" lon="7.27106">
        <ele>1173.4500281604</ele>
        <time>2013-08-18T08:01:38.050Z</time>
      </trkpt>
      <trkpt lat="43.98925" lon="7.27106">
        <ele>1170</ele>
        <time>2013-08-18T08:01:39.050Z</time>
      </trkpt>
      <trkpt lat="43.98911" lon="7.27105">
        <ele>1169.3699792643</ele>
        <time>2013-08-18T08:01:42.950Z</time>
      </trkpt>
      <trkpt lat="43.98908" lon="7.27106">
        <ele>1167</ele>
        <time>2013-08-18T08:01:43.950Z</time>
      </trkpt>
      <trkpt lat="43.98892" lon="7.27108">
        <ele>1166.370001536</ele>
        <time>2013-08-18T08:01:47.950Z</time>
      </trkpt>
      <trkpt lat="43.98888" lon="7.27109">
        <ele>1163.5799861762</ele>
        <time>2013-08-18T08:01:48.950Z</time>
      </trkpt>
      <trkpt lat="43.98879" lon="7.27117">
        <ele>1160.6900056321</ele>
        <time>2013-08-18T08:01:52.050Z</time>
      </trkpt>
      <trkpt lat="43.98873" lon="7.27119">
        <ele>1158</ele>
        <time>2013-08-18T08:01:54.050Z</time>
      </trkpt>
      <trkpt lat="43.98867" lon="7.27117">
        <ele>1157.6900056321</ele>
        <time>2013-08-18T08:01:56.050Z</time>
      </trkpt>
      <trkpt lat="43.98854" lon="7.27109">
        <ele>1157</ele>
        <time>2013-08-18T08:02:00.030Z</time>
      </trkpt>
      <trkpt lat="43.98833" lon="7.27106">
        <ele>1153</ele>
        <time>2013-08-18T08:02:06.050Z</time>
      </trkpt>
      <trkpt lat="43.98812" lon="7.27112">
        <ele>1149.7899930881</ele>
        <time>2013-08-18T08:02:12.950Z</time>
      </trkpt>
      <trkpt lat="43.988" lon="7.27112">
        <ele>1144.7099941121</ele>
        <time>2013-08-18T08:02:17.030Z</time>
      </trkpt>
      <trkpt lat="43.98785" lon="7.27111">
        <ele>1142.380001536</ele>
        <time>2013-08-18T08:02:21.050Z</time>
      </trkpt>
      <trkpt lat="43.98778" lon="7.27111">
        <ele>1139.6299951361</ele>
        <time>2013-08-18T08:02:23.110Z</time>
      </trkpt>
      <trkpt lat="43.98753" lon="7.27113">
        <ele>1134</ele>
        <time>2013-08-18T08:02:32.050Z</time>
      </trkpt>
      <trkpt lat="43.98746" lon="7.27124">
        <ele>1131</ele>
        <time>2013-08-18T08:02:35.050Z</time>
      </trkpt>
      <trkpt lat="43.98738" lon="7.2713">
        <ele>1129</ele>
        <time>2013-08-18T08:02:39.050Z</time>
      </trkpt>
      <trkpt lat="43.98745" lon="7.27132">
        <ele>1127.7899930881</ele>
        <time>2013-08-18T08:02:42.950Z</time>
      </trkpt>
      <trkpt lat="43.98746" lon="7.27133">
        <ele>1127</ele>
        <time>2013-08-18T08:02:43.950Z</time>
      </trkpt>
      <trkpt lat="43.98742" lon="7.27137">
        <ele>1125</ele>
        <time>2013-08-18T08:02:45.950Z</time>
      </trkpt>
      <trkpt lat="43.98736" lon="7.2714">
        <ele>1124.6799959039</ele>
        <time>2013-08-18T08:02:48.060Z</time>
      </trkpt>
      <trkpt lat="43.98722" lon="7.27137">
        <ele>1124</ele>
        <time>2013-08-18T08:02:52.050Z</time>
      </trkpt>
      <trkpt lat="43.98719" lon="7.27135">
        <ele>1123.3399892481</ele>
        <time>2013-08-18T08:02:52.960Z</time>
      </trkpt>
      <trkpt lat="43.98713" lon="7.27134">
        <ele>1121</ele>
        <time>2013-08-18T08:02:55.050Z</time>
      </trkpt>
      <trkpt lat="43.98708" lon="7.27139">
        <ele>1121</ele>
        <time>2013-08-18T08:02:56.950Z</time>
      </trkpt>
      <trkpt lat="43.98702" lon="7.27146">
        <ele>1119</ele>
        <time>2013-08-18T08:02:58.950Z</time>
      </trkpt>
      <trkpt lat="43.98696" lon="7.27156">
        <ele>1119</ele>
        <time>2013-08-18T08:03:02.050Z</time>
      </trkpt>
      <trkpt lat="43.98692" lon="7.27162">
        <ele>1116</ele>
        <time>2013-08-18T08:03:04.050Z</time>
      </trkpt>
      <trkpt lat="43.98686" lon="7.27166">
        <ele>1116</ele>
        <time>2013-08-18T08:03:06.050Z</time>
      </trkpt>
      <trkpt lat="43.98683" lon="7.27165">
        <ele>1116</ele>
        <time>2013-08-18T08:03:07.050Z</time>
      </trkpt>
      <trkpt lat="43.98673" lon="7.27156">
        <ele>1111</ele>
        <time>2013-08-18T08:03:10.050Z</time>
      </trkpt>
      <trkpt lat="43.98662" lon="7.27148">
        <ele>1110.709999488</ele>
        <time>2013-08-18T08:03:14.030Z</time>
      </trkpt>
      <trkpt lat="43.98655" lon="7.27137">
        <ele>1109</ele>
        <time>2013-08-18T08:03:16.960Z</time>
      </trkpt>
      <trkpt lat="43.98649" lon="7.27133">
        <ele>1108</ele>
        <time>2013-08-18T08:03:19.110Z</time>
      </trkpt>
      <trkpt lat="43.98628" lon="7.27136">
        <ele>1107</ele>
        <time>2013-08-18T08:03:25.950Z</time>
      </trkpt>
      <trkpt lat="43.9862" lon="7.27145">
        <ele>1106</ele>
        <time>2013-08-18T08:03:30.950Z</time>
      </trkpt>
      <trkpt lat="43.98603" lon="7.27149">
        <ele>1106</ele>
        <time>2013-08-18T08:03:37Z</time>
      </trkpt>
      <trkpt lat="43.98587" lon="7.27158">
        <ele>1105</ele>
        <time>2013-08-18T08:03:42.110Z</time>
      </trkpt>
      <trkpt lat="43.98579" lon="7.27161">
        <ele>1105</ele>
        <time>2013-08-18T08:03:44.050Z</time>
      </trkpt>
      <trkpt lat="43.98568" lon="7.27155">
        <ele>1105</ele>
        <time>2013-08-18T08:03:46.950Z</time>
      </trkpt>
      <trkpt lat="43.98562" lon="7.27149">
        <ele>1103</ele>
        <time>2013-08-18T08:03:49Z</time>
      </trkpt>
      <trkpt lat="43.98558" lon="7.27146">
        <ele>1103</ele>
        <time>2013-08-18T08:03:50.930Z</time>
      </trkpt>
      <trkpt lat="43.98551" lon="7.27165">
        <ele>1103</ele>
        <time>2013-08-18T08:03:57.050Z</time>
      </trkpt>
      <trkpt lat="43.9854" lon="7.27184">
        <ele>1102</ele>
        <time>2013-08-18T08:04:02.950Z</time>
      </trkpt>
      <trkpt lat="43.98536" lon="7.27189">
        <ele>1102</ele>
        <time>2013-08-18T08:04:04.950Z</time>
      </trkpt>
      <trkpt lat="43.98529" lon="7.2719">
        <ele>1102</ele>
        <time>2013-08-18T08:04:06.950Z</time>
      </trkpt>
      <trkpt lat="43.98512" lon="7.27186">
        <ele>1101</ele>
        <time>2013-08-18T08:04:12.050Z</time>
      </trkpt>
      <trkpt lat="43.98506" lon="7.27189">
        <ele>1101</ele>
        <time>2013-08-18T08:04:14.050Z</time>
      </trkpt>
      <trkpt lat="43.98495" lon="7.2721">
        <ele>1101</ele>
        <time>2013-08-18T08:04:21.050Z</time>
      </trkpt>
      <trkpt lat="43.98491" lon="7.27228">
        <ele>1101</ele>
        <time>2013-08-18T08:04:27.050Z</time>
      </trkpt>
      <trkpt lat="43.98488" lon="7.27255">
        <ele>1100</ele>
        <time>2013-08-18T08:04:32.950Z</time>
      </trkpt>
      <trkpt lat="43.98471" lon="7.27277">
        <ele>1099</ele>
        <time>2013-08-18T08:04:47.050Z</time>
      </trkpt>
      <trkpt lat="43.98451" lon="7.27326">
        <ele>1099</ele>
        <time>2013-08-18T08:05:01.100Z</time>
      </trkpt>
      <trkpt lat="43.98447" lon="7.2735">
        <ele>1099</ele>
        <time>2013-08-18T08:05:07.050Z</time>
      </trkpt>
      <trkpt lat="43.98446" lon="7.27358">
        <ele>1101</ele>
        <time>2013-08-18T08:05:09.050Z</time>
      </trkpt>
      <trkpt lat="43.98445" lon="7.27374">
        <ele>1101</ele>
        <time>2013-08-18T08:05:13Z</time>
      </trkpt>
      <trkpt lat="43.9844" lon="7.2739">
        <ele>1101.3099943679</ele>
        <time>2013-08-18T08:05:18.050Z</time>
      </trkpt>
      <trkpt lat="43.98439" lon="7.27404">
        <ele>1102</ele>
        <time>2013-08-18T08:05:22.050Z</time>
      </trkpt>
      <trkpt lat="43.98441" lon="7.27419">
        <ele>1102</ele>
        <time>2013-08-18T08:05:27.040Z</time>
      </trkpt>
      <trkpt lat="43.98441" lon="7.27425">
        <ele>1104</ele>
        <time>2013-08-18T08:05:28.950Z</time>
      </trkpt>
      <trkpt lat="43.98442" lon="7.27433">
        <ele>1104</ele>
        <time>2013-08-18T08:05:30.950Z</time>
      </trkpt>
      <trkpt lat="43.9844" lon="7.2744">
        <ele>1104</ele>
        <time>2013-08-18T08:05:33.050Z</time>
      </trkpt>
      <trkpt lat="43.98441" lon="7.2745">
        <ele>1104</ele>
        <time>2013-08-18T08:05:37.050Z</time>
      </trkpt>
      <trkpt lat="43.9844" lon="7.27457">
        <ele>1106</ele>
        <time>2013-08-18T08:05:39.110Z</time>
      </trkpt>
      <trkpt lat="43.98442" lon="7.27482">
        <ele>1106</ele>
        <time>2013-08-18T08:05:46.950Z</time>
      </trkpt>
      <trkpt lat="43.98443" lon="7.27488">
        <ele>1108</ele>
        <time>2013-08-18T08:05:48.950Z</time>
      </trkpt>
      <trkpt lat="43.98447" lon="7.27506">
        <ele>1108</ele>
        <time>2013-08-18T08:05:55.950Z</time>
      </trkpt>
      <trkpt lat="43.98446" lon="7.27511">
        <ele>1108.629998464</ele>
        <time>2013-08-18T08:05:57.950Z</time>
      </trkpt>
      <trkpt lat="43.98445" lon="7.27514">
        <ele>1111</ele>
        <time>2013-08-18T08:05:59.050Z</time>
      </trkpt>
      <trkpt lat="43.98445" lon="7.27527">
        <ele>1111.619998464</ele>
        <time>2013-08-18T08:06:03.050Z</time>
      </trkpt>
      <trkpt lat="43.98445" lon="7.2753">
        <ele>1113</ele>
        <time>2013-08-18T08:06:04.050Z</time>
      </trkpt>
      <trkpt lat="43.98442" lon="7.27549">
        <ele>1114</ele>
        <time>2013-08-18T08:06:11Z</time>
      </trkpt>
      <trkpt lat="43.98434" lon="7.27564">
        <ele>1115</ele>
        <time>2013-08-18T08:06:16.930Z</time>
      </trkpt>
      <trkpt lat="43.98426" lon="7.27572">
        <ele>1115</ele>
        <time>2013-08-18T08:06:20.950Z</time>
      </trkpt>
      <trkpt lat="43.98415" lon="7.27589">
        <ele>1115</ele>
        <time>2013-08-18T08:06:26.950Z</time>
      </trkpt>
      <trkpt lat="43.98398" lon="7.27606">
        <ele>1116</ele>
        <time>2013-08-18T08:06:36.050Z</time>
      </trkpt>
      <trkpt lat="43.98394" lon="7.27613">
        <ele>1118</ele>
        <time>2013-08-18T08:06:39.050Z</time>
      </trkpt>
      <trkpt lat="43.98385" lon="7.27635">
        <ele>1118</ele>
        <time>2013-08-18T08:06:47.050Z</time>
      </trkpt>
      <trkpt lat="43.98379" lon="7.27643">
        <ele>1120</ele>
        <time>2013-08-18T08:06:49.930Z</time>
      </trkpt>
      <trkpt lat="43.98373" lon="7.27657">
        <ele>1120</ele>
        <time>2013-08-18T08:06:55.050Z</time>
      </trkpt>
      <trkpt lat="43.98364" lon="7.27666">
        <ele>1121</ele>
        <time>2013-08-18T08:06:59.050Z</time>
      </trkpt>
      <trkpt lat="43.98358" lon="7.27675">
        <ele>1121</ele>
        <time>2013-08-18T08:07:02.950Z</time>
      </trkpt>
      <trkpt lat="43.98351" lon="7.27689">
        <ele>1121.419998976</ele>
        <time>2013-08-18T08:07:07.950Z</time>
      </trkpt>
      <trkpt lat="43.98349" lon="7.27692">
        <ele>1123</ele>
        <time>2013-08-18T08:07:08.940Z</time>
      </trkpt>
      <trkpt lat="43.98345" lon="7.27697">
        <ele>1123</ele>
        <time>2013-08-18T08:07:10.950Z</time>
      </trkpt>
      <trkpt lat="43.98332" lon="7.27702">
        <ele>1123</ele>
        <time>2013-08-18T08:07:17.040Z</time>
      </trkpt>
      <trkpt lat="43.98325" lon="7.27702">
        <ele>1124</ele>
        <time>2013-08-18T08:07:19.160Z</time>
      </trkpt>
      <trkpt lat="43.98296" lon="7.27708">
        <ele>1124</ele>
        <time>2013-08-18T08:07:28.050Z</time>
      </trkpt>
      <trkpt lat="43.98275" lon="7.27707">
        <ele>1124</ele>
        <time>2013-08-18T08:07:35.050Z</time>
      </trkpt>
      <trkpt lat="43.98241" lon="7.27698">
        <ele>1125</ele>
        <time>2013-08-18T08:07:47.050Z</time>
      </trkpt>
      <trkpt lat="43.98227" lon="7.277">
        <ele>1126</ele>
        <time>2013-08-18T08:07:52.950Z</time>
      </trkpt>
      <trkpt lat="43.98221" lon="7.27695">
        <ele>1126</ele>
        <time>2013-08-18T08:07:56.950Z</time>
      </trkpt>
      <trkpt lat="43.98216" lon="7.27691">
        <ele>1128</ele>
        <time>2013-08-18T08:08:00.030Z</time>
      </trkpt>
      <trkpt lat="43.98211" lon="7.2769">
        <ele>1128</ele>
        <time>2013-08-18T08:08:03.050Z</time>
      </trkpt>
      <trkpt lat="43.98205" lon="7.27685">
        <ele>1128</ele>
        <time>2013-08-18T08:08:07.050Z</time>
      </trkpt>
      <trkpt lat="43.982" lon="7.27683">
        <ele>1131</ele>
        <time>2013-08-18T08:08:09.950Z</time>
      </trkpt>
      <trkpt lat="43.98194" lon="7.27681">
        <ele>1131</ele>
        <time>2013-08-18T08:08:11.950Z</time>
      </trkpt>
      <trkpt lat="43.98185" lon="7.27677">
        <ele>1134</ele>
        <time>2013-08-18T08:08:15.050Z</time>
      </trkpt>
      <trkpt lat="43.98175" lon="7.27669">
        <ele>1134</ele>
        <time>2013-08-18T08:08:20.050Z</time>
      </trkpt>
      <trkpt lat="43.98164" lon="7.27665">
        <ele>1134</ele>
        <time>2013-08-18T08:08:27.050Z</time>
      </trkpt>
      <trkpt lat="43.98148" lon="7.27653">
        <ele>1135</ele>
        <time>2013-08-18T08:08:34.950Z</time>
      </trkpt>
      <trkpt lat="43.98145" lon="7.27648">
        <ele>1135</ele>
        <time>2013-08-18T08:08:36.930Z</time>
      </trkpt>
      <trkpt lat="43.98142" lon="7.27644">
        <ele>1137</ele>
        <time>2013-08-18T08:08:39.050Z</time>
      </trkpt>
      <trkpt lat="43.9813" lon="7.27628">
        <ele>1137</ele>
        <time>2013-08-18T08:08:45.110Z</time>
      </trkpt>
      <trkpt lat="43.98118" lon="7.27621">
        <ele>1138</ele>
        <time>2013-08-18T08:08:49.050Z</time>
      </trkpt>
      <trkpt lat="43.98102" lon="7.27605">
        <ele>1138</ele>
        <time>2013-08-18T08:08:55.050Z</time>
      </trkpt>
      <trkpt lat="43.9809" lon="7.27601">
        <ele>1140</ele>
        <time>2013-08-18T08:09:00.030Z</time>
      </trkpt>
      <trkpt lat="43.98077" lon="7.276">
        <ele>1140</ele>
        <time>2013-08-18T08:09:05.050Z</time>
      </trkpt>
      <trkpt lat="43.98066" lon="7.27592">
        <ele>1139</ele>
        <time>2013-08-18T08:09:09.050Z</time>
      </trkpt>
      <trkpt lat="43.98053" lon="7.27576">
        <ele>1139</ele>
        <time>2013-08-18T08:09:15.010Z</time>
      </trkpt>
      <trkpt lat="43.98043" lon="7.27571">
        <ele>1138.6900056321</ele>
        <time>2013-08-18T08:09:18.050Z</time>
      </trkpt>
      <trkpt lat="43.98026" lon="7.27568">
        <ele>1138</ele>
        <time>2013-08-18T08:09:23.050Z</time>
      </trkpt>
      <trkpt lat="43.98017" lon="7.27562">
        <ele>1138</ele>
        <time>2013-08-18T08:09:26Z</time>
      </trkpt>
      <trkpt lat="43.98004" lon="7.27546">
        <ele>1137</ele>
        <time>2013-08-18T08:09:31.050Z</time>
      </trkpt>
      <trkpt lat="43.97996" lon="7.27528">
        <ele>1137</ele>
        <time>2013-08-18T08:09:35.950Z</time>
      </trkpt>
      <trkpt lat="43.97983" lon="7.2751">
        <ele>1135</ele>
        <time>2013-08-18T08:09:41.060Z</time>
      </trkpt>
      <trkpt lat="43.97972" lon="7.27488">
        <ele>1135</ele>
        <time>2013-08-18T08:09:47.050Z</time>
      </trkpt>
      <trkpt lat="43.97966" lon="7.27482">
        <ele>1132</ele>
        <time>2013-08-18T08:09:49.080Z</time>
      </trkpt>
      <trkpt lat="43.97958" lon="7.27474">
        <ele>1132</ele>
        <time>2013-08-18T08:09:52.120Z</time>
      </trkpt>
      <trkpt lat="43.97954" lon="7.27468">
        <ele>1130</ele>
        <time>2013-08-18T08:09:54.050Z</time>
      </trkpt>
      <trkpt lat="43.97939" lon="7.27452">
        <ele>1129</ele>
        <time>2013-08-18T08:09:59.110Z</time>
      </trkpt>
      <trkpt lat="43.97928" lon="7.27443">
        <ele>1129</ele>
        <time>2013-08-18T08:10:02.050Z</time>
      </trkpt>
      <trkpt lat="43.97905" lon="7.2743">
        <ele>1127</ele>
        <time>2013-08-18T08:10:09.050Z</time>
      </trkpt>
      <trkpt lat="43.97877" lon="7.27416">
        <ele>1127</ele>
        <time>2013-08-18T08:10:17.030Z</time>
      </trkpt>
      <trkpt lat="43.97866" lon="7.27412">
        <ele>1122</ele>
        <time>2013-08-18T08:10:20.050Z</time>
      </trkpt>
      <trkpt lat="43.97861" lon="7.2741">
        <ele>1122</ele>
        <time>2013-08-18T08:10:21.050Z</time>
      </trkpt>
      <trkpt lat="43.97851" lon="7.2741">
        <ele>1121</ele>
        <time>2013-08-18T08:10:24.050Z</time>
      </trkpt>
      <trkpt lat="43.97837" lon="7.27414">
        <ele>1120.6900056321</ele>
        <time>2013-08-18T08:10:28.050Z</time>
      </trkpt>
      <trkpt lat="43.97826" lon="7.27412">
        <ele>1120</ele>
        <time>2013-08-18T08:10:31.050Z</time>
      </trkpt>
      <trkpt lat="43.97812" lon="7.27406">
        <ele>1120</ele>
        <time>2013-08-18T08:10:35.050Z</time>
      </trkpt>
      <trkpt lat="43.97807" lon="7.27409">
        <ele>1120</ele>
        <time>2013-08-18T08:10:37.110Z</time>
      </trkpt>
      <trkpt lat="43.97801" lon="7.2741">
        <ele>1117</ele>
        <time>2013-08-18T08:10:39.050Z</time>
      </trkpt>
      <trkpt lat="43.97795" lon="7.27409">
        <ele>1117</ele>
        <time>2013-08-18T08:10:41.050Z</time>
      </trkpt>
      <trkpt lat="43.97792" lon="7.2741">
        <ele>1117</ele>
        <time>2013-08-18T08:10:42.060Z</time>
      </trkpt>
      <trkpt lat="43.97781" lon="7.27414">
        <ele>1112</ele>
        <time>2013-08-18T08:10:45.050Z</time>
      </trkpt>
      <trkpt lat="43.97771" lon="7.27416">
        <ele>1111.160002048</ele>
        <time>2013-08-18T08:10:47.950Z</time>
      </trkpt>
      <trkpt lat="43.97767" lon="7.27417">
        <ele>1107</ele>
        <time>2013-08-18T08:10:49.940Z</time>
      </trkpt>
      <trkpt lat="43.97763" lon="7.27422">
        <ele>1106</ele>
        <time>2013-08-18T08:10:52.950Z</time>
      </trkpt>
      <trkpt lat="43.97762" lon="7.27427">
        <ele>1105</ele>
        <time>2013-08-18T08:10:54.950Z</time>
      </trkpt>
      <trkpt lat="43.97748" lon="7.27439">
        <ele>1104</ele>
        <time>2013-08-18T08:11:00.950Z</time>
      </trkpt>
      <trkpt lat="43.97739" lon="7.27452">
        <ele>1102</ele>
        <time>2013-08-18T08:11:04.950Z</time>
      </trkpt>
      <trkpt lat="43.9773" lon="7.27458">
        <ele>1101.3800112641</ele>
        <time>2013-08-18T08:11:08.050Z</time>
      </trkpt>
      <trkpt lat="43.97714" lon="7.27476">
        <ele>1098</ele>
        <time>2013-08-18T08:11:14.100Z</time>
      </trkpt>
      <trkpt lat="43.97706" lon="7.27486">
        <ele>1098</ele>
        <time>2013-08-18T08:11:16.930Z</time>
      </trkpt>
      <trkpt lat="43.97698" lon="7.27492">
        <ele>1096</ele>
        <time>2013-08-18T08:11:18.950Z</time>
      </trkpt>
      <trkpt lat="43.97685" lon="7.275">
        <ele>1096</ele>
        <time>2013-08-18T08:11:21.950Z</time>
      </trkpt>
      <trkpt lat="43.97678" lon="7.27503">
        <ele>1094</ele>
        <time>2013-08-18T08:11:23.940Z</time>
      </trkpt>
      <trkpt lat="43.97668" lon="7.27507">
        <ele>1094</ele>
        <time>2013-08-18T08:11:27.050Z</time>
      </trkpt>
      <trkpt lat="43.97665" lon="7.2751">
        <ele>1092.7600225283</ele>
        <time>2013-08-18T08:11:28.050Z</time>
      </trkpt>
      <trkpt lat="43.97661" lon="7.27512">
        <ele>1089.380001536</ele>
        <time>2013-08-18T08:11:29.050Z</time>
      </trkpt>
      <trkpt lat="43.97653" lon="7.27514">
        <ele>1087</ele>
        <time>2013-08-18T08:11:31.050Z</time>
      </trkpt>
      <trkpt lat="43.97635" lon="7.27516">
        <ele>1084</ele>
        <time>2013-08-18T08:11:35.950Z</time>
      </trkpt>
      <trkpt lat="43.97618" lon="7.27515">
        <ele>1081.69999744</ele>
        <time>2013-08-18T08:11:41.040Z</time>
      </trkpt>
      <trkpt lat="43.97605" lon="7.27516">
        <ele>1078.309999232</ele>
        <time>2013-08-18T08:11:45.050Z</time>
      </trkpt>
      <trkpt lat="43.97596" lon="7.27514">
        <ele>1077.6900056321</ele>
        <time>2013-08-18T08:11:48.050Z</time>
      </trkpt>
      <trkpt lat="43.97588" lon="7.27509">
        <ele>1077</ele>
        <time>2013-08-18T08:11:51.040Z</time>
      </trkpt>
      <trkpt lat="43.97554" lon="7.27508">
        <ele>1074</ele>
        <time>2013-08-18T08:12:02.100Z</time>
      </trkpt>
      <trkpt lat="43.9754" lon="7.27505">
        <ele>1074</ele>
        <time>2013-08-18T08:12:06.050Z</time>
      </trkpt>
      <trkpt lat="43.97536" lon="7.27505">
        <ele>1074</ele>
        <time>2013-08-18T08:12:07.050Z</time>
      </trkpt>
      <trkpt lat="43.97519" lon="7.27514">
        <ele>1073</ele>
        <time>2013-08-18T08:12:12.950Z</time>
      </trkpt>
      <trkpt lat="43.97507" lon="7.27528">
        <ele>1073</ele>
        <time>2013-08-18T08:12:17.030Z</time>
      </trkpt>
      <trkpt lat="43.97501" lon="7.27534">
        <ele>1069</ele>
        <time>2013-08-18T08:12:19.050Z</time>
      </trkpt>
      <trkpt lat="43.97495" lon="7.27542">
        <ele>1069</ele>
        <time>2013-08-18T08:12:22.050Z</time>
      </trkpt>
      <trkpt lat="43.9749" lon="7.27547">
        <ele>1067</ele>
        <time>2013-08-18T08:12:24.130Z</time>
      </trkpt>
      <trkpt lat="43.97478" lon="7.27578">
        <ele>1067</ele>
        <time>2013-08-18T08:12:33.050Z</time>
      </trkpt>
      <trkpt lat="43.97472" lon="7.27584">
        <ele>1067</ele>
        <time>2013-08-18T08:12:35.100Z</time>
      </trkpt>
      <trkpt lat="43.97468" lon="7.27592">
        <ele>1067</ele>
        <time>2013-08-18T08:12:37.050Z</time>
      </trkpt>
      <trkpt lat="43.97462" lon="7.27606">
        <ele>1066</ele>
        <time>2013-08-18T08:12:40.050Z</time>
      </trkpt>
      <trkpt lat="43.97457" lon="7.27613">
        <ele>1066</ele>
        <time>2013-08-18T08:12:42.950Z</time>
      </trkpt>
      <trkpt lat="43.97446" lon="7.27621">
        <ele>1066</ele>
        <time>2013-08-18T08:12:47.050Z</time>
      </trkpt>
      <trkpt lat="43.97441" lon="7.27626">
        <ele>1062</ele>
        <time>2013-08-18T08:12:49.040Z</time>
      </trkpt>
      <trkpt lat="43.97432" lon="7.27632">
        <ele>1062</ele>
        <time>2013-08-18T08:12:52.060Z</time>
      </trkpt>
      <trkpt lat="43.97428" lon="7.27637">
        <ele>1060</ele>
        <time>2013-08-18T08:12:54.050Z</time>
      </trkpt>
      <trkpt lat="43.97417" lon="7.27649">
        <ele>1059.790000512</ele>
        <time>2013-08-18T08:12:57.950Z</time>
      </trkpt>
      <trkpt lat="43.97407" lon="7.27663">
        <ele>1059</ele>
        <time>2013-08-18T08:13:02.050Z</time>
      </trkpt>
      <trkpt lat="43.97404" lon="7.27668">
        <ele>1058.6399918081</ele>
        <time>2013-08-18T08:13:03.100Z</time>
      </trkpt>
      <trkpt lat="43.97401" lon="7.27681">
        <ele>1058</ele>
        <time>2013-08-18T08:13:07.050Z</time>
      </trkpt>
      <trkpt lat="43.97396" lon="7.27686">
        <ele>1058</ele>
        <time>2013-08-18T08:13:11.030Z</time>
      </trkpt>
      <trkpt lat="43.97389" lon="7.27689">
        <ele>1058</ele>
        <time>2013-08-18T08:13:14.100Z</time>
      </trkpt>
      <trkpt lat="43.97384" lon="7.27688">
        <ele>1058</ele>
        <time>2013-08-18T08:13:16.930Z</time>
      </trkpt>
      <trkpt lat="43.97358" lon="7.27672">
        <ele>1058</ele>
        <time>2013-08-18T08:13:27.050Z</time>
      </trkpt>
      <trkpt lat="43.97351" lon="7.2767">
        <ele>1059</ele>
        <time>2013-08-18T08:13:29.050Z</time>
      </trkpt>
      <trkpt lat="43.97334" lon="7.27672">
        <ele>1059</ele>
        <time>2013-08-18T08:13:34.030Z</time>
      </trkpt>
      <trkpt lat="43.97329" lon="7.2767">
        <ele>1059</ele>
        <time>2013-08-18T08:13:36.050Z</time>
      </trkpt>
      <trkpt lat="43.97315" lon="7.27658">
        <ele>1059</ele>
        <time>2013-08-18T08:13:41.050Z</time>
      </trkpt>
      <trkpt lat="43.97306" lon="7.27641">
        <ele>1059</ele>
        <time>2013-08-18T08:13:47.050Z</time>
      </trkpt>
      <trkpt lat="43.97303" lon="7.27638">
        <ele>1061</ele>
        <time>2013-08-18T08:13:49.060Z</time>
      </trkpt>
      <trkpt lat="43.97288" lon="7.27625">
        <ele>1061</ele>
        <time>2013-08-18T08:13:57.030Z</time>
      </trkpt>
      <trkpt lat="43.97285" lon="7.27622">
        <ele>1066</ele>
        <time>2013-08-18T08:13:59.050Z</time>
      </trkpt>
      <trkpt lat="43.97282" lon="7.27622">
        <ele>1066</ele>
        <time>2013-08-18T08:14:00.950Z</time>
      </trkpt>
      <trkpt lat="43.97268" lon="7.27626">
        <ele>1068</ele>
        <time>2013-08-18T08:14:08.950Z</time>
      </trkpt>
      <trkpt lat="43.97257" lon="7.27626">
        <ele>1068</ele>
        <time>2013-08-18T08:14:13.860Z</time>
      </trkpt>
      <trkpt lat="43.97249" lon="7.27631">
        <ele>1068</ele>
        <time>2013-08-18T08:14:17.960Z</time>
      </trkpt>
      <trkpt lat="43.9723" lon="7.27631">
        <ele>1068</ele>
        <time>2013-08-18T08:14:24.050Z</time>
      </trkpt>
      <trkpt lat="43.97218" lon="7.27639">
        <ele>1068</ele>
        <time>2013-08-18T08:14:29.050Z</time>
      </trkpt>
      <trkpt lat="43.97206" lon="7.27643">
        <ele>1068</ele>
        <time>2013-08-18T08:14:32.950Z</time>
      </trkpt>
      <trkpt lat="43.97196" lon="7.27639">
        <ele>1068</ele>
        <time>2013-08-18T08:14:36.090Z</time>
      </trkpt>
      <trkpt lat="43.9719" lon="7.27635">
        <ele>1067.419998976</ele>
        <time>2013-08-18T08:14:38.030Z</time>
      </trkpt>
      <trkpt lat="43.97182" lon="7.27635">
        <ele>1066</ele>
        <time>2013-08-18T08:14:41.050Z</time>
      </trkpt>
      <trkpt lat="43.97176" lon="7.27632">
        <ele>1066</ele>
        <time>2013-08-18T08:14:42.950Z</time>
      </trkpt>
      <trkpt lat="43.97169" lon="7.27626">
        <ele>1066</ele>
        <time>2013-08-18T08:14:44.950Z</time>
      </trkpt>
      <trkpt lat="43.97166" lon="7.27619">
        <ele>1066</ele>
        <time>2013-08-18T08:14:46.950Z</time>
      </trkpt>
      <trkpt lat="43.97163" lon="7.27608">
        <ele>1065</ele>
        <time>2013-08-18T08:14:48.930Z</time>
      </trkpt>
      <trkpt lat="43.97156" lon="7.27587">
        <ele>1065</ele>
        <time>2013-08-18T08:14:53.950Z</time>
      </trkpt>
      <trkpt lat="43.9715" lon="7.2758">
        <ele>1065</ele>
        <time>2013-08-18T08:14:56.950Z</time>
      </trkpt>
      <trkpt lat="43.97135" lon="7.27577">
        <ele>1065</ele>
        <time>2013-08-18T08:15:02.950Z</time>
      </trkpt>
      <trkpt lat="43.97127" lon="7.27577">
        <ele>1065</ele>
        <time>2013-08-18T08:15:06.050Z</time>
      </trkpt>
      <trkpt lat="43.9712" lon="7.2758">
        <ele>1067</ele>
        <time>2013-08-18T08:15:08.950Z</time>
      </trkpt>
      <trkpt lat="43.97114" lon="7.27583">
        <ele>1067</ele>
        <time>2013-08-18T08:15:11.950Z</time>
      </trkpt>
      <trkpt lat="43.97112" lon="7.27588">
        <ele>1067</ele>
        <time>2013-08-18T08:15:13.950Z</time>
      </trkpt>
      <trkpt lat="43.9711" lon="7.276">
        <ele>1067</ele>
        <time>2013-08-18T08:15:16.930Z</time>
      </trkpt>
      <trkpt lat="43.97107" lon="7.27608">
        <ele>1069</ele>
        <time>2013-08-18T08:15:19.050Z</time>
      </trkpt>
      <trkpt lat="43.97105" lon="7.27625">
        <ele>1069</ele>
        <time>2013-08-18T08:15:23Z</time>
      </trkpt>
      <trkpt lat="43.97097" lon="7.27648">
        <ele>1068</ele>
        <time>2013-08-18T08:15:28.950Z</time>
      </trkpt>
      <trkpt lat="43.97088" lon="7.27659">
        <ele>1068</ele>
        <time>2013-08-18T08:15:36.050Z</time>
      </trkpt>
      <trkpt lat="43.97082" lon="7.27663">
        <ele>1069</ele>
        <time>2013-08-18T08:15:39.090Z</time>
      </trkpt>
      <trkpt lat="43.97076" lon="7.27682">
        <ele>1069</ele>
        <time>2013-08-18T08:15:45.060Z</time>
      </trkpt>
      <trkpt lat="43.97073" lon="7.27685">
        <ele>1069</ele>
        <time>2013-08-18T08:15:46.100Z</time>
      </trkpt>
      <trkpt lat="43.97066" lon="7.27685">
        <ele>1068.6900056321</ele>
        <time>2013-08-18T08:15:48.050Z</time>
      </trkpt>
      <trkpt lat="43.97059" lon="7.2768">
        <ele>1068</ele>
        <time>2013-08-18T08:15:50.930Z</time>
      </trkpt>
      <trkpt lat="43.9705" lon="7.27666">
        <ele>1068</ele>
        <time>2013-08-18T08:15:55.930Z</time>
      </trkpt>
      <trkpt lat="43.97049" lon="7.27658">
        <ele>1067.370001536</ele>
        <time>2013-08-18T08:15:57.950Z</time>
      </trkpt>
      <trkpt lat="43.97048" lon="7.27654">
        <ele>1065</ele>
        <time>2013-08-18T08:15:59.050Z</time>
      </trkpt>
      <trkpt lat="43.97048" lon="7.27647">
        <ele>1065</ele>
        <time>2013-08-18T08:16:00.950Z</time>
      </trkpt>
      <trkpt lat="43.97049" lon="7.27641">
        <ele>1064.3699792643</ele>
        <time>2013-08-18T08:16:02.950Z</time>
      </trkpt>
      <trkpt lat="43.9705" lon="7.27638">
        <ele>1062</ele>
        <time>2013-08-18T08:16:03.950Z</time>
      </trkpt>
      <trkpt lat="43.97048" lon="7.27618">
        <ele>1061.160002048</ele>
        <time>2013-08-18T08:16:07.950Z</time>
      </trkpt>
      <trkpt lat="43.97047" lon="7.27614">
        <ele>1057.380001536</ele>
        <time>2013-08-18T08:16:09.050Z</time>
      </trkpt>
      <trkpt lat="43.97046" lon="7.2761">
        <ele>1055.6900056321</ele>
        <time>2013-08-18T08:16:10.050Z</time>
      </trkpt>
      <trkpt lat="43.97037" lon="7.27587">
        <ele>1048.7899930881</ele>
        <time>2013-08-18T08:16:14.950Z</time>
      </trkpt>
      <trkpt lat="43.97028" lon="7.27581">
        <ele>1047.3800112641</ele>
        <time>2013-08-18T08:16:18.050Z</time>
      </trkpt>
      <trkpt lat="43.97024" lon="7.27578">
        <ele>1044.6500051201</ele>
        <time>2013-08-18T08:16:20.090Z</time>
      </trkpt>
      <trkpt lat="43.97014" lon="7.27577">
        <ele>1042.380001536</ele>
        <time>2013-08-18T08:16:23.050Z</time>
      </trkpt>
      <trkpt lat="43.97009" lon="7.27573">
        <ele>1040</ele>
        <time>2013-08-18T08:16:25.050Z</time>
      </trkpt>
      <trkpt lat="43.96998" lon="7.27574">
        <ele>1037</ele>
        <time>2013-08-18T08:16:28.950Z</time>
      </trkpt>
      <trkpt lat="43.96993" lon="7.27578">
        <ele>1037.740003072</ele>
        <time>2013-08-18T08:16:32Z</time>
      </trkpt>
      <trkpt lat="43.96986" lon="7.27576">
        <ele>1034.7899930881</ele>
        <time>2013-08-18T08:16:34.950Z</time>
      </trkpt>
      <trkpt lat="43.96978" lon="7.27571">
        <ele>1031.790000512</ele>
        <time>2013-08-18T08:16:37.950Z</time>
      </trkpt>
      <trkpt lat="43.96963" lon="7.27568">
        <ele>1028</ele>
        <time>2013-08-18T08:16:44Z</time>
      </trkpt>
      <trkpt lat="43.96953" lon="7.27577">
        <ele>1029</ele>
        <time>2013-08-18T08:16:52.050Z</time>
      </trkpt>
      <trkpt lat="43.96935" lon="7.27608">
        <ele>1028</ele>
        <time>2013-08-18T08:17:03.050Z</time>
      </trkpt>
      <trkpt lat="43.96926" lon="7.27608">
        <ele>1028</ele>
        <time>2013-08-18T08:17:07.100Z</time>
      </trkpt>
      <trkpt lat="43.96924" lon="7.27609">
        <ele>1027.3800112641</ele>
        <time>2013-08-18T08:17:08.050Z</time>
      </trkpt>
      <trkpt lat="43.96919" lon="7.27612">
        <ele>1026</ele>
        <time>2013-08-18T08:17:10.050Z</time>
      </trkpt>
      <trkpt lat="43.96915" lon="7.27619">
        <ele>1026</ele>
        <time>2013-08-18T08:17:15.050Z</time>
      </trkpt>
      <trkpt lat="43.96913" lon="7.27618">
        <ele>1026</ele>
        <time>2013-08-18T08:17:17.040Z</time>
      </trkpt>
      <trkpt lat="43.9691" lon="7.2762">
        <ele>1023</ele>
        <time>2013-08-18T08:17:19.100Z</time>
      </trkpt>
      <trkpt lat="43.96904" lon="7.27627">
        <ele>1023</ele>
        <time>2013-08-18T08:17:22.050Z</time>
      </trkpt>
      <trkpt lat="43.96897" lon="7.2763">
        <ele>1020</ele>
        <time>2013-08-18T08:17:24.930Z</time>
      </trkpt>
      <trkpt lat="43.96892" lon="7.27636">
        <ele>1019.0700168962</ele>
        <time>2013-08-18T08:17:28.050Z</time>
      </trkpt>
      <trkpt lat="43.96889" lon="7.27642">
        <ele>1014.6900056321</ele>
        <time>2013-08-18T08:17:30.050Z</time>
      </trkpt>
      <trkpt lat="43.96887" lon="7.2765">
        <ele>1014</ele>
        <time>2013-08-18T08:17:32.050Z</time>
      </trkpt>
      <trkpt lat="43.96888" lon="7.27671">
        <ele>1011</ele>
        <time>2013-08-18T08:17:37.940Z</time>
      </trkpt>
      <trkpt lat="43.96886" lon="7.27694">
        <ele>1011</ele>
        <time>2013-08-18T08:17:43.100Z</time>
      </trkpt>
      <trkpt lat="43.96886" lon="7.27716">
        <ele>1008</ele>
        <time>2013-08-18T08:17:46.950Z</time>
      </trkpt>
      <trkpt lat="43.96885" lon="7.27722">
        <ele>1007.790000512</ele>
        <time>2013-08-18T08:17:47.950Z</time>
      </trkpt>
      <trkpt lat="43.96886" lon="7.27739">
        <ele>1007</ele>
        <time>2013-08-18T08:17:51.030Z</time>
      </trkpt>
      <trkpt lat="43.96884" lon="7.27743">
        <ele>1007</ele>
        <time>2013-08-18T08:17:52.050Z</time>
      </trkpt>
      <trkpt lat="43.96883" lon="7.27754">
        <ele>1004</ele>
        <time>2013-08-18T08:17:54.960Z</time>
      </trkpt>
      <trkpt lat="43.96883" lon="7.27768">
        <ele>1003</ele>
        <time>2013-08-18T08:18:00.030Z</time>
      </trkpt>
      <trkpt lat="43.96885" lon="7.27776">
        <ele>1002.690000768</ele>
        <time>2013-08-18T08:18:03.050Z</time>
      </trkpt>
      <trkpt lat="43.96885" lon="7.27783">
        <ele>1002</ele>
        <time>2013-08-18T08:18:04.950Z</time>
      </trkpt>
      <trkpt lat="43.96874" lon="7.27805">
        <ele>1001</ele>
        <time>2013-08-18T08:18:11.050Z</time>
      </trkpt>
      <trkpt lat="43.96873" lon="7.27828">
        <ele>1001</ele>
        <time>2013-08-18T08:18:16.050Z</time>
      </trkpt>
      <trkpt lat="43.96874" lon="7.27845">
        <ele>998</ele>
        <time>2013-08-18T08:18:19.050Z</time>
      </trkpt>
      <trkpt lat="43.96878" lon="7.27866">
        <ele>998</ele>
        <time>2013-08-18T08:18:22.050Z</time>
      </trkpt>
      <trkpt lat="43.96879" lon="7.27882">
        <ele>995</ele>
        <time>2013-08-18T08:18:24.950Z</time>
      </trkpt>
      <trkpt lat="43.96881" lon="7.27905">
        <ele>994</ele>
        <time>2013-08-18T08:18:32Z</time>
      </trkpt>
      <trkpt lat="43.96879" lon="7.27909">
        <ele>993.69000076799</ele>
        <time>2013-08-18T08:18:33.050Z</time>
      </trkpt>
      <trkpt lat="43.96874" lon="7.27914">
        <ele>993</ele>
        <time>2013-08-18T08:18:36.110Z</time>
      </trkpt>
      <trkpt lat="43.96866" lon="7.27913">
        <ele>990</ele>
        <time>2013-08-18T08:18:40.070Z</time>
      </trkpt>
      <trkpt lat="43.96865" lon="7.27915">
        <ele>990</ele>
        <time>2013-08-18T08:18:41.050Z</time>
      </trkpt>
      <trkpt lat="43.96864" lon="7.27922">
        <ele>989</ele>
        <time>2013-08-18T08:18:44.050Z</time>
      </trkpt>
      <trkpt lat="43.96865" lon="7.27927">
        <ele>989</ele>
        <time>2013-08-18T08:18:46.040Z</time>
      </trkpt>
      <trkpt lat="43.96864" lon="7.2795">
        <ele>988</ele>
        <time>2013-08-18T08:18:51.950Z</time>
      </trkpt>
      <trkpt lat="43.96861" lon="7.27959">
        <ele>988</ele>
        <time>2013-08-18T08:18:53.950Z</time>
      </trkpt>
      <trkpt lat="43.96854" lon="7.27966">
        <ele>988</ele>
        <time>2013-08-18T08:18:57.050Z</time>
      </trkpt>
      <trkpt lat="43.9685" lon="7.27964">
        <ele>985</ele>
        <time>2013-08-18T08:18:58.950Z</time>
      </trkpt>
      <trkpt lat="43.96847" lon="7.27959">
        <ele>985</ele>
        <time>2013-08-18T08:19:00.950Z</time>
      </trkpt>
      <trkpt lat="43.96846" lon="7.27929">
        <ele>984</ele>
        <time>2013-08-18T08:19:07.950Z</time>
      </trkpt>
      <trkpt lat="43.96849" lon="7.27912">
        <ele>984</ele>
        <time>2013-08-18T08:19:12.050Z</time>
      </trkpt>
      <trkpt lat="43.96849" lon="7.27903">
        <ele>984</ele>
        <time>2013-08-18T08:19:14.050Z</time>
      </trkpt>
      <trkpt lat="43.96847" lon="7.2789">
        <ele>984</ele>
        <time>2013-08-18T08:19:17.040Z</time>
      </trkpt>
      <trkpt lat="43.96845" lon="7.27883">
        <ele>981</ele>
        <time>2013-08-18T08:19:19.050Z</time>
      </trkpt>
      <trkpt lat="43.96838" lon="7.27873">
        <ele>980.57998617618</ele>
        <time>2013-08-18T08:19:22.950Z</time>
      </trkpt>
      <trkpt lat="43.96835" lon="7.27871">
        <ele>979</ele>
        <time>2013-08-18T08:19:24.050Z</time>
      </trkpt>
      <trkpt lat="43.96825" lon="7.27865">
        <ele>979</ele>
        <time>2013-08-18T08:19:27.120Z</time>
      </trkpt>
      <trkpt lat="43.9682" lon="7.27861">
        <ele>978</ele>
        <time>2013-08-18T08:19:29.050Z</time>
      </trkpt>
      <trkpt lat="43.96816" lon="7.27854">
        <ele>978</ele>
        <time>2013-08-18T08:19:31.110Z</time>
      </trkpt>
      <trkpt lat="43.96811" lon="7.27837">
        <ele>976</ele>
        <time>2013-08-18T08:19:35.050Z</time>
      </trkpt>
      <trkpt lat="43.96808" lon="7.2783">
        <ele>976</ele>
        <time>2013-08-18T08:19:37.030Z</time>
      </trkpt>
      <trkpt lat="43.9679" lon="7.2782">
        <ele>975</ele>
        <time>2013-08-18T08:19:43.050Z</time>
      </trkpt>
      <trkpt lat="43.96778" lon="7.27806">
        <ele>974.58000102401</ele>
        <time>2013-08-18T08:19:47.950Z</time>
      </trkpt>
      <trkpt lat="43.96774" lon="7.27796">
        <ele>973</ele>
        <time>2013-08-18T08:19:49.950Z</time>
      </trkpt>
      <trkpt lat="43.96768" lon="7.27758">
        <ele>973</ele>
        <time>2013-08-18T08:19:57.100Z</time>
      </trkpt>
      <trkpt lat="43.96767" lon="7.27748">
        <ele>969</ele>
        <time>2013-08-18T08:19:59.050Z</time>
      </trkpt>
      <trkpt lat="43.96767" lon="7.27743">
        <ele>969</ele>
        <time>2013-08-18T08:20:00.080Z</time>
      </trkpt>
      <trkpt lat="43.96775" lon="7.27704">
        <ele>966</ele>
        <time>2013-08-18T08:20:09.100Z</time>
      </trkpt>
      <trkpt lat="43.96775" lon="7.27686">
        <ele>966</ele>
        <time>2013-08-18T08:20:13.050Z</time>
      </trkpt>
      <trkpt lat="43.96772" lon="7.27671">
        <ele>966</ele>
        <time>2013-08-18T08:20:15.950Z</time>
      </trkpt>
      <trkpt lat="43.96768" lon="7.27662">
        <ele>965.37000153602</ele>
        <time>2013-08-18T08:20:17.950Z</time>
      </trkpt>
      <trkpt lat="43.96767" lon="7.27657">
        <ele>963</ele>
        <time>2013-08-18T08:20:18.950Z</time>
      </trkpt>
      <trkpt lat="43.96759" lon="7.27641">
        <ele>963</ele>
        <time>2013-08-18T08:20:22.050Z</time>
      </trkpt>
      <trkpt lat="43.96755" lon="7.27631">
        <ele>960</ele>
        <time>2013-08-18T08:20:23.950Z</time>
      </trkpt>
      <trkpt lat="43.96749" lon="7.27616">
        <ele>960</ele>
        <time>2013-08-18T08:20:26.950Z</time>
      </trkpt>
      <trkpt lat="43.96748" lon="7.276">
        <ele>959</ele>
        <time>2013-08-18T08:20:30.050Z</time>
      </trkpt>
      <trkpt lat="43.9674" lon="7.27564">
        <ele>958</ele>
        <time>2013-08-18T08:20:37.050Z</time>
      </trkpt>
      <trkpt lat="43.96739" lon="7.27553">
        <ele>957</ele>
        <time>2013-08-18T08:20:39.050Z</time>
      </trkpt>
      <trkpt lat="43.96742" lon="7.27509">
        <ele>957</ele>
        <time>2013-08-18T08:20:47.050Z</time>
      </trkpt>
      <trkpt lat="43.96745" lon="7.275">
        <ele>954</ele>
        <time>2013-08-18T08:20:49.050Z</time>
      </trkpt>
      <trkpt lat="43.96748" lon="7.27484">
        <ele>954</ele>
        <time>2013-08-18T08:20:52.050Z</time>
      </trkpt>
      <trkpt lat="43.96751" lon="7.27469">
        <ele>951</ele>
        <time>2013-08-18T08:20:54.950Z</time>
      </trkpt>
      <trkpt lat="43.96752" lon="7.27459">
        <ele>951</ele>
        <time>2013-08-18T08:20:56.950Z</time>
      </trkpt>
      <trkpt lat="43.96752" lon="7.27443">
        <ele>949</ele>
        <time>2013-08-18T08:20:59.930Z</time>
      </trkpt>
      <trkpt lat="43.96747" lon="7.27407">
        <ele>947.58000102401</ele>
        <time>2013-08-18T08:21:07.950Z</time>
      </trkpt>
      <trkpt lat="43.96747" lon="7.27402">
        <ele>946</ele>
        <time>2013-08-18T08:21:08.950Z</time>
      </trkpt>
      <trkpt lat="43.96748" lon="7.27391">
        <ele>946</ele>
        <time>2013-08-18T08:21:10.950Z</time>
      </trkpt>
      <trkpt lat="43.96751" lon="7.27381">
        <ele>945.57998617618</ele>
        <time>2013-08-18T08:21:12.950Z</time>
      </trkpt>
      <trkpt lat="43.96753" lon="7.27376">
        <ele>944</ele>
        <time>2013-08-18T08:21:13.950Z</time>
      </trkpt>
      <trkpt lat="43.96759" lon="7.27364">
        <ele>944</ele>
        <time>2013-08-18T08:21:16.940Z</time>
      </trkpt>
      <trkpt lat="43.96764" lon="7.2735">
        <ele>942</ele>
        <time>2013-08-18T08:21:20.110Z</time>
      </trkpt>
      <trkpt lat="43.96767" lon="7.27336">
        <ele>941.38000153598</ele>
        <time>2013-08-18T08:21:23.050Z</time>
      </trkpt>
      <trkpt lat="43.96767" lon="7.27332">
        <ele>940</ele>
        <time>2013-08-18T08:21:24.120Z</time>
      </trkpt>
      <trkpt lat="43.96768" lon="7.27312">
        <ele>939.62999846398</ele>
        <time>2013-08-18T08:21:28.110Z</time>
      </trkpt>
      <trkpt lat="43.96775" lon="7.27292">
        <ele>939</ele>
        <time>2013-08-18T08:21:32.050Z</time>
      </trkpt>
      <trkpt lat="43.96779" lon="7.27283">
        <ele>937</ele>
        <time>2013-08-18T08:21:34Z</time>
      </trkpt>
      <trkpt lat="43.96791" lon="7.2724">
        <ele>936</ele>
        <time>2013-08-18T08:21:42.050Z</time>
      </trkpt>
      <trkpt lat="43.96795" lon="7.27231">
        <ele>933</ele>
        <time>2013-08-18T08:21:44.050Z</time>
      </trkpt>
      <trkpt lat="43.968" lon="7.27218">
        <ele>933</ele>
        <time>2013-08-18T08:21:47.100Z</time>
      </trkpt>
      <trkpt lat="43.968" lon="7.27208">
        <ele>931</ele>
        <time>2013-08-18T08:21:49.060Z</time>
      </trkpt>
      <trkpt lat="43.96801" lon="7.27189">
        <ele>931</ele>
        <time>2013-08-18T08:21:52.050Z</time>
      </trkpt>
      <trkpt lat="43.96811" lon="7.2717">
        <ele>930</ele>
        <time>2013-08-18T08:21:56.050Z</time>
      </trkpt>
      <trkpt lat="43.96814" lon="7.27158">
        <ele>929.79000051201</ele>
        <time>2013-08-18T08:21:57.950Z</time>
      </trkpt>
      <trkpt lat="43.96814" lon="7.27152">
        <ele>929</ele>
        <time>2013-08-18T08:21:59Z</time>
      </trkpt>
      <trkpt lat="43.96812" lon="7.27142">
        <ele>929</ele>
        <time>2013-08-18T08:22:00.930Z</time>
      </trkpt>
      <trkpt lat="43.96806" lon="7.27134">
        <ele>929</ele>
        <time>2013-08-18T08:22:04.050Z</time>
      </trkpt>
      <trkpt lat="43.96799" lon="7.27142">
        <ele>927</ele>
        <time>2013-08-18T08:22:11.050Z</time>
      </trkpt>
      <trkpt lat="43.96788" lon="7.27149">
        <ele>927</ele>
        <time>2013-08-18T08:22:16.050Z</time>
      </trkpt>
      <trkpt lat="43.96781" lon="7.27151">
        <ele>925.45002816036</ele>
        <time>2013-08-18T08:22:18.050Z</time>
      </trkpt>
      <trkpt lat="43.96779" lon="7.27152">
        <ele>922</ele>
        <time>2013-08-18T08:22:19.050Z</time>
      </trkpt>
      <trkpt lat="43.96771" lon="7.27154">
        <ele>921.15997235235</ele>
        <time>2013-08-18T08:22:22.950Z</time>
      </trkpt>
      <trkpt lat="43.96768" lon="7.27155">
        <ele>918</ele>
        <time>2013-08-18T08:22:24Z</time>
      </trkpt>
      <trkpt lat="43.96758" lon="7.27157">
        <ele>918</ele>
        <time>2013-08-18T08:22:26.960Z</time>
      </trkpt>
      <trkpt lat="43.96751" lon="7.2716">
        <ele>914</ele>
        <time>2013-08-18T08:22:29.050Z</time>
      </trkpt>
      <trkpt lat="43.96741" lon="7.27165">
        <ele>913</ele>
        <time>2013-08-18T08:22:32.050Z</time>
      </trkpt>
      <trkpt lat="43.96733" lon="7.27166">
        <ele>911</ele>
        <time>2013-08-18T08:22:34.950Z</time>
      </trkpt>
      <trkpt lat="43.96727" lon="7.27172">
        <ele>910.78999308809</ele>
        <time>2013-08-18T08:22:36.950Z</time>
      </trkpt>
      <trkpt lat="43.96713" lon="7.27178">
        <ele>910</ele>
        <time>2013-08-18T08:22:42.050Z</time>
      </trkpt>
      <trkpt lat="43.96712" lon="7.27182">
        <ele>907</ele>
        <time>2013-08-18T08:22:44.030Z</time>
      </trkpt>
      <trkpt lat="43.9671" lon="7.27199">
        <ele>906</ele>
        <time>2013-08-18T08:22:50.050Z</time>
      </trkpt>
      <trkpt lat="43.96706" lon="7.27212">
        <ele>905</ele>
        <time>2013-08-18T08:22:54.050Z</time>
      </trkpt>
      <trkpt lat="43.96688" lon="7.27234">
        <ele>903</ele>
        <time>2013-08-18T08:23:02.050Z</time>
      </trkpt>
      <trkpt lat="43.96684" lon="7.2724">
        <ele>901</ele>
        <time>2013-08-18T08:23:04.100Z</time>
      </trkpt>
      <trkpt lat="43.96664" lon="7.27269">
        <ele>899.63999180811</ele>
        <time>2013-08-18T08:23:13.100Z</time>
      </trkpt>
      <trkpt lat="43.96658" lon="7.27287">
        <ele>898.78787996328</ele>
        <time>2013-08-18T08:23:17.960Z</time>
      </trkpt>
      <trkpt lat="43.96655" lon="7.27301">
        <ele>898</ele>
        <time>2013-08-18T08:23:21.050Z</time>
      </trkpt>
      <trkpt lat="43.96654" lon="7.27318">
        <ele>898</ele>
        <time>2013-08-18T08:23:24.050Z</time>
      </trkpt>
      <trkpt lat="43.96648" lon="7.2734">
        <ele>897.16000204803</ele>
        <time>2013-08-18T08:23:27.950Z</time>
      </trkpt>
      <trkpt lat="43.96645" lon="7.27345">
        <ele>894</ele>
        <time>2013-08-18T08:23:28.950Z</time>
      </trkpt>
      <trkpt lat="43.96637" lon="7.27357">
        <ele>894</ele>
        <time>2013-08-18T08:23:32.050Z</time>
      </trkpt>
      <trkpt lat="43.9663" lon="7.27364">
        <ele>892</ele>
        <time>2013-08-18T08:23:34.030Z</time>
      </trkpt>
      <trkpt lat="43.9662" lon="7.27374">
        <ele>892</ele>
        <time>2013-08-18T08:23:37.080Z</time>
      </trkpt>
      <trkpt lat="43.96604" lon="7.27395">
        <ele>890</ele>
        <time>2013-08-18T08:23:42.110Z</time>
      </trkpt>
      <trkpt lat="43.966" lon="7.27406">
        <ele>888</ele>
        <time>2013-08-18T08:23:44.050Z</time>
      </trkpt>
      <trkpt lat="43.9659" lon="7.27424">
        <ele>887.38001126414</ele>
        <time>2013-08-18T08:23:48.050Z</time>
      </trkpt>
      <trkpt lat="43.96593" lon="7.27483">
        <ele>884.37000153602</ele>
        <time>2013-08-18T08:23:57.950Z</time>
      </trkpt>
      <trkpt lat="43.96593" lon="7.27489">
        <ele>882</ele>
        <time>2013-08-18T08:23:58.950Z</time>
      </trkpt>
      <trkpt lat="43.96593" lon="7.27499">
        <ele>882</ele>
        <time>2013-08-18T08:24:00.950Z</time>
      </trkpt>
      <trkpt lat="43.96596" lon="7.27529">
        <ele>880.69000563207</ele>
        <time>2013-08-18T08:24:08.050Z</time>
      </trkpt>
      <trkpt lat="43.96595" lon="7.2754">
        <ele>880</ele>
        <time>2013-08-18T08:24:10.050Z</time>
      </trkpt>
      <trkpt lat="43.96584" lon="7.27576">
        <ele>880</ele>
        <time>2013-08-18T08:24:16.960Z</time>
      </trkpt>
      <trkpt lat="43.96579" lon="7.27587">
        <ele>877</ele>
        <time>2013-08-18T08:24:20.050Z</time>
      </trkpt>
      <trkpt lat="43.9658" lon="7.27596">
        <ele>877</ele>
        <time>2013-08-18T08:24:22.050Z</time>
      </trkpt>
      <trkpt lat="43.96576" lon="7.27629">
        <ele>873</ele>
        <time>2013-08-18T08:24:29.050Z</time>
      </trkpt>
      <trkpt lat="43.96578" lon="7.27646">
        <ele>872.69000076799</ele>
        <time>2013-08-18T08:24:33.050Z</time>
      </trkpt>
      <trkpt lat="43.96576" lon="7.27658">
        <ele>872</ele>
        <time>2013-08-18T08:24:36.050Z</time>
      </trkpt>
      <trkpt lat="43.96573" lon="7.27662">
        <ele>871.69000563207</ele>
        <time>2013-08-18T08:24:38.050Z</time>
      </trkpt>
      <trkpt lat="43.9657" lon="7.27693">
        <ele>871</ele>
        <time>2013-08-18T08:24:47.050Z</time>
      </trkpt>
      <trkpt lat="43.96567" lon="7.27705">
        <ele>870</ele>
        <time>2013-08-18T08:24:50.030Z</time>
      </trkpt>
      <trkpt lat="43.96568" lon="7.27725">
        <ele>870</ele>
        <time>2013-08-18T08:24:57.050Z</time>
      </trkpt>
      <trkpt lat="43.96566" lon="7.27736">
        <ele>871</ele>
        <time>2013-08-18T08:25:01.050Z</time>
      </trkpt>
      <trkpt lat="43.96556" lon="7.27766">
        <ele>872</ele>
        <time>2013-08-18T08:25:08.950Z</time>
      </trkpt>
      <trkpt lat="43.96553" lon="7.27779">
        <ele>872</ele>
        <time>2013-08-18T08:25:11.950Z</time>
      </trkpt>
      <trkpt lat="43.96549" lon="7.27789">
        <ele>872</ele>
        <time>2013-08-18T08:25:15Z</time>
      </trkpt>
      <trkpt lat="43.96548" lon="7.27806">
        <ele>870</ele>
        <time>2013-08-18T08:25:19.950Z</time>
      </trkpt>
      <trkpt lat="43.96544" lon="7.27809">
        <ele>870</ele>
        <time>2013-08-18T08:25:22.050Z</time>
      </trkpt>
      <trkpt lat="43.9654" lon="7.27814">
        <ele>870</ele>
        <time>2013-08-18T08:25:24.110Z</time>
      </trkpt>
      <trkpt lat="43.96532" lon="7.27822">
        <ele>870</ele>
        <time>2013-08-18T08:25:27.100Z</time>
      </trkpt>
      <trkpt lat="43.96516" lon="7.27825">
        <ele>868</ele>
        <time>2013-08-18T08:25:32.100Z</time>
      </trkpt>
      <trkpt lat="43.96509" lon="7.2783">
        <ele>868</ele>
        <time>2013-08-18T08:25:34.010Z</time>
      </trkpt>
      <trkpt lat="43.96505" lon="7.27839">
        <ele>868</ele>
        <time>2013-08-18T08:25:37.050Z</time>
      </trkpt>
      <trkpt lat="43.96503" lon="7.27846">
        <ele>864</ele>
        <time>2013-08-18T08:25:39.160Z</time>
      </trkpt>
      <trkpt lat="43.965" lon="7.27853">
        <ele>864</ele>
        <time>2013-08-18T08:25:42.050Z</time>
      </trkpt>
      <trkpt lat="43.96492" lon="7.27861">
        <ele>860</ele>
        <time>2013-08-18T08:25:45.050Z</time>
      </trkpt>
      <trkpt lat="43.96483" lon="7.27865">
        <ele>859.38001126414</ele>
        <time>2013-08-18T08:25:48.050Z</time>
      </trkpt>
      <trkpt lat="43.96468" lon="7.2788">
        <ele>855.69000076799</ele>
        <time>2013-08-18T08:25:53.050Z</time>
      </trkpt>
      <trkpt lat="43.96452" lon="7.27892">
        <ele>854</ele>
        <time>2013-08-18T08:26:00.090Z</time>
      </trkpt>
      <trkpt lat="43.96449" lon="7.27897">
        <ele>854</ele>
        <time>2013-08-18T08:26:02.050Z</time>
      </trkpt>
      <trkpt lat="43.96447" lon="7.27916">
        <ele>854</ele>
        <time>2013-08-18T08:26:06.050Z</time>
      </trkpt>
      <trkpt lat="43.96445" lon="7.27925">
        <ele>853.78000358405</ele>
        <time>2013-08-18T08:26:07.960Z</time>
      </trkpt>
      <trkpt lat="43.96433" lon="7.27964">
        <ele>853</ele>
        <time>2013-08-18T08:26:17.040Z</time>
      </trkpt>
      <trkpt lat="43.96432" lon="7.27972">
        <ele>849</ele>
        <time>2013-08-18T08:26:19.060Z</time>
      </trkpt>
      <trkpt lat="43.96428" lon="7.27995">
        <ele>848</ele>
        <time>2013-08-18T08:26:25.030Z</time>
      </trkpt>
      <trkpt lat="43.96425" lon="7.28002">
        <ele>848</ele>
        <time>2013-08-18T08:26:27.170Z</time>
      </trkpt>
      <trkpt lat="43.96421" lon="7.28008">
        <ele>845</ele>
        <time>2013-08-18T08:26:29.030Z</time>
      </trkpt>
      <trkpt lat="43.96417" lon="7.28012">
        <ele>845</ele>
        <time>2013-08-18T08:26:31.050Z</time>
      </trkpt>
      <trkpt lat="43.96417" lon="7.28015">
        <ele>843.76000307196</ele>
        <time>2013-08-18T08:26:33.050Z</time>
      </trkpt>
      <trkpt lat="43.96416" lon="7.28017">
        <ele>841</ele>
        <time>2013-08-18T08:26:34.090Z</time>
      </trkpt>
      <trkpt lat="43.96406" lon="7.28018">
        <ele>840</ele>
        <time>2013-08-18T08:26:40.050Z</time>
      </trkpt>
      <trkpt lat="43.964" lon="7.28015">
        <ele>840</ele>
        <time>2013-08-18T08:26:42.030Z</time>
      </trkpt>
      <trkpt lat="43.96394" lon="7.28011">
        <ele>838</ele>
        <time>2013-08-18T08:26:44.050Z</time>
      </trkpt>
      <trkpt lat="43.9639" lon="7.28011">
        <ele>838</ele>
        <time>2013-08-18T08:26:45.950Z</time>
      </trkpt>
      <trkpt lat="43.96386" lon="7.28024">
        <ele>836</ele>
        <time>2013-08-18T08:26:48.950Z</time>
      </trkpt>
      <trkpt lat="43.9638" lon="7.2804">
        <ele>835.62999513606</ele>
        <time>2013-08-18T08:26:53.110Z</time>
      </trkpt>
      <trkpt lat="43.96367" lon="7.28064">
        <ele>834</ele>
        <time>2013-08-18T08:26:59.030Z</time>
      </trkpt>
      <trkpt lat="43.96363" lon="7.28082">
        <ele>834</ele>
        <time>2013-08-18T08:27:03.100Z</time>
      </trkpt>
      <trkpt lat="43.96362" lon="7.2811">
        <ele>833</ele>
        <time>2013-08-18T08:27:10.050Z</time>
      </trkpt>
      <trkpt lat="43.96376" lon="7.28143">
        <ele>832.69000563207</ele>
        <time>2013-08-18T08:27:18.050Z</time>
      </trkpt>
      <trkpt lat="43.96386" lon="7.28175">
        <ele>832</ele>
        <time>2013-08-18T08:27:26.060Z</time>
      </trkpt>
      <trkpt lat="43.96388" lon="7.28201">
        <ele>832</ele>
        <time>2013-08-18T08:27:32.050Z</time>
      </trkpt>
      <trkpt lat="43.96384" lon="7.28214">
        <ele>832</ele>
        <time>2013-08-18T08:27:35.110Z</time>
      </trkpt>
      <trkpt lat="43.96375" lon="7.28227">
        <ele>831</ele>
        <time>2013-08-18T08:27:39.050Z</time>
      </trkpt>
      <trkpt lat="43.96362" lon="7.28239">
        <ele>831</ele>
        <time>2013-08-18T08:27:42.950Z</time>
      </trkpt>
      <trkpt lat="43.96353" lon="7.28252">
        <ele>831</ele>
        <time>2013-08-18T08:27:46.950Z</time>
      </trkpt>
      <trkpt lat="43.96334" lon="7.2828">
        <ele>831</ele>
        <time>2013-08-18T08:27:54.950Z</time>
      </trkpt>
      <trkpt lat="43.9633" lon="7.28289">
        <ele>831</ele>
        <time>2013-08-18T08:27:56.950Z</time>
      </trkpt>
      <trkpt lat="43.96325" lon="7.28297">
        <ele>829</ele>
        <time>2013-08-18T08:27:58.950Z</time>
      </trkpt>
      <trkpt lat="43.96319" lon="7.28305">
        <ele>829</ele>
        <time>2013-08-18T08:28:01.050Z</time>
      </trkpt>
      <trkpt lat="43.96298" lon="7.28323">
        <ele>829</ele>
        <time>2013-08-18T08:28:07.030Z</time>
      </trkpt>
      <trkpt lat="43.96293" lon="7.28326">
        <ele>827.76002252829</ele>
        <time>2013-08-18T08:28:08.050Z</time>
      </trkpt>
      <trkpt lat="43.96289" lon="7.28328">
        <ele>825</ele>
        <time>2013-08-18T08:28:09.120Z</time>
      </trkpt>
      <trkpt lat="43.96278" lon="7.28328">
        <ele>825</ele>
        <time>2013-08-18T08:28:12.050Z</time>
      </trkpt>
      <trkpt lat="43.96271" lon="7.28323">
        <ele>822</ele>
        <time>2013-08-18T08:28:14.100Z</time>
      </trkpt>
      <trkpt lat="43.9626" lon="7.28314">
        <ele>822</ele>
        <time>2013-08-18T08:28:16.930Z</time>
      </trkpt>
      <trkpt lat="43.96253" lon="7.28311">
        <ele>820</ele>
        <time>2013-08-18T08:28:18.950Z</time>
      </trkpt>
      <trkpt lat="43.96231" lon="7.28312">
        <ele>819</ele>
        <time>2013-08-18T08:28:26Z</time>
      </trkpt>
      <trkpt lat="43.96222" lon="7.28308">
        <ele>818</ele>
        <time>2013-08-18T08:28:29.050Z</time>
      </trkpt>
      <trkpt lat="43.96215" lon="7.28308">
        <ele>818</ele>
        <time>2013-08-18T08:28:30.950Z</time>
      </trkpt>
      <trkpt lat="43.96209" lon="7.2831">
        <ele>818</ele>
        <time>2013-08-18T08:28:32.950Z</time>
      </trkpt>
      <trkpt lat="43.96194" lon="7.28309">
        <ele>818</ele>
        <time>2013-08-18T08:28:37.050Z</time>
      </trkpt>
      <trkpt lat="43.96188" lon="7.2831">
        <ele>813</ele>
        <time>2013-08-18T08:28:39Z</time>
      </trkpt>
      <trkpt lat="43.96176" lon="7.28318">
        <ele>812.55999283209</ele>
        <time>2013-08-18T08:28:42.850Z</time>
      </trkpt>
      <trkpt lat="43.96172" lon="7.28318">
        <ele>809</ele>
        <time>2013-08-18T08:28:43.950Z</time>
      </trkpt>
      <trkpt lat="43.96169" lon="7.2832">
        <ele>809</ele>
        <time>2013-08-18T08:28:44.950Z</time>
      </trkpt>
      <trkpt lat="43.96163" lon="7.28327">
        <ele>809</ele>
        <time>2013-08-18T08:28:46.950Z</time>
      </trkpt>
      <trkpt lat="43.9616" lon="7.28332">
        <ele>808.37000153602</ele>
        <time>2013-08-18T08:28:47.950Z</time>
      </trkpt>
      <trkpt lat="43.96157" lon="7.28336">
        <ele>805.78999308809</ele>
        <time>2013-08-18T08:28:48.950Z</time>
      </trkpt>
      <trkpt lat="43.9615" lon="7.28341">
        <ele>805.87998873614</ele>
        <time>2013-08-18T08:28:50.860Z</time>
      </trkpt>
      <trkpt lat="43.96147" lon="7.28344">
        <ele>804.69000563207</ele>
        <time>2013-08-18T08:28:52.050Z</time>
      </trkpt>
      <trkpt lat="43.96145" lon="7.28359">
        <ele>803</ele>
        <time>2013-08-18T08:28:55.110Z</time>
      </trkpt>
      <trkpt lat="43.9614" lon="7.28371">
        <ele>802</ele>
        <time>2013-08-18T08:28:58.030Z</time>
      </trkpt>
      <trkpt lat="43.9614" lon="7.28378">
        <ele>802</ele>
        <time>2013-08-18T08:28:59.930Z</time>
      </trkpt>
      <trkpt lat="43.96148" lon="7.28402">
        <ele>800</ele>
        <time>2013-08-18T08:29:05.950Z</time>
      </trkpt>
      <trkpt lat="43.96148" lon="7.28422">
        <ele>799</ele>
        <time>2013-08-18T08:29:10.050Z</time>
      </trkpt>
      <trkpt lat="43.9615" lon="7.28437">
        <ele>798.07000230397</ele>
        <time>2013-08-18T08:29:13.050Z</time>
      </trkpt>
      <trkpt lat="43.96149" lon="7.28442">
        <ele>796</ele>
        <time>2013-08-18T08:29:14.050Z</time>
      </trkpt>
      <trkpt lat="43.96147" lon="7.28444">
        <ele>796</ele>
        <time>2013-08-18T08:29:15.100Z</time>
      </trkpt>
      <trkpt lat="43.96135" lon="7.28448">
        <ele>795.07001689622</ele>
        <time>2013-08-18T08:29:18.050Z</time>
      </trkpt>
      <trkpt lat="43.96122" lon="7.28464">
        <ele>789.79000051201</ele>
        <time>2013-08-18T08:29:21.950Z</time>
      </trkpt>
      <trkpt lat="43.96118" lon="7.28488">
        <ele>786</ele>
        <time>2013-08-18T08:29:27.930Z</time>
      </trkpt>
      <trkpt lat="43.96111" lon="7.28504">
        <ele>785.70999948799</ele>
        <time>2013-08-18T08:29:32.030Z</time>
      </trkpt>
      <trkpt lat="43.96108" lon="7.28515">
        <ele>783</ele>
        <time>2013-08-18T08:29:35.050Z</time>
      </trkpt>
      <trkpt lat="43.96108" lon="7.28522">
        <ele>782</ele>
        <time>2013-08-18T08:29:36.950Z</time>
      </trkpt>
      <trkpt lat="43.96114" lon="7.28557">
        <ele>780</ele>
        <time>2013-08-18T08:29:44.050Z</time>
      </trkpt>
      <trkpt lat="43.96114" lon="7.28566">
        <ele>780</ele>
        <time>2013-08-18T08:29:46.050Z</time>
      </trkpt>
      <trkpt lat="43.96116" lon="7.28574">
        <ele>779.62000153602</ele>
        <time>2013-08-18T08:29:48.120Z</time>
      </trkpt>
      <trkpt lat="43.96125" lon="7.28583">
        <ele>779</ele>
        <time>2013-08-18T08:29:51.030Z</time>
      </trkpt>
      <trkpt lat="43.96138" lon="7.28586">
        <ele>779</ele>
        <time>2013-08-18T08:29:54.950Z</time>
      </trkpt>
      <trkpt lat="43.9614" lon="7.28588">
        <ele>779</ele>
        <time>2013-08-18T08:29:55.950Z</time>
      </trkpt>
      <trkpt lat="43.96141" lon="7.28607">
        <ele>777</ele>
        <time>2013-08-18T08:30:00.030Z</time>
      </trkpt>
      <trkpt lat="43.9614" lon="7.28637">
        <ele>777</ele>
        <time>2013-08-18T08:30:06.030Z</time>
      </trkpt>
      <trkpt lat="43.96145" lon="7.28656">
        <ele>775</ele>
        <time>2013-08-18T08:30:09.900Z</time>
      </trkpt>
      <trkpt lat="43.9615" lon="7.28672">
        <ele>775</ele>
        <time>2013-08-18T08:30:14.030Z</time>
      </trkpt>
      <trkpt lat="43.96148" lon="7.28685">
        <ele>775</ele>
        <time>2013-08-18T08:30:17.030Z</time>
      </trkpt>
      <trkpt lat="43.96148" lon="7.2869">
        <ele>773.14003379243</ele>
        <time>2013-08-18T08:30:18.050Z</time>
      </trkpt>
      <trkpt lat="43.96148" lon="7.28694">
        <ele>768.62999513606</ele>
        <time>2013-08-18T08:30:19.110Z</time>
      </trkpt>
      <trkpt lat="43.96136" lon="7.28737">
        <ele>759</ele>
        <time>2013-08-18T08:30:30.050Z</time>
      </trkpt>
      <trkpt lat="43.96135" lon="7.28747">
        <ele>758.78999308809</ele>
        <time>2013-08-18T08:30:32.950Z</time>
      </trkpt>
      <trkpt lat="43.96134" lon="7.28749">
        <ele>757.81000716809</ele>
        <time>2013-08-18T08:30:33.930Z</time>
      </trkpt>
      <trkpt lat="43.96127" lon="7.28754">
        <ele>754</ele>
        <time>2013-08-18T08:30:38.050Z</time>
      </trkpt>
      <trkpt lat="43.96126" lon="7.28757">
        <ele>753.68000409595</ele>
        <time>2013-08-18T08:30:39.060Z</time>
      </trkpt>
      <trkpt lat="43.96127" lon="7.28765">
        <ele>751.78999308809</ele>
        <time>2013-08-18T08:30:40.950Z</time>
      </trkpt>
      <trkpt lat="43.96133" lon="7.28775">
        <ele>749.58000102401</ele>
        <time>2013-08-18T08:30:43.950Z</time>
      </trkpt>
      <trkpt lat="43.96133" lon="7.28778">
        <ele>747.78999308809</ele>
        <time>2013-08-18T08:30:44.950Z</time>
      </trkpt>
      <trkpt lat="43.96138" lon="7.28792">
        <ele>745.57998617618</ele>
        <time>2013-08-18T08:30:48.950Z</time>
      </trkpt>
      <trkpt lat="43.96137" lon="7.28797">
        <ele>742.80999923201</ele>
        <time>2013-08-18T08:30:50.930Z</time>
      </trkpt>
      <trkpt lat="43.96132" lon="7.28798">
        <ele>741</ele>
        <time>2013-08-18T08:30:52.950Z</time>
      </trkpt>
      <trkpt lat="43.9613" lon="7.28803">
        <ele>741</ele>
        <time>2013-08-18T08:30:55.050Z</time>
      </trkpt>
      <trkpt lat="43.9613" lon="7.28807">
        <ele>740.69000563207</ele>
        <time>2013-08-18T08:30:56.050Z</time>
      </trkpt>
      <trkpt lat="43.96136" lon="7.2882">
        <ele>735.91000204803</ele>
        <time>2013-08-18T08:30:59.830Z</time>
      </trkpt>
      <trkpt lat="43.96139" lon="7.28832">
        <ele>733.89000819211</ele>
        <time>2013-08-18T08:31:03.850Z</time>
      </trkpt>
      <trkpt lat="43.96134" lon="7.28838">
        <ele>731.69000563207</ele>
        <time>2013-08-18T08:31:08.050Z</time>
      </trkpt>
      <trkpt lat="43.96138" lon="7.28845">
        <ele>728.63999180811</ele>
        <time>2013-08-18T08:31:11.100Z</time>
      </trkpt>
      <trkpt lat="43.96144" lon="7.28849">
        <ele>727.90000512007</ele>
        <time>2013-08-18T08:31:13.840Z</time>
      </trkpt>
      <trkpt lat="43.96144" lon="7.28853">
        <ele>726.77999641605</ele>
        <time>2013-08-18T08:31:14.850Z</time>
      </trkpt>
      <trkpt lat="43.96144" lon="7.28855">
        <ele>724.88001126414</ele>
        <time>2013-08-18T08:31:15.860Z</time>
      </trkpt>
      <trkpt lat="43.96136" lon="7.28863">
        <ele>721.78999308809</ele>
        <time>2013-08-18T08:31:20.950Z</time>
      </trkpt>
      <trkpt lat="43.96114" lon="7.28873">
        <ele>716</ele>
        <time>2013-08-18T08:31:28.850Z</time>
      </trkpt>
      <trkpt lat="43.96111" lon="7.28876">
        <ele>714.91919218039</ele>
        <time>2013-08-18T08:31:30.830Z</time>
      </trkpt>
      <trkpt lat="43.96101" lon="7.28868">
        <ele>710</ele>
        <time>2013-08-18T08:31:36.850Z</time>
      </trkpt>
      <trkpt lat="43.96098" lon="7.28874">
        <ele>708.89000819211</ele>
        <time>2013-08-18T08:31:39.850Z</time>
      </trkpt>
      <trkpt lat="43.96096" lon="7.28875">
        <ele>707.88999820802</ele>
        <time>2013-08-18T08:31:40.850Z</time>
      </trkpt>
      <trkpt lat="43.96088" lon="7.2887">
        <ele>705</ele>
        <time>2013-08-18T08:31:43.950Z</time>
      </trkpt>
      <trkpt lat="43.96082" lon="7.28865">
        <ele>703.80908329261</ele>
        <time>2013-08-18T08:31:46.950Z</time>
      </trkpt>
      <trkpt lat="43.9608" lon="7.28869">
        <ele>700.89000819211</ele>
        <time>2013-08-18T08:31:49.850Z</time>
      </trkpt>
      <trkpt lat="43.96078" lon="7.28869">
        <ele>700</ele>
        <time>2013-08-18T08:31:50.830Z</time>
      </trkpt>
      <trkpt lat="43.96073" lon="7.28865">
        <ele>698.78999308809</ele>
        <time>2013-08-18T08:31:52.950Z</time>
      </trkpt>
      <trkpt lat="43.96067" lon="7.28855">
        <ele>697</ele>
        <time>2013-08-18T08:31:55.950Z</time>
      </trkpt>
      <trkpt lat="43.96066" lon="7.28855">
        <ele>696.78999308809</ele>
        <time>2013-08-18T08:31:56.950Z</time>
      </trkpt>
      <trkpt lat="43.96066" lon="7.28866">
        <ele>693.78999308809</ele>
        <time>2013-08-18T08:32:00.950Z</time>
      </trkpt>
      <trkpt lat="43.96065" lon="7.28869">
        <ele>692</ele>
        <time>2013-08-18T08:32:02.850Z</time>
      </trkpt>
      <trkpt lat="43.96062" lon="7.28864">
        <ele>691.90999155211</ele>
        <time>2013-08-18T08:32:04.830Z</time>
      </trkpt>
      <trkpt lat="43.9606" lon="7.28863">
        <ele>690.89000819211</ele>
        <time>2013-08-18T08:32:05.850Z</time>
      </trkpt>
      <trkpt lat="43.96058" lon="7.28872">
        <ele>688.88999820802</ele>
        <time>2013-08-18T08:32:08.850Z</time>
      </trkpt>
      <trkpt lat="43.96055" lon="7.28874">
        <ele>687.89215440217</ele>
        <time>2013-08-18T08:32:10.850Z</time>
      </trkpt>
      <trkpt lat="43.9605" lon="7.28865">
        <ele>686.67999590395</ele>
        <time>2013-08-18T08:32:14.060Z</time>
      </trkpt>
      <trkpt lat="43.96043" lon="7.28861">
        <ele>683.90999155211</ele>
        <time>2013-08-18T08:32:16.830Z</time>
      </trkpt>
      <trkpt lat="43.96034" lon="7.28852">
        <ele>678</ele>
        <time>2013-08-18T08:32:21.830Z</time>
      </trkpt>
      <trkpt lat="43.96028" lon="7.28846">
        <ele>677</ele>
        <time>2013-08-18T08:32:24.850Z</time>
      </trkpt>
      <trkpt lat="43.96028" lon="7.28843">
        <ele>676.79000051201</ele>
        <time>2013-08-18T08:32:25.950Z</time>
      </trkpt>
      <trkpt lat="43.96031" lon="7.28831">
        <ele>676.21000691191</ele>
        <time>2013-08-18T08:32:28.950Z</time>
      </trkpt>
      <trkpt lat="43.96031" lon="7.2882">
        <ele>678</ele>
        <time>2013-08-18T08:32:31.850Z</time>
      </trkpt>
      <trkpt lat="43.96024" lon="7.28809">
        <ele>676.89000819211</ele>
        <time>2013-08-18T08:32:35.850Z</time>
      </trkpt>
      <trkpt lat="43.96022" lon="7.28802">
        <ele>674.89000819211</ele>
        <time>2013-08-18T08:32:37.850Z</time>
      </trkpt>
      <trkpt lat="43.96025" lon="7.2879">
        <ele>674</ele>
        <time>2013-08-18T08:32:40.860Z</time>
      </trkpt>
      <trkpt lat="43.96026" lon="7.28765">
        <ele>674</ele>
        <time>2013-08-18T08:32:46.950Z</time>
      </trkpt>
      <trkpt lat="43.96026" lon="7.28755">
        <ele>672</ele>
        <time>2013-08-18T08:32:48.950Z</time>
      </trkpt>
      <trkpt lat="43.96024" lon="7.28729">
        <ele>672</ele>
        <time>2013-08-18T08:32:54.930Z</time>
      </trkpt>
      <trkpt lat="43.96022" lon="7.28732">
        <ele>670.95000256003</ele>
        <time>2013-08-18T08:32:57.950Z</time>
      </trkpt>
      <trkpt lat="43.96021" lon="7.28734">
        <ele>667</ele>
        <time>2013-08-18T08:32:58.950Z</time>
      </trkpt>
      <trkpt lat="43.96019" lon="7.28739">
        <ele>667</ele>
        <time>2013-08-18T08:33:00.950Z</time>
      </trkpt>
      <trkpt lat="43.96018" lon="7.28743">
        <ele>662</ele>
        <time>2013-08-18T08:33:06.950Z</time>
      </trkpt>
      <trkpt lat="43.96015" lon="7.28747">
        <ele>659.78999308809</ele>
        <time>2013-08-18T08:33:08.950Z</time>
      </trkpt>
      <trkpt lat="43.95999" lon="7.28749">
        <ele>655</ele>
        <time>2013-08-18T08:33:14.850Z</time>
      </trkpt>
      <trkpt lat="43.95996" lon="7.28765">
        <ele>652.79000051201</ele>
        <time>2013-08-18T08:33:19.950Z</time>
      </trkpt>
      <trkpt lat="43.95999" lon="7.28783">
        <ele>651</ele>
        <time>2013-08-18T08:33:23.950Z</time>
      </trkpt>
      <trkpt lat="43.95998" lon="7.28787">
        <ele>651</ele>
        <time>2013-08-18T08:33:24.950Z</time>
      </trkpt>
      <trkpt lat="43.95995" lon="7.28794">
        <ele>650</ele>
        <time>2013-08-18T08:33:26.950Z</time>
      </trkpt>
      <trkpt lat="43.95989" lon="7.288">
        <ele>650</ele>
        <time>2013-08-18T08:33:28.950Z</time>
      </trkpt>
      <trkpt lat="43.95981" lon="7.28804">
        <ele>650</ele>
        <time>2013-08-18T08:33:30.950Z</time>
      </trkpt>
      <trkpt lat="43.95969" lon="7.28804">
        <ele>649</ele>
        <time>2013-08-18T08:33:33.830Z</time>
      </trkpt>
      <trkpt lat="43.95962" lon="7.28807">
        <ele>649</ele>
        <time>2013-08-18T08:33:35.850Z</time>
      </trkpt>
      <trkpt lat="43.9595" lon="7.28816">
        <ele>649</ele>
        <time>2013-08-18T08:33:40.850Z</time>
      </trkpt>
      <trkpt lat="43.95941" lon="7.2882">
        <ele>649</ele>
        <time>2013-08-18T08:33:43.850Z</time>
      </trkpt>
      <trkpt lat="43.95927" lon="7.28814">
        <ele>648.37000153602</ele>
        <time>2013-08-18T08:33:47.950Z</time>
      </trkpt>
      <trkpt lat="43.95924" lon="7.28813">
        <ele>646</ele>
        <time>2013-08-18T08:33:48.950Z</time>
      </trkpt>
      <trkpt lat="43.9591" lon="7.28811">
        <ele>645.77999641605</ele>
        <time>2013-08-18T08:33:52.850Z</time>
      </trkpt>
      <trkpt lat="43.95906" lon="7.28811">
        <ele>644</ele>
        <time>2013-08-18T08:33:53.850Z</time>
      </trkpt>
      <trkpt lat="43.95891" lon="7.28813">
        <ele>643.78001638421</ele>
        <time>2013-08-18T08:33:57.850Z</time>
      </trkpt>
      <trkpt lat="43.95889" lon="7.28814">
        <ele>642</ele>
        <time>2013-08-18T08:33:58.850Z</time>
      </trkpt>
      <trkpt lat="43.95867" lon="7.28813">
        <ele>642</ele>
        <time>2013-08-18T08:34:06.950Z</time>
      </trkpt>
      <trkpt lat="43.95857" lon="7.2881">
        <ele>642</ele>
        <time>2013-08-18T08:34:09.950Z</time>
      </trkpt>
      <trkpt lat="43.95852" lon="7.28804">
        <ele>642</ele>
        <time>2013-08-18T08:34:11.850Z</time>
      </trkpt>
      <trkpt lat="43.95843" lon="7.28782">
        <ele>641.56003276842</ele>
        <time>2013-08-18T08:34:17.850Z</time>
      </trkpt>
      <trkpt lat="43.95841" lon="7.28779">
        <ele>638</ele>
        <time>2013-08-18T08:34:18.850Z</time>
      </trkpt>
      <trkpt lat="43.95835" lon="7.28766">
        <ele>637.44999104012</ele>
        <time>2013-08-18T08:34:22.850Z</time>
      </trkpt>
      <trkpt lat="43.95835" lon="7.28763">
        <ele>633</ele>
        <time>2013-08-18T08:34:23.850Z</time>
      </trkpt>
      <trkpt lat="43.9583" lon="7.28748">
        <ele>632.51999385592</ele>
        <time>2013-08-18T08:34:27.900Z</time>
      </trkpt>
      <trkpt lat="43.95825" lon="7.28731">
        <ele>625</ele>
        <time>2013-08-18T08:34:32.850Z</time>
      </trkpt>
      <trkpt lat="43.95821" lon="7.28713">
        <ele>623.88999820802</ele>
        <time>2013-08-18T08:34:36.850Z</time>
      </trkpt>
      <trkpt lat="43.95817" lon="7.287">
        <ele>621</ele>
        <time>2013-08-18T08:34:39.900Z</time>
      </trkpt>
      <trkpt lat="43.95816" lon="7.2869">
        <ele>620</ele>
        <time>2013-08-18T08:34:41.850Z</time>
      </trkpt>
      <trkpt lat="43.95819" lon="7.28665">
        <ele>619.88999820802</ele>
        <time>2013-08-18T08:34:46.850Z</time>
      </trkpt>
      <trkpt lat="43.95822" lon="7.28655">
        <ele>618</ele>
        <time>2013-08-18T08:34:48.850Z</time>
      </trkpt>
      <trkpt lat="43.95826" lon="7.28644">
        <ele>618</ele>
        <time>2013-08-18T08:34:51.900Z</time>
      </trkpt>
      <trkpt lat="43.95826" lon="7.28636">
        <ele>616</ele>
        <time>2013-08-18T08:34:53.850Z</time>
      </trkpt>
      <trkpt lat="43.95827" lon="7.2862">
        <ele>616</ele>
        <time>2013-08-18T08:34:56.850Z</time>
      </trkpt>
      <trkpt lat="43.95831" lon="7.28606">
        <ele>614</ele>
        <time>2013-08-18T08:35:00.850Z</time>
      </trkpt>
      <trkpt lat="43.95831" lon="7.28597">
        <ele>613.77999641605</ele>
        <time>2013-08-18T08:35:02.850Z</time>
      </trkpt>
      <trkpt lat="43.95832" lon="7.28593">
        <ele>612</ele>
        <time>2013-08-18T08:35:03.850Z</time>
      </trkpt>
      <trkpt lat="43.95835" lon="7.28578">
        <ele>612</ele>
        <time>2013-08-18T08:35:06.850Z</time>
      </trkpt>
      <trkpt lat="43.95837" lon="7.28574">
        <ele>611.67002457631</ele>
        <time>2013-08-18T08:35:07.850Z</time>
      </trkpt>
      <trkpt lat="43.95839" lon="7.28571">
        <ele>609</ele>
        <time>2013-08-18T08:35:08.850Z</time>
      </trkpt>
      <trkpt lat="43.9585" lon="7.28561">
        <ele>608.77999641605</ele>
        <time>2013-08-18T08:35:12.850Z</time>
      </trkpt>
      <trkpt lat="43.95852" lon="7.28559">
        <ele>607</ele>
        <time>2013-08-18T08:35:13.830Z</time>
      </trkpt>
      <trkpt lat="43.95864" lon="7.28532">
        <ele>607</ele>
        <time>2013-08-18T08:35:20.850Z</time>
      </trkpt>
      <trkpt lat="43.95875" lon="7.28518">
        <ele>607</ele>
        <time>2013-08-18T08:35:26.850Z</time>
      </trkpt>
      <trkpt lat="43.95874" lon="7.28516">
        <ele>607</ele>
        <time>2013-08-18T08:35:27.850Z</time>
      </trkpt>
      <trkpt lat="43.95863" lon="7.28514">
        <ele>607</ele>
        <time>2013-08-18T08:35:32.860Z</time>
      </trkpt>
      <trkpt lat="43.95856" lon="7.285">
        <ele>607</ele>
        <time>2013-08-18T08:35:36.850Z</time>
      </trkpt>
      <trkpt lat="43.95855" lon="7.28488">
        <ele>605</ele>
        <time>2013-08-18T08:35:39.850Z</time>
      </trkpt>
      <trkpt lat="43.9586" lon="7.28467">
        <ele>605</ele>
        <time>2013-08-18T08:35:44.850Z</time>
      </trkpt>
      <trkpt lat="43.95861" lon="7.28452">
        <ele>604.8989953842</ele>
        <time>2013-08-18T08:35:47.850Z</time>
      </trkpt>
      <trkpt lat="43.95861" lon="7.28443">
        <ele>604</ele>
        <time>2013-08-18T08:35:49.850Z</time>
      </trkpt>
      <trkpt lat="43.95865" lon="7.28422">
        <ele>604</ele>
        <time>2013-08-18T08:35:54.850Z</time>
      </trkpt>
      <trkpt lat="43.95864" lon="7.28404">
        <ele>604</ele>
        <time>2013-08-18T08:35:59.830Z</time>
      </trkpt>
      <trkpt lat="43.95867" lon="7.28391">
        <ele>604</ele>
        <time>2013-08-18T08:36:04.850Z</time>
      </trkpt>
      <trkpt lat="43.95877" lon="7.28367">
        <ele>605</ele>
        <time>2013-08-18T08:36:14.850Z</time>
      </trkpt>
      <trkpt lat="43.95877" lon="7.28361">
        <ele>605</ele>
        <time>2013-08-18T08:36:16.830Z</time>
      </trkpt>
      <trkpt lat="43.9588" lon="7.28357">
        <ele>607</ele>
        <time>2013-08-18T08:36:18.850Z</time>
      </trkpt>
      <trkpt lat="43.95882" lon="7.28351">
        <ele>607</ele>
        <time>2013-08-18T08:36:22.850Z</time>
      </trkpt>
      <trkpt lat="43.9588" lon="7.28337">
        <ele>608</ele>
        <time>2013-08-18T08:36:36.830Z</time>
      </trkpt>
      <trkpt lat="43.95879" lon="7.28335">
        <ele>611</ele>
        <time>2013-08-18T08:36:38.850Z</time>
      </trkpt>
      <trkpt lat="43.95874" lon="7.28334">
        <ele>611</ele>
        <time>2013-08-18T08:36:41.850Z</time>
      </trkpt>
      <trkpt lat="43.95872" lon="7.28335">
        <ele>613</ele>
        <time>2013-08-18T08:36:43.850Z</time>
      </trkpt>
      <trkpt lat="43.95849" lon="7.28334">
        <ele>615</ele>
        <time>2013-08-18T08:36:53.840Z</time>
      </trkpt>
      <trkpt lat="43.95828" lon="7.28338">
        <ele>615</ele>
        <time>2013-08-18T08:37:04.950Z</time>
      </trkpt>
      <trkpt lat="43.95811" lon="7.28338">
        <ele>616</ele>
        <time>2013-08-18T08:37:11.850Z</time>
      </trkpt>
      <trkpt lat="43.95806" lon="7.28336">
        <ele>616</ele>
        <time>2013-08-18T08:37:13.850Z</time>
      </trkpt>
      <trkpt lat="43.958" lon="7.28321">
        <ele>615.79000051201</ele>
        <time>2013-08-18T08:37:17.950Z</time>
      </trkpt>
      <trkpt lat="43.95799" lon="7.28295">
        <ele>615</ele>
        <time>2013-08-18T08:37:25.860Z</time>
      </trkpt>
      <trkpt lat="43.95795" lon="7.28278">
        <ele>616</ele>
        <time>2013-08-18T08:37:31.950Z</time>
      </trkpt>
      <trkpt lat="43.95798" lon="7.28262">
        <ele>616.62999846398</ele>
        <time>2013-08-18T08:37:37.950Z</time>
      </trkpt>
      <trkpt lat="43.95799" lon="7.2826">
        <ele>619</ele>
        <time>2013-08-18T08:37:38.950Z</time>
      </trkpt>
      <trkpt lat="43.95804" lon="7.28253">
        <ele>619.22000358395</ele>
        <time>2013-08-18T08:37:42.850Z</time>
      </trkpt>
      <trkpt lat="43.95806" lon="7.28249">
        <ele>621</ele>
        <time>2013-08-18T08:37:44.830Z</time>
      </trkpt>
      <trkpt lat="43.95806" lon="7.28245">
        <ele>621</ele>
        <time>2013-08-18T08:37:46.850Z</time>
      </trkpt>
      <trkpt lat="43.95804" lon="7.28243">
        <ele>622</ele>
        <time>2013-08-18T08:37:48.850Z</time>
      </trkpt>
      <trkpt lat="43.95771" lon="7.28248">
        <ele>622</ele>
        <time>2013-08-18T08:38:02.850Z</time>
      </trkpt>
      <trkpt lat="43.95759" lon="7.28262">
        <ele>621</ele>
        <time>2013-08-18T08:38:09.950Z</time>
      </trkpt>
      <trkpt lat="43.95754" lon="7.28264">
        <ele>621</ele>
        <time>2013-08-18T08:38:11.950Z</time>
      </trkpt>
      <trkpt lat="43.9574" lon="7.28258">
        <ele>621</ele>
        <time>2013-08-18T08:38:16.830Z</time>
      </trkpt>
      <trkpt lat="43.9572" lon="7.28256">
        <ele>621</ele>
        <time>2013-08-18T08:38:26.860Z</time>
      </trkpt>
      <trkpt lat="43.95715" lon="7.28256">
        <ele>623</ele>
        <time>2013-08-18T08:38:28.860Z</time>
      </trkpt>
      <trkpt lat="43.95708" lon="7.28254">
        <ele>623</ele>
        <time>2013-08-18T08:38:31.850Z</time>
      </trkpt>
      <trkpt lat="43.95697" lon="7.28248">
        <ele>623.32997542369</ele>
        <time>2013-08-18T08:38:37.850Z</time>
      </trkpt>
      <trkpt lat="43.95695" lon="7.28247">
        <ele>626</ele>
        <time>2013-08-18T08:38:38.850Z</time>
      </trkpt>
      <trkpt lat="43.95691" lon="7.28244">
        <ele>626.3113279316</ele>
        <time>2013-08-18T08:38:42.850Z</time>
      </trkpt>
      <trkpt lat="43.95689" lon="7.28244">
        <ele>629</ele>
        <time>2013-08-18T08:38:43.900Z</time>
      </trkpt>
      <trkpt lat="43.95683" lon="7.28241">
        <ele>629</ele>
        <time>2013-08-18T08:38:46.850Z</time>
      </trkpt>
      <trkpt lat="43.95675" lon="7.28241">
        <ele>629</ele>
        <time>2013-08-18T08:38:50.870Z</time>
      </trkpt>
      <trkpt lat="43.95662" lon="7.28238">
        <ele>631</ele>
        <time>2013-08-18T08:38:55.850Z</time>
      </trkpt>
      <trkpt lat="43.95649" lon="7.28231">
        <ele>631</ele>
        <time>2013-08-18T08:39:00.850Z</time>
      </trkpt>
      <trkpt lat="43.9563" lon="7.28229">
        <ele>631</ele>
        <time>2013-08-18T08:39:09.830Z</time>
      </trkpt>
      <trkpt lat="43.95618" lon="7.28211">
        <ele>631</ele>
        <time>2013-08-18T08:39:16.940Z</time>
      </trkpt>
      <trkpt lat="43.95616" lon="7.28199">
        <ele>632</ele>
        <time>2013-08-18T08:39:20.830Z</time>
      </trkpt>
      <trkpt lat="43.95612" lon="7.28188">
        <ele>632</ele>
        <time>2013-08-18T08:39:24.950Z</time>
      </trkpt>
      <trkpt lat="43.95605" lon="7.28187">
        <ele>632</ele>
        <time>2013-08-18T08:39:29Z</time>
      </trkpt>
      <trkpt lat="43.956" lon="7.2818">
        <ele>632</ele>
        <time>2013-08-18T08:39:31.950Z</time>
      </trkpt>
      <trkpt lat="43.95596" lon="7.28177">
        <ele>632</ele>
        <time>2013-08-18T08:39:33.830Z</time>
      </trkpt>
      <trkpt lat="43.9559" lon="7.2816">
        <ele>631</ele>
        <time>2013-08-18T08:39:40.850Z</time>
      </trkpt>
      <trkpt lat="43.95589" lon="7.28151">
        <ele>631</ele>
        <time>2013-08-18T08:39:44.850Z</time>
      </trkpt>
      <trkpt lat="43.95586" lon="7.28148">
        <ele>631.21998361579</ele>
        <time>2013-08-18T08:39:47.850Z</time>
      </trkpt>
      <trkpt lat="43.95585" lon="7.28146">
        <ele>633</ele>
        <time>2013-08-18T08:39:48.850Z</time>
      </trkpt>
      <trkpt lat="43.95575" lon="7.28132">
        <ele>633</ele>
        <time>2013-08-18T08:39:56.850Z</time>
      </trkpt>
      <trkpt lat="43.95573" lon="7.2813">
        <ele>637</ele>
        <time>2013-08-18T08:39:58.950Z</time>
      </trkpt>
      <trkpt lat="43.95566" lon="7.28124">
        <ele>637.3900238077</ele>
        <time>2013-08-18T08:40:02.870Z</time>
      </trkpt>
      <trkpt lat="43.95564" lon="7.28123">
        <ele>640</ele>
        <time>2013-08-18T08:40:03.860Z</time>
      </trkpt>
      <trkpt lat="43.95546" lon="7.28105">
        <ele>641</ele>
        <time>2013-08-18T08:40:14.850Z</time>
      </trkpt>
      <trkpt lat="43.95538" lon="7.28092">
        <ele>642</ele>
        <time>2013-08-18T08:40:20.870Z</time>
      </trkpt>
      <trkpt lat="43.95532" lon="7.28076">
        <ele>642</ele>
        <time>2013-08-18T08:40:26.950Z</time>
      </trkpt>
      <trkpt lat="43.95531" lon="7.28066">
        <ele>644</ele>
        <time>2013-08-18T08:40:28.950Z</time>
      </trkpt>
      <trkpt lat="43.95532" lon="7.28048">
        <ele>644</ele>
        <time>2013-08-18T08:40:32.950Z</time>
      </trkpt>
      <trkpt lat="43.95528" lon="7.2801">
        <ele>645</ele>
        <time>2013-08-18T08:40:40.850Z</time>
      </trkpt>
      <trkpt lat="43.95534" lon="7.27983">
        <ele>645</ele>
        <time>2013-08-18T08:40:46.850Z</time>
      </trkpt>
      <trkpt lat="43.95534" lon="7.2798">
        <ele>645.32997542369</ele>
        <time>2013-08-18T08:40:47.850Z</time>
      </trkpt>
      <trkpt lat="43.95534" lon="7.27977">
        <ele>648</ele>
        <time>2013-08-18T08:40:48.850Z</time>
      </trkpt>
      <trkpt lat="43.95535" lon="7.27974">
        <ele>648</ele>
        <time>2013-08-18T08:40:49.830Z</time>
      </trkpt>
      <trkpt lat="43.95539" lon="7.27968">
        <ele>648</ele>
        <time>2013-08-18T08:40:51.940Z</time>
      </trkpt>
      <trkpt lat="43.95542" lon="7.27968">
        <ele>648.63002073574</ele>
        <time>2013-08-18T08:40:52.950Z</time>
      </trkpt>
      <trkpt lat="43.95544" lon="7.2797">
        <ele>651</ele>
        <time>2013-08-18T08:40:53.960Z</time>
      </trkpt>
      <trkpt lat="43.95566" lon="7.27997">
        <ele>651</ele>
        <time>2013-08-18T08:40:59.830Z</time>
      </trkpt>
    </trkseg>
  </trk>
</gpx>